<?xml version="1.0" encoding="UTF-8" standalone="yes"?>
<gpx
 xmlns="http://www.topografix.com/GPX/1/1"
 creator="OziExplorer Version 3956f - http://www.oziexplorer.com"
 version="1.1"
 xmlns:xsi="http://www.w3.org/2001/XMLSchema-instance"
 xsi:schemaLocation="http://www.topografix.com/GPX/1/1 http://www.topografix.com/GPX/1/1/gpx.xsd">
<metadata>
 <time>2017-06-10T06:02:29Z</time>
 <bounds minlat="31.923309" minlon="34.935476" maxlat="31.952173" maxlon="34.981860"/>
</metadata>
<trk>
 <name>BenShemen_vech</name>
 <desc>BenShemen_Vech_Izm1, 21,5 km</desc>
<trkseg>
<trkpt lat="31.9508350" lon="34.9561050">
<ele>169.103043</ele>
<time>2017-04-18T16:03:06.998Z</time>
</trkpt>
<trkpt lat="31.9509140" lon="34.9560420">
<ele>166.268402</ele>
<time>2017-04-18T16:04:03.003Z</time>
</trkpt>
<trkpt lat="31.9509580" lon="34.9559390">
<ele>166.237930</ele>
<time>2017-04-18T16:04:07.997Z</time>
</trkpt>
<trkpt lat="31.9509880" lon="34.9558290">
<ele>165.963593</ele>
<time>2017-04-18T16:04:12.999Z</time>
</trkpt>
<trkpt lat="31.9510250" lon="34.9557100">
<ele>165.445435</ele>
<time>2017-04-18T16:04:18.002Z</time>
</trkpt>
<trkpt lat="31.9510430" lon="34.9555750">
<ele>165.110168</ele>
<time>2017-04-18T16:04:22.002Z</time>
</trkpt>
<trkpt lat="31.9510140" lon="34.9554780">
<ele>165.201599</ele>
<time>2017-04-18T16:04:25.000Z</time>
</trkpt>
<trkpt lat="31.9509210" lon="34.9554150">
<ele>165.506393</ele>
<time>2017-04-18T16:04:29.001Z</time>
</trkpt>
<trkpt lat="31.9508160" lon="34.9554030">
<ele>165.963593</ele>
<time>2017-04-18T16:04:33.001Z</time>
</trkpt>
<trkpt lat="31.9507040" lon="34.9554090">
<ele>166.329361</ele>
<time>2017-04-18T16:04:37.001Z</time>
</trkpt>
<trkpt lat="31.9505800" lon="34.9554300">
<ele>165.719757</ele>
<time>2017-04-18T16:04:41.002Z</time>
</trkpt>
<trkpt lat="31.9504750" lon="34.9554470">
<ele>166.298874</ele>
<time>2017-04-18T16:04:44.000Z</time>
</trkpt>
<trkpt lat="31.9503660" lon="34.9554470">
<ele>166.115997</ele>
<time>2017-04-18T16:04:46.998Z</time>
</trkpt>
<trkpt lat="31.9502580" lon="34.9554370">
<ele>165.506393</ele>
<time>2017-04-18T16:04:49.996Z</time>
</trkpt>
<trkpt lat="31.9501430" lon="34.9554330">
<ele>165.689270</ele>
<time>2017-04-18T16:04:53.996Z</time>
</trkpt>
<trkpt lat="31.9500490" lon="34.9554670">
<ele>165.994080</ele>
<time>2017-04-18T16:04:57.996Z</time>
</trkpt>
<trkpt lat="31.9499580" lon="34.9554840">
<ele>165.780731</ele>
<time>2017-04-18T16:05:01.003Z</time>
</trkpt>
<trkpt lat="31.9498320" lon="34.9554960">
<ele>165.354004</ele>
<time>2017-04-18T16:05:05.004Z</time>
</trkpt>
<trkpt lat="31.9497290" lon="34.9554920">
<ele>165.201599</ele>
<time>2017-04-18T16:05:08.002Z</time>
</trkpt>
<trkpt lat="31.9496230" lon="34.9554950">
<ele>164.561523</ele>
<time>2017-04-18T16:05:11.000Z</time>
</trkpt>
<trkpt lat="31.9495060" lon="34.9555040">
<ele>164.591995</ele>
<time>2017-04-18T16:05:13.998Z</time>
</trkpt>
<trkpt lat="31.9493780" lon="34.9555060">
<ele>164.226242</ele>
<time>2017-04-18T16:05:16.996Z</time>
</trkpt>
<trkpt lat="31.9492890" lon="34.9555090">
<ele>163.951935</ele>
<time>2017-04-18T16:05:19.000Z</time>
</trkpt>
<trkpt lat="31.9491510" lon="34.9555280">
<ele>163.921432</ele>
<time>2017-04-18T16:05:21.998Z</time>
</trkpt>
<trkpt lat="31.9490600" lon="34.9555480">
<ele>163.464233</ele>
<time>2017-04-18T16:05:24.003Z</time>
</trkpt>
<trkpt lat="31.9489680" lon="34.9555660">
<ele>163.769043</ele>
<time>2017-04-18T16:05:25.999Z</time>
</trkpt>
<trkpt lat="31.9488750" lon="34.9555890">
<ele>163.525208</ele>
<time>2017-04-18T16:05:28.003Z</time>
</trkpt>
<trkpt lat="31.9487770" lon="34.9556090">
<ele>162.915604</ele>
<time>2017-04-18T16:05:29.999Z</time>
</trkpt>
<trkpt lat="31.9486810" lon="34.9555990">
<ele>162.458405</ele>
<time>2017-04-18T16:05:32.004Z</time>
</trkpt>
<trkpt lat="31.9486090" lon="34.9554740">
<ele>161.635437</ele>
<time>2017-04-18T16:05:35.002Z</time>
</trkpt>
<trkpt lat="31.9486210" lon="34.9553080">
<ele>160.020004</ele>
<time>2017-04-18T16:05:38.000Z</time>
</trkpt>
<trkpt lat="31.9486280" lon="34.9551850">
<ele>159.654236</ele>
<time>2017-04-18T16:05:40.004Z</time>
</trkpt>
<trkpt lat="31.9486430" lon="34.9550590">
<ele>159.136078</ele>
<time>2017-04-18T16:05:42.000Z</time>
</trkpt>
<trkpt lat="31.9486610" lon="34.9549270">
<ele>158.800797</ele>
<time>2017-04-18T16:05:43.996Z</time>
</trkpt>
<trkpt lat="31.9486720" lon="34.9547950">
<ele>158.282639</ele>
<time>2017-04-18T16:05:46.000Z</time>
</trkpt>
<trkpt lat="31.9486780" lon="34.9546720">
<ele>156.850067</ele>
<time>2017-04-18T16:05:47.996Z</time>
</trkpt>
<trkpt lat="31.9486850" lon="34.9545370">
<ele>155.326080</ele>
<time>2017-04-18T16:05:51.003Z</time>
</trkpt>
<trkpt lat="31.9487010" lon="34.9544130">
<ele>153.802078</ele>
<time>2017-04-18T16:05:54.001Z</time>
</trkpt>
<trkpt lat="31.9487040" lon="34.9543060">
<ele>152.430481</ele>
<time>2017-04-18T16:05:56.999Z</time>
</trkpt>
<trkpt lat="31.9486940" lon="34.9541900">
<ele>151.119843</ele>
<time>2017-04-18T16:05:59.997Z</time>
</trkpt>
<trkpt lat="31.9486810" lon="34.9540790">
<ele>149.687286</ele>
<time>2017-04-18T16:06:03.004Z</time>
</trkpt>
<trkpt lat="31.9486570" lon="34.9539750">
<ele>148.285202</ele>
<time>2017-04-18T16:06:07.998Z</time>
</trkpt>
<trkpt lat="31.9485880" lon="34.9539000">
<ele>147.462234</ele>
<time>2017-04-18T16:06:11.998Z</time>
</trkpt>
<trkpt lat="31.9485560" lon="34.9537780">
<ele>145.938232</ele>
<time>2017-04-18T16:06:15.998Z</time>
</trkpt>
<trkpt lat="31.9485670" lon="34.9536520">
<ele>144.292313</ele>
<time>2017-04-18T16:06:19.999Z</time>
</trkpt>
<trkpt lat="31.9486320" lon="34.9535510">
<ele>143.255997</ele>
<time>2017-04-18T16:06:22.997Z</time>
</trkpt>
<trkpt lat="31.9487090" lon="34.9534910">
<ele>142.615921</ele>
<time>2017-04-18T16:06:26.004Z</time>
</trkpt>
<trkpt lat="31.9487770" lon="34.9534080">
<ele>142.402557</ele>
<time>2017-04-18T16:06:29.002Z</time>
</trkpt>
<trkpt lat="31.9488550" lon="34.9532880">
<ele>140.970001</ele>
<time>2017-04-18T16:06:32.000Z</time>
</trkpt>
<trkpt lat="31.9488970" lon="34.9531890">
<ele>140.116562</ele>
<time>2017-04-18T16:06:34.004Z</time>
</trkpt>
<trkpt lat="31.9489270" lon="34.9530440">
<ele>140.299438</ele>
<time>2017-04-18T16:06:37.002Z</time>
</trkpt>
<trkpt lat="31.9489510" lon="34.9529130">
<ele>140.726166</ele>
<time>2017-04-18T16:06:40.000Z</time>
</trkpt>
<trkpt lat="31.9489730" lon="34.9527960">
<ele>139.781281</ele>
<time>2017-04-18T16:06:42.998Z</time>
</trkpt>
<trkpt lat="31.9489540" lon="34.9526800">
<ele>139.567917</ele>
<time>2017-04-18T16:06:45.996Z</time>
</trkpt>
<trkpt lat="31.9489110" lon="34.9525750">
<ele>138.348724</ele>
<time>2017-04-18T16:06:49.003Z</time>
</trkpt>
<trkpt lat="31.9488710" lon="34.9524720">
<ele>137.312393</ele>
<time>2017-04-18T16:06:52.001Z</time>
</trkpt>
<trkpt lat="31.9488070" lon="34.9523460">
<ele>136.215118</ele>
<time>2017-04-18T16:06:56.002Z</time>
</trkpt>
<trkpt lat="31.9487680" lon="34.9522350">
<ele>134.843521</ele>
<time>2017-04-18T16:06:59.000Z</time>
</trkpt>
<trkpt lat="31.9487240" lon="34.9521200">
<ele>134.294876</ele>
<time>2017-04-18T16:07:01.998Z</time>
</trkpt>
<trkpt lat="31.9486700" lon="34.9520130">
<ele>133.685287</ele>
<time>2017-04-18T16:07:04.996Z</time>
</trkpt>
<trkpt lat="31.9485980" lon="34.9519250">
<ele>133.502396</ele>
<time>2017-04-18T16:07:08.003Z</time>
</trkpt>
<trkpt lat="31.9485060" lon="34.9518610">
<ele>132.740402</ele>
<time>2017-04-18T16:07:11.001Z</time>
</trkpt>
<trkpt lat="31.9484190" lon="34.9517910">
<ele>132.222229</ele>
<time>2017-04-18T16:07:13.999Z</time>
</trkpt>
<trkpt lat="31.9483470" lon="34.9517110">
<ele>131.033524</ele>
<time>2017-04-18T16:07:16.997Z</time>
</trkpt>
<trkpt lat="31.9482770" lon="34.9516190">
<ele>130.576324</ele>
<time>2017-04-18T16:07:20.004Z</time>
</trkpt>
<trkpt lat="31.9482340" lon="34.9515130">
<ele>130.393433</ele>
<time>2017-04-18T16:07:23.002Z</time>
</trkpt>
<trkpt lat="31.9482300" lon="34.9514050">
<ele>129.966721</ele>
<time>2017-04-18T16:07:27.002Z</time>
</trkpt>
<trkpt lat="31.9482040" lon="34.9512710">
<ele>129.905762</ele>
<time>2017-04-18T16:07:31.002Z</time>
</trkpt>
<trkpt lat="31.9481690" lon="34.9511650">
<ele>130.180084</ele>
<time>2017-04-18T16:07:34.000Z</time>
</trkpt>
<trkpt lat="31.9481490" lon="34.9510630">
<ele>130.393433</ele>
<time>2017-04-18T16:07:36.998Z</time>
</trkpt>
<trkpt lat="31.9481820" lon="34.9509470">
<ele>131.277359</ele>
<time>2017-04-18T16:07:40.999Z</time>
</trkpt>
<trkpt lat="31.9482580" lon="34.9508700">
<ele>131.643112</ele>
<time>2017-04-18T16:07:44.999Z</time>
</trkpt>
<trkpt lat="31.9483530" lon="34.9508310">
<ele>132.709915</ele>
<time>2017-04-18T16:07:48.999Z</time>
</trkpt>
<trkpt lat="31.9484490" lon="34.9507930">
<ele>132.618484</ele>
<time>2017-04-18T16:07:53.000Z</time>
</trkpt>
<trkpt lat="31.9485470" lon="34.9507470">
<ele>132.587997</ele>
<time>2017-04-18T16:07:57.000Z</time>
</trkpt>
<trkpt lat="31.9486490" lon="34.9506940">
<ele>132.435593</ele>
<time>2017-04-18T16:08:01.000Z</time>
</trkpt>
<trkpt lat="31.9487460" lon="34.9506180">
<ele>132.008881</ele>
<time>2017-04-18T16:08:05.001Z</time>
</trkpt>
<trkpt lat="31.9488180" lon="34.9505440">
<ele>131.734558</ele>
<time>2017-04-18T16:08:07.999Z</time>
</trkpt>
<trkpt lat="31.9488970" lon="34.9504610">
<ele>132.039368</ele>
<time>2017-04-18T16:08:10.997Z</time>
</trkpt>
<trkpt lat="31.9489820" lon="34.9503770">
<ele>131.704086</ele>
<time>2017-04-18T16:08:14.004Z</time>
</trkpt>
<trkpt lat="31.9490640" lon="34.9502800">
<ele>130.881119</ele>
<time>2017-04-18T16:08:17.002Z</time>
</trkpt>
<trkpt lat="31.9491380" lon="34.9501590">
<ele>130.149597</ele>
<time>2017-04-18T16:08:20.000Z</time>
</trkpt>
<trkpt lat="31.9492020" lon="34.9500740">
<ele>129.479034</ele>
<time>2017-04-18T16:08:22.004Z</time>
</trkpt>
<trkpt lat="31.9492800" lon="34.9499930">
<ele>128.778000</ele>
<time>2017-04-18T16:08:24.000Z</time>
</trkpt>
<trkpt lat="31.9493570" lon="34.9499190">
<ele>129.296158</ele>
<time>2017-04-18T16:08:25.996Z</time>
</trkpt>
<trkpt lat="31.9494530" lon="34.9498230">
<ele>129.174240</ele>
<time>2017-04-18T16:08:29.003Z</time>
</trkpt>
<trkpt lat="31.9495430" lon="34.9497570">
<ele>129.174240</ele>
<time>2017-04-18T16:08:32.001Z</time>
</trkpt>
<trkpt lat="31.9496440" lon="34.9497900">
<ele>130.210571</ele>
<time>2017-04-18T16:08:36.001Z</time>
</trkpt>
<trkpt lat="31.9497250" lon="34.9498630">
<ele>130.820160</ele>
<time>2017-04-18T16:08:40.001Z</time>
</trkpt>
<trkpt lat="31.9498120" lon="34.9499400">
<ele>130.850632</ele>
<time>2017-04-18T16:08:44.002Z</time>
</trkpt>
<trkpt lat="31.9499010" lon="34.9500150">
<ele>131.429764</ele>
<time>2017-04-18T16:08:48.002Z</time>
</trkpt>
<trkpt lat="31.9499880" lon="34.9500760">
<ele>131.826004</ele>
<time>2017-04-18T16:08:52.002Z</time>
</trkpt>
<trkpt lat="31.9500700" lon="34.9501200">
<ele>132.496567</ele>
<time>2017-04-18T16:08:56.003Z</time>
</trkpt>
<trkpt lat="31.9501560" lon="34.9501730">
<ele>134.081512</ele>
<time>2017-04-18T16:09:00.996Z</time>
</trkpt>
<trkpt lat="31.9502430" lon="34.9502250">
<ele>133.929123</ele>
<time>2017-04-18T16:09:05.999Z</time>
</trkpt>
<trkpt lat="31.9503230" lon="34.9502950">
<ele>134.813034</ele>
<time>2017-04-18T16:09:09.999Z</time>
</trkpt>
<trkpt lat="31.9504050" lon="34.9503620">
<ele>134.843521</ele>
<time>2017-04-18T16:09:14.000Z</time>
</trkpt>
<trkpt lat="31.9504940" lon="34.9504070">
<ele>135.666489</ele>
<time>2017-04-18T16:09:18.000Z</time>
</trkpt>
<trkpt lat="31.9505890" lon="34.9504450">
<ele>136.184631</ele>
<time>2017-04-18T16:09:22.000Z</time>
</trkpt>
<trkpt lat="31.9506880" lon="34.9504740">
<ele>135.788406</ele>
<time>2017-04-18T16:09:26.001Z</time>
</trkpt>
<trkpt lat="31.9508010" lon="34.9505070">
<ele>136.977112</ele>
<time>2017-04-18T16:09:31.003Z</time>
</trkpt>
<trkpt lat="31.9508940" lon="34.9505250">
<ele>137.434311</ele>
<time>2017-04-18T16:09:35.004Z</time>
</trkpt>
<trkpt lat="31.9509810" lon="34.9505620">
<ele>137.678162</ele>
<time>2017-04-18T16:09:39.004Z</time>
</trkpt>
<trkpt lat="31.9510760" lon="34.9506290">
<ele>138.226807</ele>
<time>2017-04-18T16:09:43.998Z</time>
</trkpt>
<trkpt lat="31.9511540" lon="34.9506920">
<ele>138.623032</ele>
<time>2017-04-18T16:09:47.998Z</time>
</trkpt>
<trkpt lat="31.9512350" lon="34.9507660">
<ele>139.567917</ele>
<time>2017-04-18T16:09:53.001Z</time>
</trkpt>
<trkpt lat="31.9513150" lon="34.9508340">
<ele>140.543289</ele>
<time>2017-04-18T16:09:58.003Z</time>
</trkpt>
<trkpt lat="31.9514090" lon="34.9509110">
<ele>141.274796</ele>
<time>2017-04-18T16:10:03.999Z</time>
</trkpt>
<trkpt lat="31.9515020" lon="34.9509710">
<ele>142.189194</ele>
<time>2017-04-18T16:10:10.004Z</time>
</trkpt>
<trkpt lat="31.9515940" lon="34.9510090">
<ele>143.377914</ele>
<time>2017-04-18T16:10:14.998Z</time>
</trkpt>
<trkpt lat="31.9516860" lon="34.9509930">
<ele>143.682724</ele>
<time>2017-04-18T16:10:20.001Z</time>
</trkpt>
<trkpt lat="31.9517720" lon="34.9509390">
<ele>143.774170</ele>
<time>2017-04-18T16:10:25.997Z</time>
</trkpt>
<trkpt lat="31.9518650" lon="34.9508850">
<ele>145.785843</ele>
<time>2017-04-18T16:10:32.002Z</time>
</trkpt>
<trkpt lat="31.9519500" lon="34.9508190">
<ele>147.706085</ele>
<time>2017-04-18T16:10:40.002Z</time>
</trkpt>
<trkpt lat="31.9519870" lon="34.9507090">
<ele>148.132797</ele>
<time>2017-04-18T16:10:47.001Z</time>
</trkpt>
<trkpt lat="31.9520060" lon="34.9505920">
<ele>148.407120</ele>
<time>2017-04-18T16:10:52.003Z</time>
</trkpt>
<trkpt lat="31.9520220" lon="34.9504720">
<ele>148.102325</ele>
<time>2017-04-18T16:10:56.004Z</time>
</trkpt>
<trkpt lat="31.9520400" lon="34.9503340">
<ele>148.010880</ele>
<time>2017-04-18T16:11:00.004Z</time>
</trkpt>
<trkpt lat="31.9520380" lon="34.9502190">
<ele>147.675598</ele>
<time>2017-04-18T16:11:03.002Z</time>
</trkpt>
<trkpt lat="31.9520280" lon="34.9500960">
<ele>147.706085</ele>
<time>2017-04-18T16:11:06.000Z</time>
</trkpt>
<trkpt lat="31.9520510" lon="34.9499670">
<ele>146.852631</ele>
<time>2017-04-18T16:11:08.998Z</time>
</trkpt>
<trkpt lat="31.9520650" lon="34.9498440">
<ele>147.584167</ele>
<time>2017-04-18T16:11:11.996Z</time>
</trkpt>
<trkpt lat="31.9520820" lon="34.9497280">
<ele>146.883118</ele>
<time>2017-04-18T16:11:15.003Z</time>
</trkpt>
<trkpt lat="31.9520910" lon="34.9496010">
<ele>146.121124</ele>
<time>2017-04-18T16:11:18.001Z</time>
</trkpt>
<trkpt lat="31.9521020" lon="34.9494670">
<ele>146.029678</ele>
<time>2017-04-18T16:11:20.999Z</time>
</trkpt>
<trkpt lat="31.9521170" lon="34.9493400">
<ele>145.968719</ele>
<time>2017-04-18T16:11:23.997Z</time>
</trkpt>
<trkpt lat="31.9521310" lon="34.9492110">
<ele>145.572479</ele>
<time>2017-04-18T16:11:27.004Z</time>
</trkpt>
<trkpt lat="31.9521560" lon="34.9490840">
<ele>144.993362</ele>
<time>2017-04-18T16:11:30.002Z</time>
</trkpt>
<trkpt lat="31.9521730" lon="34.9489510">
<ele>144.170395</ele>
<time>2017-04-18T16:11:33.000Z</time>
</trkpt>
<trkpt lat="31.9521560" lon="34.9488130">
<ele>144.261841</ele>
<time>2017-04-18T16:11:35.998Z</time>
</trkpt>
<trkpt lat="31.9521170" lon="34.9486840">
<ele>144.414230</ele>
<time>2017-04-18T16:11:38.996Z</time>
</trkpt>
<trkpt lat="31.9520460" lon="34.9485980">
<ele>144.932404</ele>
<time>2017-04-18T16:11:42.003Z</time>
</trkpt>
<trkpt lat="31.9519560" lon="34.9485190">
<ele>144.779999</ele>
<time>2017-04-18T16:11:46.003Z</time>
</trkpt>
<trkpt lat="31.9518730" lon="34.9484260">
<ele>144.993362</ele>
<time>2017-04-18T16:11:50.004Z</time>
</trkpt>
<trkpt lat="31.9517880" lon="34.9483340">
<ele>145.328644</ele>
<time>2017-04-18T16:11:54.004Z</time>
</trkpt>
<trkpt lat="31.9516960" lon="34.9482330">
<ele>145.389603</ele>
<time>2017-04-18T16:11:58.004Z</time>
</trkpt>
<trkpt lat="31.9516240" lon="34.9481410">
<ele>144.749512</ele>
<time>2017-04-18T16:12:01.002Z</time>
</trkpt>
<trkpt lat="31.9515590" lon="34.9480390">
<ele>144.779999</ele>
<time>2017-04-18T16:12:04.000Z</time>
</trkpt>
<trkpt lat="31.9514860" lon="34.9479410">
<ele>144.475204</ele>
<time>2017-04-18T16:12:06.998Z</time>
</trkpt>
<trkpt lat="31.9514080" lon="34.9478430">
<ele>143.743683</ele>
<time>2017-04-18T16:12:09.996Z</time>
</trkpt>
<trkpt lat="31.9513250" lon="34.9477530">
<ele>143.195038</ele>
<time>2017-04-18T16:12:13.003Z</time>
</trkpt>
<trkpt lat="31.9512430" lon="34.9476520">
<ele>142.311111</ele>
<time>2017-04-18T16:12:16.001Z</time>
</trkpt>
<trkpt lat="31.9511710" lon="34.9475460">
<ele>141.640564</ele>
<time>2017-04-18T16:12:18.999Z</time>
</trkpt>
<trkpt lat="31.9511300" lon="34.9474430">
<ele>140.939514</ele>
<time>2017-04-18T16:12:21.997Z</time>
</trkpt>
<trkpt lat="31.9511650" lon="34.9473210">
<ele>139.385040</ele>
<time>2017-04-18T16:12:25.998Z</time>
</trkpt>
<trkpt lat="31.9512460" lon="34.9472270">
<ele>138.958313</ele>
<time>2017-04-18T16:12:29.998Z</time>
</trkpt>
<trkpt lat="31.9512610" lon="34.9471160">
<ele>137.434311</ele>
<time>2017-04-18T16:12:32.996Z</time>
</trkpt>
<trkpt lat="31.9512290" lon="34.9469710">
<ele>135.910324</ele>
<time>2017-04-18T16:12:36.003Z</time>
</trkpt>
<trkpt lat="31.9511980" lon="34.9468330">
<ele>135.239761</ele>
<time>2017-04-18T16:12:37.999Z</time>
</trkpt>
<trkpt lat="31.9511470" lon="34.9466600">
<ele>133.045197</ele>
<time>2017-04-18T16:12:40.003Z</time>
</trkpt>
<trkpt lat="31.9510900" lon="34.9464730">
<ele>132.527039</ele>
<time>2017-04-18T16:12:41.999Z</time>
</trkpt>
<trkpt lat="31.9510340" lon="34.9462720">
<ele>130.698242</ele>
<time>2017-04-18T16:12:44.004Z</time>
</trkpt>
<trkpt lat="31.9510070" lon="34.9461670">
<ele>130.119125</ele>
<time>2017-04-18T16:12:44.997Z</time>
</trkpt>
<trkpt lat="31.9509440" lon="34.9459540">
<ele>128.778000</ele>
<time>2017-04-18T16:12:47.002Z</time>
</trkpt>
<trkpt lat="31.9509030" lon="34.9458490">
<ele>128.076965</ele>
<time>2017-04-18T16:12:48.004Z</time>
</trkpt>
<trkpt lat="31.9508560" lon="34.9457450">
<ele>127.406403</ele>
<time>2017-04-18T16:12:48.997Z</time>
</trkpt>
<trkpt lat="31.9508040" lon="34.9456440">
<ele>126.004318</ele>
<time>2017-04-18T16:12:50.000Z</time>
</trkpt>
<trkpt lat="31.9507540" lon="34.9455440">
<ele>125.303284</ele>
<time>2017-04-18T16:12:51.002Z</time>
</trkpt>
<trkpt lat="31.9506710" lon="34.9453580">
<ele>124.480316</ele>
<time>2017-04-18T16:12:52.998Z</time>
</trkpt>
<trkpt lat="31.9506220" lon="34.9451770">
<ele>122.255280</ele>
<time>2017-04-18T16:12:55.002Z</time>
</trkpt>
<trkpt lat="31.9505920" lon="34.9450010">
<ele>120.578880</ele>
<time>2017-04-18T16:12:56.998Z</time>
</trkpt>
<trkpt lat="31.9505670" lon="34.9448260">
<ele>118.780563</ele>
<time>2017-04-18T16:12:59.003Z</time>
</trkpt>
<trkpt lat="31.9505550" lon="34.9446500">
<ele>117.896637</ele>
<time>2017-04-18T16:13:00.998Z</time>
</trkpt>
<trkpt lat="31.9505620" lon="34.9444670">
<ele>117.165115</ele>
<time>2017-04-18T16:13:03.003Z</time>
</trkpt>
<trkpt lat="31.9505780" lon="34.9442840">
<ele>116.616486</ele>
<time>2017-04-18T16:13:04.999Z</time>
</trkpt>
<trkpt lat="31.9505980" lon="34.9441030">
<ele>116.098320</ele>
<time>2017-04-18T16:13:07.003Z</time>
</trkpt>
<trkpt lat="31.9506230" lon="34.9439330">
<ele>115.884964</ele>
<time>2017-04-18T16:13:08.999Z</time>
</trkpt>
<trkpt lat="31.9506500" lon="34.9437750">
<ele>115.061996</ele>
<time>2017-04-18T16:13:11.004Z</time>
</trkpt>
<trkpt lat="31.9506760" lon="34.9436590">
<ele>115.823997</ele>
<time>2017-04-18T16:13:12.999Z</time>
</trkpt>
<trkpt lat="31.9506340" lon="34.9435570">
<ele>115.244881</ele>
<time>2017-04-18T16:13:15.997Z</time>
</trkpt>
<trkpt lat="31.9505460" lon="34.9435220">
<ele>115.122963</ele>
<time>2017-04-18T16:13:19.004Z</time>
</trkpt>
<trkpt lat="31.9504400" lon="34.9435060">
<ele>115.153435</ele>
<time>2017-04-18T16:13:22.002Z</time>
</trkpt>
<trkpt lat="31.9503290" lon="34.9435020">
<ele>115.153435</ele>
<time>2017-04-18T16:13:25.000Z</time>
</trkpt>
<trkpt lat="31.9502150" lon="34.9435070">
<ele>114.239037</ele>
<time>2017-04-18T16:13:27.998Z</time>
</trkpt>
<trkpt lat="31.9501020" lon="34.9434900">
<ele>113.720879</ele>
<time>2017-04-18T16:13:30.996Z</time>
</trkpt>
<trkpt lat="31.9499740" lon="34.9434410">
<ele>113.507515</ele>
<time>2017-04-18T16:13:34.003Z</time>
</trkpt>
<trkpt lat="31.9498460" lon="34.9433790">
<ele>113.355118</ele>
<time>2017-04-18T16:13:37.001Z</time>
</trkpt>
<trkpt lat="31.9497680" lon="34.9433230">
<ele>113.507515</ele>
<time>2017-04-18T16:13:38.997Z</time>
</trkpt>
<trkpt lat="31.9496910" lon="34.9432540">
<ele>113.446564</ele>
<time>2017-04-18T16:13:41.002Z</time>
</trkpt>
<trkpt lat="31.9496150" lon="34.9431810">
<ele>114.421921</ele>
<time>2017-04-18T16:13:42.997Z</time>
</trkpt>
<trkpt lat="31.9495390" lon="34.9431270">
<ele>114.574318</ele>
<time>2017-04-18T16:13:45.002Z</time>
</trkpt>
<trkpt lat="31.9494220" lon="34.9430530">
<ele>115.884964</ele>
<time>2017-04-18T16:13:48.000Z</time>
</trkpt>
<trkpt lat="31.9493260" lon="34.9429810">
<ele>116.433601</ele>
<time>2017-04-18T16:13:50.998Z</time>
</trkpt>
<trkpt lat="31.9492530" lon="34.9429060">
<ele>117.043198</ele>
<time>2017-04-18T16:13:53.996Z</time>
</trkpt>
<trkpt lat="31.9491930" lon="34.9428240">
<ele>117.073685</ele>
<time>2017-04-18T16:13:57.003Z</time>
</trkpt>
<trkpt lat="31.9491250" lon="34.9427060">
<ele>117.866165</ele>
<time>2017-04-18T16:14:01.003Z</time>
</trkpt>
<trkpt lat="31.9490530" lon="34.9425890">
<ele>117.866165</ele>
<time>2017-04-18T16:14:05.004Z</time>
</trkpt>
<trkpt lat="31.9489960" lon="34.9424960">
<ele>118.201439</ele>
<time>2017-04-18T16:14:08.002Z</time>
</trkpt>
<trkpt lat="31.9489440" lon="34.9424040">
<ele>118.049034</ele>
<time>2017-04-18T16:14:11.000Z</time>
</trkpt>
<trkpt lat="31.9488870" lon="34.9422900">
<ele>117.805199</ele>
<time>2017-04-18T16:14:13.998Z</time>
</trkpt>
<trkpt lat="31.9488250" lon="34.9421610">
<ele>117.500397</ele>
<time>2017-04-18T16:14:16.996Z</time>
</trkpt>
<trkpt lat="31.9487700" lon="34.9420360">
<ele>117.500397</ele>
<time>2017-04-18T16:14:20.003Z</time>
</trkpt>
<trkpt lat="31.9487240" lon="34.9419130">
<ele>118.323364</ele>
<time>2017-04-18T16:14:23.001Z</time>
</trkpt>
<trkpt lat="31.9486800" lon="34.9417880">
<ele>117.774719</ele>
<time>2017-04-18T16:14:25.999Z</time>
</trkpt>
<trkpt lat="31.9486460" lon="34.9416540">
<ele>117.927116</ele>
<time>2017-04-18T16:14:28.997Z</time>
</trkpt>
<trkpt lat="31.9486150" lon="34.9415110">
<ele>117.591835</ele>
<time>2017-04-18T16:14:32.004Z</time>
</trkpt>
<trkpt lat="31.9485890" lon="34.9413740">
<ele>117.591835</ele>
<time>2017-04-18T16:14:35.002Z</time>
</trkpt>
<trkpt lat="31.9485740" lon="34.9412360">
<ele>117.683281</ele>
<time>2017-04-18T16:14:38.000Z</time>
</trkpt>
<trkpt lat="31.9485620" lon="34.9410900">
<ele>117.439438</ele>
<time>2017-04-18T16:14:40.998Z</time>
</trkpt>
<trkpt lat="31.9485530" lon="34.9409400">
<ele>116.525040</ele>
<time>2017-04-18T16:14:43.996Z</time>
</trkpt>
<trkpt lat="31.9485560" lon="34.9407860">
<ele>116.768883</ele>
<time>2017-04-18T16:14:47.003Z</time>
</trkpt>
<trkpt lat="31.9485720" lon="34.9406370">
<ele>116.768883</ele>
<time>2017-04-18T16:14:50.001Z</time>
</trkpt>
<trkpt lat="31.9486130" lon="34.9404980">
<ele>116.403122</ele>
<time>2017-04-18T16:14:52.999Z</time>
</trkpt>
<trkpt lat="31.9486590" lon="34.9403600">
<ele>116.403122</ele>
<time>2017-04-18T16:14:55.997Z</time>
</trkpt>
<trkpt lat="31.9486970" lon="34.9402120">
<ele>116.037361</ele>
<time>2017-04-18T16:14:59.004Z</time>
</trkpt>
<trkpt lat="31.9487210" lon="34.9401050">
<ele>115.610634</ele>
<time>2017-04-18T16:15:00.999Z</time>
</trkpt>
<trkpt lat="31.9487460" lon="34.9399880">
<ele>115.153435</ele>
<time>2017-04-18T16:15:03.004Z</time>
</trkpt>
<trkpt lat="31.9487660" lon="34.9398670">
<ele>115.488716</ele>
<time>2017-04-18T16:15:05.000Z</time>
</trkpt>
<trkpt lat="31.9487860" lon="34.9397450">
<ele>114.879120</ele>
<time>2017-04-18T16:15:07.004Z</time>
</trkpt>
<trkpt lat="31.9488090" lon="34.9396170">
<ele>114.574318</ele>
<time>2017-04-18T16:15:09.000Z</time>
</trkpt>
<trkpt lat="31.9488370" lon="34.9394950">
<ele>114.269516</ele>
<time>2017-04-18T16:15:10.996Z</time>
</trkpt>
<trkpt lat="31.9488670" lon="34.9393850">
<ele>114.025681</ele>
<time>2017-04-18T16:15:13.000Z</time>
</trkpt>
<trkpt lat="31.9489080" lon="34.9392460">
<ele>113.598961</ele>
<time>2017-04-18T16:15:15.998Z</time>
</trkpt>
<trkpt lat="31.9489550" lon="34.9391170">
<ele>113.934235</ele>
<time>2017-04-18T16:15:18.996Z</time>
</trkpt>
<trkpt lat="31.9490040" lon="34.9389860">
<ele>113.690399</ele>
<time>2017-04-18T16:15:22.003Z</time>
</trkpt>
<trkpt lat="31.9490440" lon="34.9388540">
<ele>113.781837</ele>
<time>2017-04-18T16:15:25.001Z</time>
</trkpt>
<trkpt lat="31.9490750" lon="34.9387050">
<ele>113.141762</ele>
<time>2017-04-18T16:15:27.999Z</time>
</trkpt>
<trkpt lat="31.9490540" lon="34.9385680">
<ele>112.958885</ele>
<time>2017-04-18T16:15:30.997Z</time>
</trkpt>
<trkpt lat="31.9489990" lon="34.9384650">
<ele>113.781837</ele>
<time>2017-04-18T16:15:34.004Z</time>
</trkpt>
<trkpt lat="31.9489230" lon="34.9383810">
<ele>114.025681</ele>
<time>2017-04-18T16:15:37.996Z</time>
</trkpt>
<trkpt lat="31.9488330" lon="34.9382970">
<ele>115.427765</ele>
<time>2017-04-18T16:15:42.998Z</time>
</trkpt>
<trkpt lat="31.9487520" lon="34.9382320">
<ele>116.555519</ele>
<time>2017-04-18T16:15:46.999Z</time>
</trkpt>
<trkpt lat="31.9486540" lon="34.9381620">
<ele>116.006882</ele>
<time>2017-04-18T16:15:50.999Z</time>
</trkpt>
<trkpt lat="31.9485500" lon="34.9380770">
<ele>116.372635</ele>
<time>2017-04-18T16:15:54.999Z</time>
</trkpt>
<trkpt lat="31.9484550" lon="34.9380040">
<ele>116.372635</ele>
<time>2017-04-18T16:15:57.997Z</time>
</trkpt>
<trkpt lat="31.9483630" lon="34.9379390">
<ele>115.915436</ele>
<time>2017-04-18T16:16:01.004Z</time>
</trkpt>
<trkpt lat="31.9482590" lon="34.9378870">
<ele>115.641121</ele>
<time>2017-04-18T16:16:04.002Z</time>
</trkpt>
<trkpt lat="31.9481520" lon="34.9378260">
<ele>114.970566</ele>
<time>2017-04-18T16:16:07.000Z</time>
</trkpt>
<trkpt lat="31.9480230" lon="34.9377690">
<ele>114.513367</ele>
<time>2017-04-18T16:16:09.998Z</time>
</trkpt>
<trkpt lat="31.9478880" lon="34.9377300">
<ele>113.598961</ele>
<time>2017-04-18T16:16:12.996Z</time>
</trkpt>
<trkpt lat="31.9478010" lon="34.9376720">
<ele>113.446564</ele>
<time>2017-04-18T16:16:15.001Z</time>
</trkpt>
<trkpt lat="31.9476980" lon="34.9376400">
<ele>113.080803</ele>
<time>2017-04-18T16:16:16.997Z</time>
</trkpt>
<trkpt lat="31.9475720" lon="34.9376520">
<ele>113.355118</ele>
<time>2017-04-18T16:16:20.004Z</time>
</trkpt>
<trkpt lat="31.9474660" lon="34.9376160">
<ele>112.288315</ele>
<time>2017-04-18T16:16:23.002Z</time>
</trkpt>
<trkpt lat="31.9473490" lon="34.9376050">
<ele>112.014000</ele>
<time>2017-04-18T16:16:26.000Z</time>
</trkpt>
<trkpt lat="31.9472540" lon="34.9376390">
<ele>111.983521</ele>
<time>2017-04-18T16:16:28.998Z</time>
</trkpt>
<trkpt lat="31.9471770" lon="34.9377180">
<ele>112.715034</ele>
<time>2017-04-18T16:16:31.996Z</time>
</trkpt>
<trkpt lat="31.9470950" lon="34.9377710">
<ele>112.928398</ele>
<time>2017-04-18T16:16:35.003Z</time>
</trkpt>
<trkpt lat="31.9470200" lon="34.9378420">
<ele>112.166397</ele>
<time>2017-04-18T16:16:38.001Z</time>
</trkpt>
<trkpt lat="31.9469580" lon="34.9379310">
<ele>113.019836</ele>
<time>2017-04-18T16:16:40.999Z</time>
</trkpt>
<trkpt lat="31.9468990" lon="34.9380180">
<ele>113.324638</ele>
<time>2017-04-18T16:16:43.997Z</time>
</trkpt>
<trkpt lat="31.9468660" lon="34.9381250">
<ele>113.903763</ele>
<time>2017-04-18T16:16:47.004Z</time>
</trkpt>
<trkpt lat="31.9468100" lon="34.9382540">
<ele>113.964722</ele>
<time>2017-04-18T16:16:51.004Z</time>
</trkpt>
<trkpt lat="31.9467970" lon="34.9383820">
<ele>114.269516</ele>
<time>2017-04-18T16:16:55.004Z</time>
</trkpt>
<trkpt lat="31.9467460" lon="34.9384780">
<ele>113.416084</ele>
<time>2017-04-18T16:16:58.002Z</time>
</trkpt>
<trkpt lat="31.9466620" lon="34.9385580">
<ele>113.873283</ele>
<time>2017-04-18T16:17:01.000Z</time>
</trkpt>
<trkpt lat="31.9465780" lon="34.9386200">
<ele>113.873283</ele>
<time>2017-04-18T16:17:03.998Z</time>
</trkpt>
<trkpt lat="31.9464850" lon="34.9386610">
<ele>113.995201</ele>
<time>2017-04-18T16:17:07.999Z</time>
</trkpt>
<trkpt lat="31.9463690" lon="34.9386190">
<ele>112.989365</ele>
<time>2017-04-18T16:17:11.999Z</time>
</trkpt>
<trkpt lat="31.9462640" lon="34.9385860">
<ele>112.623596</ele>
<time>2017-04-18T16:17:14.997Z</time>
</trkpt>
<trkpt lat="31.9461810" lon="34.9385050">
<ele>111.709198</ele>
<time>2017-04-18T16:17:18.004Z</time>
</trkpt>
<trkpt lat="31.9460750" lon="34.9384480">
<ele>110.733833</ele>
<time>2017-04-18T16:17:21.002Z</time>
</trkpt>
<trkpt lat="31.9459750" lon="34.9384240">
<ele>111.282478</ele>
<time>2017-04-18T16:17:24.000Z</time>
</trkpt>
<trkpt lat="31.9458770" lon="34.9383730">
<ele>110.429039</ele>
<time>2017-04-18T16:17:26.998Z</time>
</trkpt>
<trkpt lat="31.9457780" lon="34.9383010">
<ele>109.910881</ele>
<time>2017-04-18T16:17:29.996Z</time>
</trkpt>
<trkpt lat="31.9456820" lon="34.9382220">
<ele>109.362236</ele>
<time>2017-04-18T16:17:33.003Z</time>
</trkpt>
<trkpt lat="31.9455900" lon="34.9381450">
<ele>109.209839</ele>
<time>2017-04-18T16:17:36.001Z</time>
</trkpt>
<trkpt lat="31.9455020" lon="34.9380390">
<ele>108.508797</ele>
<time>2017-04-18T16:17:38.999Z</time>
</trkpt>
<trkpt lat="31.9453920" lon="34.9379410">
<ele>107.472481</ele>
<time>2017-04-18T16:17:41.997Z</time>
</trkpt>
<trkpt lat="31.9452700" lon="34.9378990">
<ele>107.990639</ele>
<time>2017-04-18T16:17:45.004Z</time>
</trkpt>
<trkpt lat="31.9451490" lon="34.9378890">
<ele>107.838234</ele>
<time>2017-04-18T16:17:48.002Z</time>
</trkpt>
<trkpt lat="31.9450300" lon="34.9378850">
<ele>108.508797</ele>
<time>2017-04-18T16:17:51.000Z</time>
</trkpt>
<trkpt lat="31.9449260" lon="34.9378990">
<ele>107.838234</ele>
<time>2017-04-18T16:17:53.998Z</time>
</trkpt>
<trkpt lat="31.9448230" lon="34.9378680">
<ele>106.375198</ele>
<time>2017-04-18T16:17:57.998Z</time>
</trkpt>
<trkpt lat="31.9447300" lon="34.9379220">
<ele>106.558083</ele>
<time>2017-04-18T16:18:01.999Z</time>
</trkpt>
<trkpt lat="31.9446590" lon="34.9380340">
<ele>108.478317</ele>
<time>2017-04-18T16:18:08.004Z</time>
</trkpt>
<trkpt lat="31.9445910" lon="34.9381270">
<ele>108.874565</ele>
<time>2017-04-18T16:18:15.002Z</time>
</trkpt>
<trkpt lat="31.9445050" lon="34.9381970">
<ele>108.661201</ele>
<time>2017-04-18T16:18:19.002Z</time>
</trkpt>
<trkpt lat="31.9444310" lon="34.9383250">
<ele>109.545120</ele>
<time>2017-04-18T16:18:23.003Z</time>
</trkpt>
<trkpt lat="31.9443720" lon="34.9384190">
<ele>109.758484</ele>
<time>2017-04-18T16:18:26.001Z</time>
</trkpt>
<trkpt lat="31.9442850" lon="34.9384980">
<ele>110.124237</ele>
<time>2017-04-18T16:18:30.001Z</time>
</trkpt>
<trkpt lat="31.9442010" lon="34.9385890">
<ele>110.703362</ele>
<time>2017-04-18T16:18:34.001Z</time>
</trkpt>
<trkpt lat="31.9441170" lon="34.9386470">
<ele>110.459518</ele>
<time>2017-04-18T16:18:42.002Z</time>
</trkpt>
<trkpt lat="31.9441640" lon="34.9385480">
<ele>109.453682</ele>
<time>2017-04-18T16:18:47.998Z</time>
</trkpt>
<trkpt lat="31.9441760" lon="34.9384270">
<ele>107.594398</ele>
<time>2017-04-18T16:18:50.996Z</time>
</trkpt>
<trkpt lat="31.9441630" lon="34.9383020">
<ele>105.735115</ele>
<time>2017-04-18T16:18:53.001Z</time>
</trkpt>
<trkpt lat="31.9441320" lon="34.9381720">
<ele>104.272079</ele>
<time>2017-04-18T16:18:54.996Z</time>
</trkpt>
<trkpt lat="31.9440830" lon="34.9380530">
<ele>103.357681</ele>
<time>2017-04-18T16:18:57.001Z</time>
</trkpt>
<trkpt lat="31.9440350" lon="34.9379310">
<ele>102.870003</ele>
<time>2017-04-18T16:18:58.997Z</time>
</trkpt>
<trkpt lat="31.9439900" lon="34.9377930">
<ele>101.711761</ele>
<time>2017-04-18T16:19:01.001Z</time>
</trkpt>
<trkpt lat="31.9439470" lon="34.9376430">
<ele>100.004883</ele>
<time>2017-04-18T16:19:02.997Z</time>
</trkpt>
<trkpt lat="31.9439010" lon="34.9374930">
<ele>99.639114</ele>
<time>2017-04-18T16:19:05.002Z</time>
</trkpt>
<trkpt lat="31.9438500" lon="34.9373500">
<ele>99.181915</ele>
<time>2017-04-18T16:19:06.997Z</time>
</trkpt>
<trkpt lat="31.9437870" lon="34.9372300">
<ele>99.181915</ele>
<time>2017-04-18T16:19:09.002Z</time>
</trkpt>
<trkpt lat="31.9437200" lon="34.9371130">
<ele>98.724716</ele>
<time>2017-04-18T16:19:10.998Z</time>
</trkpt>
<trkpt lat="31.9436490" lon="34.9369800">
<ele>97.048317</ele>
<time>2017-04-18T16:19:13.002Z</time>
</trkpt>
<trkpt lat="31.9436000" lon="34.9368550">
<ele>96.499680</ele>
<time>2017-04-18T16:19:14.998Z</time>
</trkpt>
<trkpt lat="31.9435920" lon="34.9367380">
<ele>95.768166</ele>
<time>2017-04-18T16:19:17.003Z</time>
</trkpt>
<trkpt lat="31.9435910" lon="34.9366210">
<ele>95.432884</ele>
<time>2017-04-18T16:19:18.998Z</time>
</trkpt>
<trkpt lat="31.9435990" lon="34.9365020">
<ele>94.274635</ele>
<time>2017-04-18T16:19:21.003Z</time>
</trkpt>
<trkpt lat="31.9436330" lon="34.9363880">
<ele>92.567764</ele>
<time>2017-04-18T16:19:22.999Z</time>
</trkpt>
<trkpt lat="31.9436670" lon="34.9362780">
<ele>91.318085</ele>
<time>2017-04-18T16:19:25.003Z</time>
</trkpt>
<trkpt lat="31.9436760" lon="34.9361540">
<ele>90.738960</ele>
<time>2017-04-18T16:19:26.999Z</time>
</trkpt>
<trkpt lat="31.9436530" lon="34.9360360">
<ele>89.672165</ele>
<time>2017-04-18T16:19:29.004Z</time>
</trkpt>
<trkpt lat="31.9436040" lon="34.9359290">
<ele>89.702637</ele>
<time>2017-04-18T16:19:30.999Z</time>
</trkpt>
<trkpt lat="31.9435520" lon="34.9358250">
<ele>89.641685</ele>
<time>2017-04-18T16:19:33.004Z</time>
</trkpt>
<trkpt lat="31.9434990" lon="34.9357110">
<ele>88.849197</ele>
<time>2017-04-18T16:19:35.000Z</time>
</trkpt>
<trkpt lat="31.9434500" lon="34.9355910">
<ele>87.690964</ele>
<time>2017-04-18T16:19:37.004Z</time>
</trkpt>
<trkpt lat="31.9433800" lon="34.9354760">
<ele>87.081367</ele>
<time>2017-04-18T16:19:40.002Z</time>
</trkpt>
<trkpt lat="31.9432870" lon="34.9354930">
<ele>87.416634</ele>
<time>2017-04-18T16:19:44.003Z</time>
</trkpt>
<trkpt lat="31.9432630" lon="34.9356070">
<ele>88.391998</ele>
<time>2017-04-18T16:19:48.996Z</time>
</trkpt>
<trkpt lat="31.9432680" lon="34.9357320">
<ele>90.403679</ele>
<time>2017-04-18T16:19:56.004Z</time>
</trkpt>
<trkpt lat="31.9432420" lon="34.9358470">
<ele>92.445839</ele>
<time>2017-04-18T16:20:03.002Z</time>
</trkpt>
<trkpt lat="31.9431710" lon="34.9359170">
<ele>93.756485</ele>
<time>2017-04-18T16:20:10.000Z</time>
</trkpt>
<trkpt lat="31.9430770" lon="34.9359690">
<ele>94.335602</ele>
<time>2017-04-18T16:20:16.999Z</time>
</trkpt>
<trkpt lat="31.9429850" lon="34.9359990">
<ele>95.219521</ele>
<time>2017-04-18T16:20:23.004Z</time>
</trkpt>
<trkpt lat="31.9428840" lon="34.9360180">
<ele>95.768166</ele>
<time>2017-04-18T16:20:29.000Z</time>
</trkpt>
<trkpt lat="31.9427810" lon="34.9360110">
<ele>95.981522</ele>
<time>2017-04-18T16:20:34.996Z</time>
</trkpt>
<trkpt lat="31.9426850" lon="34.9359900">
<ele>96.591118</ele>
<time>2017-04-18T16:20:41.001Z</time>
</trkpt>
<trkpt lat="31.9425870" lon="34.9359650">
<ele>96.591118</ele>
<time>2017-04-18T16:20:46.003Z</time>
</trkpt>
<trkpt lat="31.9424960" lon="34.9359350">
<ele>96.194885</ele>
<time>2017-04-18T16:20:50.004Z</time>
</trkpt>
<trkpt lat="31.9423880" lon="34.9359000">
<ele>95.615761</ele>
<time>2017-04-18T16:20:54.004Z</time>
</trkpt>
<trkpt lat="31.9422870" lon="34.9358890">
<ele>95.676720</ele>
<time>2017-04-18T16:20:58.004Z</time>
</trkpt>
<trkpt lat="31.9421960" lon="34.9358770">
<ele>95.432884</ele>
<time>2017-04-18T16:21:02.998Z</time>
</trkpt>
<trkpt lat="31.9420800" lon="34.9358470">
<ele>94.579437</ele>
<time>2017-04-18T16:21:09.996Z</time>
</trkpt>
<trkpt lat="31.9419920" lon="34.9358290">
<ele>92.842079</ele>
<time>2017-04-18T16:21:14.999Z</time>
</trkpt>
<trkpt lat="31.9419060" lon="34.9358210">
<ele>91.531433</ele>
<time>2017-04-18T16:21:21.004Z</time>
</trkpt>
<trkpt lat="31.9418260" lon="34.9358780">
<ele>90.982803</ele>
<time>2017-04-18T16:21:25.998Z</time>
</trkpt>
<trkpt lat="31.9417780" lon="34.9359820">
<ele>91.622879</ele>
<time>2017-04-18T16:21:29.998Z</time>
</trkpt>
<trkpt lat="31.9417440" lon="34.9360870">
<ele>92.445839</ele>
<time>2017-04-18T16:21:33.998Z</time>
</trkpt>
<trkpt lat="31.9416940" lon="34.9361960">
<ele>92.384880</ele>
<time>2017-04-18T16:21:39.001Z</time>
</trkpt>
<trkpt lat="31.9415810" lon="34.9362500">
<ele>91.165680</ele>
<time>2017-04-18T16:21:43.001Z</time>
</trkpt>
<trkpt lat="31.9414670" lon="34.9362740">
<ele>89.763603</ele>
<time>2017-04-18T16:21:44.997Z</time>
</trkpt>
<trkpt lat="31.9413220" lon="34.9363150">
<ele>88.148163</ele>
<time>2017-04-18T16:21:47.002Z</time>
</trkpt>
<trkpt lat="31.9411730" lon="34.9363750">
<ele>87.203285</ele>
<time>2017-04-18T16:21:48.997Z</time>
</trkpt>
<trkpt lat="31.9410360" lon="34.9364270">
<ele>86.624161</ele>
<time>2017-04-18T16:21:51.002Z</time>
</trkpt>
<trkpt lat="31.9409080" lon="34.9364430">
<ele>87.172798</ele>
<time>2017-04-18T16:21:52.998Z</time>
</trkpt>
<trkpt lat="31.9407940" lon="34.9364260">
<ele>87.172798</ele>
<time>2017-04-18T16:21:55.002Z</time>
</trkpt>
<trkpt lat="31.9406860" lon="34.9363940">
<ele>86.654633</ele>
<time>2017-04-18T16:21:56.998Z</time>
</trkpt>
<trkpt lat="31.9405870" lon="34.9363550">
<ele>86.867996</ele>
<time>2017-04-18T16:21:59.003Z</time>
</trkpt>
<trkpt lat="31.9404920" lon="34.9363160">
<ele>86.685120</ele>
<time>2017-04-18T16:22:00.998Z</time>
</trkpt>
<trkpt lat="31.9404040" lon="34.9362800">
<ele>86.685120</ele>
<time>2017-04-18T16:22:03.003Z</time>
</trkpt>
<trkpt lat="31.9402800" lon="34.9362380">
<ele>87.020401</ele>
<time>2017-04-18T16:22:06.001Z</time>
</trkpt>
<trkpt lat="31.9401670" lon="34.9361970">
<ele>86.898483</ele>
<time>2017-04-18T16:22:08.999Z</time>
</trkpt>
<trkpt lat="31.9400480" lon="34.9361620">
<ele>85.953598</ele>
<time>2017-04-18T16:22:11.997Z</time>
</trkpt>
<trkpt lat="31.9399300" lon="34.9361280">
<ele>84.582001</ele>
<time>2017-04-18T16:22:15.004Z</time>
</trkpt>
<trkpt lat="31.9398350" lon="34.9360990">
<ele>83.149437</ele>
<time>2017-04-18T16:22:18.002Z</time>
</trkpt>
<trkpt lat="31.9397340" lon="34.9361140">
<ele>81.686401</ele>
<time>2017-04-18T16:22:22.002Z</time>
</trkpt>
<trkpt lat="31.9396310" lon="34.9361200">
<ele>79.918564</ele>
<time>2017-04-18T16:22:26.996Z</time>
</trkpt>
<trkpt lat="31.9395120" lon="34.9361270">
<ele>78.181198</ele>
<time>2017-04-18T16:22:30.996Z</time>
</trkpt>
<trkpt lat="31.9394080" lon="34.9361390">
<ele>77.845917</ele>
<time>2017-04-18T16:22:34.003Z</time>
</trkpt>
<trkpt lat="31.9393070" lon="34.9361560">
<ele>75.163681</ele>
<time>2017-04-18T16:22:37.001Z</time>
</trkpt>
<trkpt lat="31.9392030" lon="34.9362080">
<ele>74.340721</ele>
<time>2017-04-18T16:22:41.002Z</time>
</trkpt>
<trkpt lat="31.9391280" lon="34.9363130">
<ele>74.919838</ele>
<time>2017-04-18T16:22:45.002Z</time>
</trkpt>
<trkpt lat="31.9390980" lon="34.9364560">
<ele>75.529442</ele>
<time>2017-04-18T16:22:49.002Z</time>
</trkpt>
<trkpt lat="31.9390800" lon="34.9365700">
<ele>75.102715</ele>
<time>2017-04-18T16:22:52.000Z</time>
</trkpt>
<trkpt lat="31.9390590" lon="34.9366940">
<ele>76.108559</ele>
<time>2017-04-18T16:22:54.998Z</time>
</trkpt>
<trkpt lat="31.9390300" lon="34.9368280">
<ele>75.163681</ele>
<time>2017-04-18T16:22:57.996Z</time>
</trkpt>
<trkpt lat="31.9390070" lon="34.9369620">
<ele>76.078079</ele>
<time>2017-04-18T16:23:01.003Z</time>
</trkpt>
<trkpt lat="31.9389970" lon="34.9370880">
<ele>75.925682</ele>
<time>2017-04-18T16:23:04.001Z</time>
</trkpt>
<trkpt lat="31.9389810" lon="34.9372230">
<ele>76.199997</ele>
<time>2017-04-18T16:23:06.999Z</time>
</trkpt>
<trkpt lat="31.9389790" lon="34.9373630">
<ele>76.169518</ele>
<time>2017-04-18T16:23:09.997Z</time>
</trkpt>
<trkpt lat="31.9389640" lon="34.9375040">
<ele>76.626717</ele>
<time>2017-04-18T16:23:13.004Z</time>
</trkpt>
<trkpt lat="31.9389560" lon="34.9376410">
<ele>76.961998</ele>
<time>2017-04-18T16:23:16.002Z</time>
</trkpt>
<trkpt lat="31.9389650" lon="34.9377860">
<ele>77.815437</ele>
<time>2017-04-18T16:23:19.000Z</time>
</trkpt>
<trkpt lat="31.9389770" lon="34.9379310">
<ele>77.937363</ele>
<time>2017-04-18T16:23:21.998Z</time>
</trkpt>
<trkpt lat="31.9389970" lon="34.9380680">
<ele>78.790802</ele>
<time>2017-04-18T16:23:24.996Z</time>
</trkpt>
<trkpt lat="31.9390150" lon="34.9381920">
<ele>79.674721</ele>
<time>2017-04-18T16:23:28.003Z</time>
</trkpt>
<trkpt lat="31.9390250" lon="34.9383110">
<ele>79.888084</ele>
<time>2017-04-18T16:23:31.001Z</time>
</trkpt>
<trkpt lat="31.9390340" lon="34.9384250">
<ele>80.528160</ele>
<time>2017-04-18T16:23:33.999Z</time>
</trkpt>
<trkpt lat="31.9390370" lon="34.9385380">
<ele>80.802483</ele>
<time>2017-04-18T16:23:36.997Z</time>
</trkpt>
<trkpt lat="31.9390470" lon="34.9386450">
<ele>80.924400</ele>
<time>2017-04-18T16:23:40.004Z</time>
</trkpt>
<trkpt lat="31.9390610" lon="34.9387580">
<ele>80.680565</ele>
<time>2017-04-18T16:23:43.002Z</time>
</trkpt>
<trkpt lat="31.9390760" lon="34.9388720">
<ele>80.863434</ele>
<time>2017-04-18T16:23:46.000Z</time>
</trkpt>
<trkpt lat="31.9390860" lon="34.9389820">
<ele>80.375763</ele>
<time>2017-04-18T16:23:48.998Z</time>
</trkpt>
<trkpt lat="31.9391040" lon="34.9391040">
<ele>80.253838</ele>
<time>2017-04-18T16:23:51.996Z</time>
</trkpt>
<trkpt lat="31.9391300" lon="34.9392360">
<ele>79.613762</ele>
<time>2017-04-18T16:23:55.003Z</time>
</trkpt>
<trkpt lat="31.9391740" lon="34.9393590">
<ele>79.918564</ele>
<time>2017-04-18T16:23:58.001Z</time>
</trkpt>
<trkpt lat="31.9392300" lon="34.9394650">
<ele>79.888084</ele>
<time>2017-04-18T16:24:00.999Z</time>
</trkpt>
<trkpt lat="31.9392830" lon="34.9395740">
<ele>79.308960</ele>
<time>2017-04-18T16:24:03.997Z</time>
</trkpt>
<trkpt lat="31.9393290" lon="34.9396850">
<ele>79.949036</ele>
<time>2017-04-18T16:24:07.004Z</time>
</trkpt>
<trkpt lat="31.9393660" lon="34.9398060">
<ele>79.461365</ele>
<time>2017-04-18T16:24:10.002Z</time>
</trkpt>
<trkpt lat="31.9393940" lon="34.9399400">
<ele>78.760315</ele>
<time>2017-04-18T16:24:13.000Z</time>
</trkpt>
<trkpt lat="31.9394150" lon="34.9400960">
<ele>78.638397</ele>
<time>2017-04-18T16:24:15.998Z</time>
</trkpt>
<trkpt lat="31.9394240" lon="34.9402120">
<ele>77.723999</ele>
<time>2017-04-18T16:24:18.003Z</time>
</trkpt>
<trkpt lat="31.9394250" lon="34.9403340">
<ele>77.358238</ele>
<time>2017-04-18T16:24:19.999Z</time>
</trkpt>
<trkpt lat="31.9394160" lon="34.9404620">
<ele>76.779121</ele>
<time>2017-04-18T16:24:22.003Z</time>
</trkpt>
<trkpt lat="31.9394080" lon="34.9405890">
<ele>76.504799</ele>
<time>2017-04-18T16:24:23.999Z</time>
</trkpt>
<trkpt lat="31.9394010" lon="34.9407030">
<ele>76.718163</ele>
<time>2017-04-18T16:24:26.004Z</time>
</trkpt>
<trkpt lat="31.9393930" lon="34.9408510">
<ele>77.510643</ele>
<time>2017-04-18T16:24:29.002Z</time>
</trkpt>
<trkpt lat="31.9393950" lon="34.9409620">
<ele>78.059280</ele>
<time>2017-04-18T16:24:32.000Z</time>
</trkpt>
<trkpt lat="31.9393950" lon="34.9411000">
<ele>79.461365</ele>
<time>2017-04-18T16:24:36.000Z</time>
</trkpt>
<trkpt lat="31.9393880" lon="34.9412320">
<ele>80.528160</ele>
<time>2017-04-18T16:24:40.000Z</time>
</trkpt>
<trkpt lat="31.9393750" lon="34.9413360">
<ele>80.893921</ele>
<time>2017-04-18T16:24:44.001Z</time>
</trkpt>
<trkpt lat="31.9393610" lon="34.9414500">
<ele>81.686401</ele>
<time>2017-04-18T16:24:49.003Z</time>
</trkpt>
<trkpt lat="31.9393430" lon="34.9415610">
<ele>83.454239</ele>
<time>2017-04-18T16:24:53.997Z</time>
</trkpt>
<trkpt lat="31.9393330" lon="34.9416730">
<ele>84.521034</ele>
<time>2017-04-18T16:24:59.000Z</time>
</trkpt>
<trkpt lat="31.9393190" lon="34.9417890">
<ele>85.892639</ele>
<time>2017-04-18T16:25:04.002Z</time>
</trkpt>
<trkpt lat="31.9393010" lon="34.9419100">
<ele>86.624161</ele>
<time>2017-04-18T16:25:08.996Z</time>
</trkpt>
<trkpt lat="31.9392940" lon="34.9420180">
<ele>86.959435</ele>
<time>2017-04-18T16:25:12.996Z</time>
</trkpt>
<trkpt lat="31.9392660" lon="34.9421480">
<ele>87.081367</ele>
<time>2017-04-18T16:25:17.999Z</time>
</trkpt>
<trkpt lat="31.9392600" lon="34.9422850">
<ele>86.685120</ele>
<time>2017-04-18T16:25:21.999Z</time>
</trkpt>
<trkpt lat="31.9392580" lon="34.9423960">
<ele>86.563202</ele>
<time>2017-04-18T16:25:24.997Z</time>
</trkpt>
<trkpt lat="31.9392500" lon="34.9425070">
<ele>86.685120</ele>
<time>2017-04-18T16:25:28.004Z</time>
</trkpt>
<trkpt lat="31.9392530" lon="34.9426200">
<ele>86.502235</ele>
<time>2017-04-18T16:25:31.002Z</time>
</trkpt>
<trkpt lat="31.9392640" lon="34.9427620">
<ele>87.599518</ele>
<time>2017-04-18T16:25:35.003Z</time>
</trkpt>
<trkpt lat="31.9392790" lon="34.9428990">
<ele>87.538567</ele>
<time>2017-04-18T16:25:39.003Z</time>
</trkpt>
<trkpt lat="31.9392910" lon="34.9430090">
<ele>87.569038</ele>
<time>2017-04-18T16:25:42.001Z</time>
</trkpt>
<trkpt lat="31.9393060" lon="34.9431260">
<ele>88.270081</ele>
<time>2017-04-18T16:25:44.999Z</time>
</trkpt>
<trkpt lat="31.9393180" lon="34.9432440">
<ele>88.270081</ele>
<time>2017-04-18T16:25:47.997Z</time>
</trkpt>
<trkpt lat="31.9393250" lon="34.9433770">
<ele>87.812881</ele>
<time>2017-04-18T16:25:51.004Z</time>
</trkpt>
<trkpt lat="31.9393290" lon="34.9435070">
<ele>87.965279</ele>
<time>2017-04-18T16:25:54.002Z</time>
</trkpt>
<trkpt lat="31.9393360" lon="34.9436400">
<ele>87.782402</ele>
<time>2017-04-18T16:25:57.000Z</time>
</trkpt>
<trkpt lat="31.9393430" lon="34.9437850">
<ele>87.721436</ele>
<time>2017-04-18T16:25:59.998Z</time>
</trkpt>
<trkpt lat="31.9393450" lon="34.9439210">
<ele>87.965279</ele>
<time>2017-04-18T16:26:02.996Z</time>
</trkpt>
<trkpt lat="31.9393420" lon="34.9440530">
<ele>87.751915</ele>
<time>2017-04-18T16:26:06.003Z</time>
</trkpt>
<trkpt lat="31.9393490" lon="34.9441830">
<ele>87.965279</ele>
<time>2017-04-18T16:26:09.001Z</time>
</trkpt>
<trkpt lat="31.9393560" lon="34.9443060">
<ele>87.965279</ele>
<time>2017-04-18T16:26:11.999Z</time>
</trkpt>
<trkpt lat="31.9393610" lon="34.9444240">
<ele>88.635834</ele>
<time>2017-04-18T16:26:14.997Z</time>
</trkpt>
<trkpt lat="31.9393630" lon="34.9445460">
<ele>88.544403</ele>
<time>2017-04-18T16:26:18.004Z</time>
</trkpt>
<trkpt lat="31.9393590" lon="34.9446840">
<ele>88.605362</ele>
<time>2017-04-18T16:26:21.002Z</time>
</trkpt>
<trkpt lat="31.9393590" lon="34.9448320">
<ele>87.934799</ele>
<time>2017-04-18T16:26:24.000Z</time>
</trkpt>
<trkpt lat="31.9393600" lon="34.9449760">
<ele>88.209122</ele>
<time>2017-04-18T16:26:26.998Z</time>
</trkpt>
<trkpt lat="31.9393610" lon="34.9451220">
<ele>87.050880</ele>
<time>2017-04-18T16:26:29.996Z</time>
</trkpt>
<trkpt lat="31.9393580" lon="34.9452700">
<ele>87.477600</ele>
<time>2017-04-18T16:26:33.003Z</time>
</trkpt>
<trkpt lat="31.9393350" lon="34.9453960">
<ele>87.325203</ele>
<time>2017-04-18T16:26:36.001Z</time>
</trkpt>
<trkpt lat="31.9392840" lon="34.9454890">
<ele>86.867996</ele>
<time>2017-04-18T16:26:38.999Z</time>
</trkpt>
<trkpt lat="31.9392040" lon="34.9455590">
<ele>86.715599</ele>
<time>2017-04-18T16:26:41.997Z</time>
</trkpt>
<trkpt lat="31.9391320" lon="34.9456460">
<ele>85.709763</ele>
<time>2017-04-18T16:26:45.004Z</time>
</trkpt>
<trkpt lat="31.9390470" lon="34.9457420">
<ele>84.673439</ele>
<time>2017-04-18T16:26:48.002Z</time>
</trkpt>
<trkpt lat="31.9389470" lon="34.9458550">
<ele>84.368637</ele>
<time>2017-04-18T16:26:51.000Z</time>
</trkpt>
<trkpt lat="31.9388850" lon="34.9459540">
<ele>83.484718</ele>
<time>2017-04-18T16:26:52.996Z</time>
</trkpt>
<trkpt lat="31.9388180" lon="34.9460440">
<ele>82.875114</ele>
<time>2017-04-18T16:26:55.000Z</time>
</trkpt>
<trkpt lat="31.9387470" lon="34.9461350">
<ele>82.052162</ele>
<time>2017-04-18T16:26:56.996Z</time>
</trkpt>
<trkpt lat="31.9386740" lon="34.9462340">
<ele>81.899765</ele>
<time>2017-04-18T16:26:59.001Z</time>
</trkpt>
<trkpt lat="31.9386080" lon="34.9463310">
<ele>80.893921</ele>
<time>2017-04-18T16:27:00.996Z</time>
</trkpt>
<trkpt lat="31.9385490" lon="34.9464190">
<ele>80.375763</ele>
<time>2017-04-18T16:27:04.003Z</time>
</trkpt>
<trkpt lat="31.9384530" lon="34.9464630">
<ele>79.857597</ele>
<time>2017-04-18T16:27:08.004Z</time>
</trkpt>
<trkpt lat="31.9383730" lon="34.9465290">
<ele>79.613762</ele>
<time>2017-04-18T16:27:11.002Z</time>
</trkpt>
<trkpt lat="31.9383330" lon="34.9466300">
<ele>79.339439</ele>
<time>2017-04-18T16:27:14.000Z</time>
</trkpt>
<trkpt lat="31.9383370" lon="34.9467430">
<ele>79.400398</ele>
<time>2017-04-18T16:27:16.998Z</time>
</trkpt>
<trkpt lat="31.9383460" lon="34.9468550">
<ele>80.131920</ele>
<time>2017-04-18T16:27:19.996Z</time>
</trkpt>
<trkpt lat="31.9383470" lon="34.9469660">
<ele>80.284317</ele>
<time>2017-04-18T16:27:23.003Z</time>
</trkpt>
<trkpt lat="31.9383370" lon="34.9470960">
<ele>80.985367</ele>
<time>2017-04-18T16:27:27.003Z</time>
</trkpt>
<trkpt lat="31.9383270" lon="34.9472170">
<ele>81.229202</ele>
<time>2017-04-18T16:27:31.003Z</time>
</trkpt>
<trkpt lat="31.9383430" lon="34.9473270">
<ele>81.229202</ele>
<time>2017-04-18T16:27:35.004Z</time>
</trkpt>
<trkpt lat="31.9383840" lon="34.9474430">
<ele>81.594963</ele>
<time>2017-04-18T16:27:39.997Z</time>
</trkpt>
<trkpt lat="31.9384250" lon="34.9475690">
<ele>82.082634</ele>
<time>2017-04-18T16:27:43.998Z</time>
</trkpt>
<trkpt lat="31.9384570" lon="34.9477110">
<ele>81.533997</ele>
<time>2017-04-18T16:27:47.998Z</time>
</trkpt>
<trkpt lat="31.9384930" lon="34.9478250">
<ele>81.442566</ele>
<time>2017-04-18T16:27:50.996Z</time>
</trkpt>
<trkpt lat="31.9385360" lon="34.9479300">
<ele>81.930237</ele>
<time>2017-04-18T16:27:54.003Z</time>
</trkpt>
<trkpt lat="31.9386040" lon="34.9480260">
<ele>81.594963</ele>
<time>2017-04-18T16:27:58.003Z</time>
</trkpt>
<trkpt lat="31.9386670" lon="34.9481090">
<ele>81.137764</ele>
<time>2017-04-18T16:28:02.004Z</time>
</trkpt>
<trkpt lat="31.9387260" lon="34.9482260">
<ele>82.356964</ele>
<time>2017-04-18T16:28:06.004Z</time>
</trkpt>
<trkpt lat="31.9387780" lon="34.9483310">
<ele>81.991203</ele>
<time>2017-04-18T16:28:09.002Z</time>
</trkpt>
<trkpt lat="31.9388280" lon="34.9484410">
<ele>81.838799</ele>
<time>2017-04-18T16:28:12.000Z</time>
</trkpt>
<trkpt lat="31.9388770" lon="34.9485610">
<ele>81.747360</ele>
<time>2017-04-18T16:28:14.998Z</time>
</trkpt>
<trkpt lat="31.9389320" lon="34.9486770">
<ele>81.716881</ele>
<time>2017-04-18T16:28:17.996Z</time>
</trkpt>
<trkpt lat="31.9389900" lon="34.9487850">
<ele>81.747360</ele>
<time>2017-04-18T16:28:21.003Z</time>
</trkpt>
<trkpt lat="31.9390600" lon="34.9488780">
<ele>81.869286</ele>
<time>2017-04-18T16:28:24.001Z</time>
</trkpt>
<trkpt lat="31.9391390" lon="34.9489840">
<ele>82.113121</ele>
<time>2017-04-18T16:28:28.001Z</time>
</trkpt>
<trkpt lat="31.9391980" lon="34.9490680">
<ele>82.174080</ele>
<time>2017-04-18T16:28:30.999Z</time>
</trkpt>
<trkpt lat="31.9392650" lon="34.9491680">
<ele>82.295998</ele>
<time>2017-04-18T16:28:35.000Z</time>
</trkpt>
<trkpt lat="31.9393260" lon="34.9492760">
<ele>82.783684</ele>
<time>2017-04-18T16:28:40.002Z</time>
</trkpt>
<trkpt lat="31.9393620" lon="34.9493760">
<ele>83.515198</ele>
<time>2017-04-18T16:28:44.003Z</time>
</trkpt>
<trkpt lat="31.9394080" lon="34.9494860">
<ele>84.185760</ele>
<time>2017-04-18T16:28:48.003Z</time>
</trkpt>
<trkpt lat="31.9394630" lon="34.9495830">
<ele>84.460083</ele>
<time>2017-04-18T16:28:52.003Z</time>
</trkpt>
<trkpt lat="31.9395100" lon="34.9496800">
<ele>85.130638</ele>
<time>2017-04-18T16:28:56.004Z</time>
</trkpt>
<trkpt lat="31.9395700" lon="34.9498000">
<ele>85.770721</ele>
<time>2017-04-18T16:29:00.997Z</time>
</trkpt>
<trkpt lat="31.9396330" lon="34.9499090">
<ele>86.715599</ele>
<time>2017-04-18T16:29:06.000Z</time>
</trkpt>
<trkpt lat="31.9396900" lon="34.9500070">
<ele>88.422485</ele>
<time>2017-04-18T16:29:11.996Z</time>
</trkpt>
<trkpt lat="31.9397330" lon="34.9501180">
<ele>89.885521</ele>
<time>2017-04-18T16:29:19.997Z</time>
</trkpt>
<trkpt lat="31.9397890" lon="34.9502210">
<ele>91.043762</ele>
<time>2017-04-18T16:29:27.004Z</time>
</trkpt>
<trkpt lat="31.9398550" lon="34.9503370">
<ele>91.409515</ele>
<time>2017-04-18T16:29:34.002Z</time>
</trkpt>
<trkpt lat="31.9399270" lon="34.9504310">
<ele>93.329765</ele>
<time>2017-04-18T16:29:41.001Z</time>
</trkpt>
<trkpt lat="31.9399840" lon="34.9505340">
<ele>94.091766</ele>
<time>2017-04-18T16:29:49.001Z</time>
</trkpt>
<trkpt lat="31.9400530" lon="34.9506310">
<ele>95.189034</ele>
<time>2017-04-18T16:29:57.002Z</time>
</trkpt>
<trkpt lat="31.9401170" lon="34.9507350">
<ele>96.194885</ele>
<time>2017-04-18T16:30:05.003Z</time>
</trkpt>
<trkpt lat="31.9401680" lon="34.9508200">
<ele>97.932236</ele>
<time>2017-04-18T16:30:13.003Z</time>
</trkpt>
<trkpt lat="31.9402420" lon="34.9509200">
<ele>100.218239</ele>
<time>2017-04-18T16:30:21.997Z</time>
</trkpt>
<trkpt lat="31.9403050" lon="34.9510160">
<ele>103.083366</ele>
<time>2017-04-18T16:30:31.000Z</time>
</trkpt>
<trkpt lat="31.9403760" lon="34.9510850">
<ele>104.698799</ele>
<time>2017-04-18T16:30:39.001Z</time>
</trkpt>
<trkpt lat="31.9404490" lon="34.9511450">
<ele>105.186485</ele>
<time>2017-04-18T16:30:45.999Z</time>
</trkpt>
<trkpt lat="31.9405440" lon="34.9511980">
<ele>105.765602</ele>
<time>2017-04-18T16:30:52.004Z</time>
</trkpt>
<trkpt lat="31.9406420" lon="34.9512310">
<ele>106.405685</ele>
<time>2017-04-18T16:30:59.003Z</time>
</trkpt>
<trkpt lat="31.9407490" lon="34.9512380">
<ele>109.148880</ele>
<time>2017-04-18T16:31:06.001Z</time>
</trkpt>
<trkpt lat="31.9408420" lon="34.9512600">
<ele>108.935516</ele>
<time>2017-04-18T16:31:11.997Z</time>
</trkpt>
<trkpt lat="31.9409580" lon="34.9512700">
<ele>110.032799</ele>
<time>2017-04-18T16:31:19.004Z</time>
</trkpt>
<trkpt lat="31.9410650" lon="34.9512880">
<ele>109.606079</ele>
<time>2017-04-18T16:31:49.002Z</time>
</trkpt>
<trkpt lat="31.9411580" lon="34.9513160">
<ele>109.423203</ele>
<time>2017-04-18T16:31:57.996Z</time>
</trkpt>
<trkpt lat="31.9412600" lon="34.9512930">
<ele>108.508797</ele>
<time>2017-04-18T16:32:21.998Z</time>
</trkpt>
<trkpt lat="31.9413640" lon="34.9512500">
<ele>107.594398</ele>
<time>2017-04-18T16:32:25.999Z</time>
</trkpt>
<trkpt lat="31.9414760" lon="34.9512180">
<ele>106.405685</ele>
<time>2017-04-18T16:32:28.997Z</time>
</trkpt>
<trkpt lat="31.9416070" lon="34.9512260">
<ele>105.155998</ele>
<time>2017-04-18T16:32:32.004Z</time>
</trkpt>
<trkpt lat="31.9417020" lon="34.9512540">
<ele>104.302567</ele>
<time>2017-04-18T16:32:33.999Z</time>
</trkpt>
<trkpt lat="31.9417970" lon="34.9512770">
<ele>103.936798</ele>
<time>2017-04-18T16:32:36.004Z</time>
</trkpt>
<trkpt lat="31.9418880" lon="34.9513040">
<ele>103.388161</ele>
<time>2017-04-18T16:32:38.000Z</time>
</trkpt>
<trkpt lat="31.9419900" lon="34.9513680">
<ele>102.351837</ele>
<time>2017-04-18T16:32:40.998Z</time>
</trkpt>
<trkpt lat="31.9420760" lon="34.9513860">
<ele>101.711761</ele>
<time>2017-04-18T16:32:43.996Z</time>
</trkpt>
<trkpt lat="31.9421470" lon="34.9513120">
<ele>98.999039</ele>
<time>2017-04-18T16:32:47.996Z</time>
</trkpt>
<trkpt lat="31.9422160" lon="34.9512190">
<ele>97.048317</ele>
<time>2017-04-18T16:32:51.996Z</time>
</trkpt>
<trkpt lat="31.9423040" lon="34.9511730">
<ele>96.438721</ele>
<time>2017-04-18T16:32:55.003Z</time>
</trkpt>
<trkpt lat="31.9424010" lon="34.9511460">
<ele>95.067116</ele>
<time>2017-04-18T16:32:58.001Z</time>
</trkpt>
<trkpt lat="31.9424970" lon="34.9511190">
<ele>93.725998</ele>
<time>2017-04-18T16:33:00.999Z</time>
</trkpt>
<trkpt lat="31.9426230" lon="34.9511380">
<ele>92.811600</ele>
<time>2017-04-18T16:33:05.000Z</time>
</trkpt>
<trkpt lat="31.9427250" lon="34.9511810">
<ele>91.988640</ele>
<time>2017-04-18T16:33:07.998Z</time>
</trkpt>
<trkpt lat="31.9428100" lon="34.9512650">
<ele>93.268799</ele>
<time>2017-04-18T16:33:13.000Z</time>
</trkpt>
<trkpt lat="31.9428580" lon="34.9513770">
<ele>93.969833</ele>
<time>2017-04-18T16:33:18.003Z</time>
</trkpt>
<trkpt lat="31.9428510" lon="34.9514930">
<ele>94.091766</ele>
<time>2017-04-18T16:33:22.997Z</time>
</trkpt>
<trkpt lat="31.9428410" lon="34.9516140">
<ele>94.366081</ele>
<time>2017-04-18T16:33:26.997Z</time>
</trkpt>
<trkpt lat="31.9428370" lon="34.9517260">
<ele>94.366081</ele>
<time>2017-04-18T16:33:30.997Z</time>
</trkpt>
<trkpt lat="31.9428480" lon="34.9518370">
<ele>95.097603</ele>
<time>2017-04-18T16:33:34.998Z</time>
</trkpt>
<trkpt lat="31.9428540" lon="34.9519890">
<ele>95.189034</ele>
<time>2017-04-18T16:33:38.998Z</time>
</trkpt>
<trkpt lat="31.9428780" lon="34.9521310">
<ele>94.823280</ele>
<time>2017-04-18T16:33:42.998Z</time>
</trkpt>
<trkpt lat="31.9429120" lon="34.9522460">
<ele>94.762321</ele>
<time>2017-04-18T16:33:46.999Z</time>
</trkpt>
<trkpt lat="31.9429180" lon="34.9523760">
<ele>96.774002</ele>
<time>2017-04-18T16:33:52.001Z</time>
</trkpt>
<trkpt lat="31.9429190" lon="34.9525180">
<ele>97.170235</ele>
<time>2017-04-18T16:33:57.004Z</time>
</trkpt>
<trkpt lat="31.9429240" lon="34.9526920">
<ele>97.261681</ele>
<time>2017-04-18T16:34:01.998Z</time>
</trkpt>
<trkpt lat="31.9429330" lon="34.9528560">
<ele>97.505516</ele>
<time>2017-04-18T16:34:05.998Z</time>
</trkpt>
<trkpt lat="31.9429440" lon="34.9530100">
<ele>97.200722</ele>
<time>2017-04-18T16:34:09.998Z</time>
</trkpt>
<trkpt lat="31.9429520" lon="34.9531490">
<ele>97.901764</ele>
<time>2017-04-18T16:34:13.999Z</time>
</trkpt>
<trkpt lat="31.9429570" lon="34.9532910">
<ele>96.774002</ele>
<time>2017-04-18T16:34:16.997Z</time>
</trkpt>
<trkpt lat="31.9429770" lon="34.9534320">
<ele>97.901764</ele>
<time>2017-04-18T16:34:20.997Z</time>
</trkpt>
<trkpt lat="31.9430320" lon="34.9535550">
<ele>98.602798</ele>
<time>2017-04-18T16:34:26.000Z</time>
</trkpt>
<trkpt lat="31.9430860" lon="34.9536810">
<ele>99.090485</ele>
<time>2017-04-18T16:34:31.002Z</time>
</trkpt>
<trkpt lat="31.9431160" lon="34.9538230">
<ele>99.273361</ele>
<time>2017-04-18T16:34:35.003Z</time>
</trkpt>
<trkpt lat="31.9431640" lon="34.9539570">
<ele>100.279198</ele>
<time>2017-04-18T16:34:39.996Z</time>
</trkpt>
<trkpt lat="31.9432010" lon="34.9540800">
<ele>101.376480</ele>
<time>2017-04-18T16:34:43.997Z</time>
</trkpt>
<trkpt lat="31.9432310" lon="34.9541960">
<ele>102.047035</ele>
<time>2017-04-18T16:34:48.999Z</time>
</trkpt>
<trkpt lat="31.9432900" lon="34.9543280">
<ele>101.772720</ele>
<time>2017-04-18T16:34:54.002Z</time>
</trkpt>
<trkpt lat="31.9433110" lon="34.9544420">
<ele>102.047035</ele>
<time>2017-04-18T16:34:58.002Z</time>
</trkpt>
<trkpt lat="31.9433140" lon="34.9545600">
<ele>102.443283</ele>
<time>2017-04-18T16:35:02.003Z</time>
</trkpt>
<trkpt lat="31.9433250" lon="34.9546990">
<ele>102.961433</ele>
<time>2017-04-18T16:35:07.999Z</time>
</trkpt>
<trkpt lat="31.9433130" lon="34.9548490">
<ele>102.443283</ele>
<time>2017-04-18T16:35:33.996Z</time>
</trkpt>
<trkpt lat="31.9433210" lon="34.9549670">
<ele>102.809036</ele>
<time>2017-04-18T16:35:38.999Z</time>
</trkpt>
<trkpt lat="31.9433300" lon="34.9550810">
<ele>103.692963</ele>
<time>2017-04-18T16:35:42.999Z</time>
</trkpt>
<trkpt lat="31.9433260" lon="34.9551940">
<ele>104.454964</ele>
<time>2017-04-18T16:35:47.000Z</time>
</trkpt>
<trkpt lat="31.9433300" lon="34.9553030">
<ele>105.735115</ele>
<time>2017-04-18T16:35:52.002Z</time>
</trkpt>
<trkpt lat="31.9433750" lon="34.9554170">
<ele>104.942635</ele>
<time>2017-04-18T16:35:56.003Z</time>
</trkpt>
<trkpt lat="31.9433940" lon="34.9555340">
<ele>104.942635</ele>
<time>2017-04-18T16:36:00.003Z</time>
</trkpt>
<trkpt lat="31.9434190" lon="34.9556620">
<ele>105.064560</ele>
<time>2017-04-18T16:36:04.997Z</time>
</trkpt>
<trkpt lat="31.9434290" lon="34.9557970">
<ele>105.308403</ele>
<time>2017-04-18T16:36:09.999Z</time>
</trkpt>
<trkpt lat="31.9434330" lon="34.9559220">
<ele>105.857033</ele>
<time>2017-04-18T16:36:14.000Z</time>
</trkpt>
<trkpt lat="31.9434150" lon="34.9560460">
<ele>106.253281</ele>
<time>2017-04-18T16:36:18.000Z</time>
</trkpt>
<trkpt lat="31.9433860" lon="34.9561720">
<ele>108.051598</ele>
<time>2017-04-18T16:36:23.003Z</time>
</trkpt>
<trkpt lat="31.9433540" lon="34.9562880">
<ele>108.478317</ele>
<time>2017-04-18T16:36:27.996Z</time>
</trkpt>
<trkpt lat="31.9433230" lon="34.9564070">
<ele>108.630714</ele>
<time>2017-04-18T16:36:31.997Z</time>
</trkpt>
<trkpt lat="31.9432690" lon="34.9565200">
<ele>110.002319</ele>
<time>2017-04-18T16:36:36.999Z</time>
</trkpt>
<trkpt lat="31.9432260" lon="34.9566270">
<ele>109.423203</ele>
<time>2017-04-18T16:36:55.999Z</time>
</trkpt>
<trkpt lat="31.9432380" lon="34.9567600">
<ele>109.727997</ele>
<time>2017-04-18T16:37:01.001Z</time>
</trkpt>
<trkpt lat="31.9432330" lon="34.9568930">
<ele>110.185204</ele>
<time>2017-04-18T16:37:05.002Z</time>
</trkpt>
<trkpt lat="31.9432210" lon="34.9570040">
<ele>110.916718</ele>
<time>2017-04-18T16:37:09.002Z</time>
</trkpt>
<trkpt lat="31.9432220" lon="34.9571090">
<ele>111.556801</ele>
<time>2017-04-18T16:37:13.002Z</time>
</trkpt>
<trkpt lat="31.9431580" lon="34.9571790">
<ele>112.836967</ele>
<time>2017-04-18T16:37:17.996Z</time>
</trkpt>
<trkpt lat="31.9431410" lon="34.9572920">
<ele>113.659920</ele>
<time>2017-04-18T16:37:24.001Z</time>
</trkpt>
<trkpt lat="31.9431250" lon="34.9574000">
<ele>113.538002</ele>
<time>2017-04-18T16:37:29.004Z</time>
</trkpt>
<trkpt lat="31.9430950" lon="34.9575090">
<ele>114.665764</ele>
<time>2017-04-18T16:37:33.997Z</time>
</trkpt>
<trkpt lat="31.9430690" lon="34.9576320">
<ele>115.702080</ele>
<time>2017-04-18T16:37:40.002Z</time>
</trkpt>
<trkpt lat="31.9430820" lon="34.9577500">
<ele>115.336319</ele>
<time>2017-04-18T16:37:44.996Z</time>
</trkpt>
<trkpt lat="31.9430520" lon="34.9578510">
<ele>116.159279</ele>
<time>2017-04-18T16:37:48.996Z</time>
</trkpt>
<trkpt lat="31.9430260" lon="34.9579570">
<ele>117.713760</ele>
<time>2017-04-18T16:37:53.999Z</time>
</trkpt>
<trkpt lat="31.9430470" lon="34.9580880">
<ele>117.408966</ele>
<time>2017-04-18T16:37:59.002Z</time>
</trkpt>
<trkpt lat="31.9430810" lon="34.9582170">
<ele>117.378479</ele>
<time>2017-04-18T16:38:03.002Z</time>
</trkpt>
<trkpt lat="31.9431240" lon="34.9583240">
<ele>117.195602</ele>
<time>2017-04-18T16:38:06.000Z</time>
</trkpt>
<trkpt lat="31.9431650" lon="34.9584350">
<ele>117.561363</ele>
<time>2017-04-18T16:38:08.998Z</time>
</trkpt>
<trkpt lat="31.9431870" lon="34.9585480">
<ele>118.018562</ele>
<time>2017-04-18T16:38:11.996Z</time>
</trkpt>
<trkpt lat="31.9432020" lon="34.9586870">
<ele>118.170967</ele>
<time>2017-04-18T16:38:15.996Z</time>
</trkpt>
<trkpt lat="31.9432430" lon="34.9588020">
<ele>118.414803</ele>
<time>2017-04-18T16:38:19.997Z</time>
</trkpt>
<trkpt lat="31.9433230" lon="34.9588990">
<ele>118.902481</ele>
<time>2017-04-18T16:38:23.997Z</time>
</trkpt>
<trkpt lat="31.9434020" lon="34.9590000">
<ele>119.176804</ele>
<time>2017-04-18T16:38:27.997Z</time>
</trkpt>
<trkpt lat="31.9434600" lon="34.9591070">
<ele>119.877838</ele>
<time>2017-04-18T16:38:31.998Z</time>
</trkpt>
<trkpt lat="31.9435070" lon="34.9592030">
<ele>120.426483</ele>
<time>2017-04-18T16:38:34.996Z</time>
</trkpt>
<trkpt lat="31.9435550" lon="34.9593020">
<ele>120.456963</ele>
<time>2017-04-18T16:38:38.003Z</time>
</trkpt>
<trkpt lat="31.9435980" lon="34.9594000">
<ele>120.731285</ele>
<time>2017-04-18T16:38:41.001Z</time>
</trkpt>
<trkpt lat="31.9436400" lon="34.9595340">
<ele>121.279915</ele>
<time>2017-04-18T16:38:45.001Z</time>
</trkpt>
<trkpt lat="31.9436680" lon="34.9596610">
<ele>122.072403</ele>
<time>2017-04-18T16:38:49.001Z</time>
</trkpt>
<trkpt lat="31.9436890" lon="34.9597960">
<ele>122.194321</ele>
<time>2017-04-18T16:38:53.002Z</time>
</trkpt>
<trkpt lat="31.9436970" lon="34.9599240">
<ele>122.224800</ele>
<time>2017-04-18T16:38:57.002Z</time>
</trkpt>
<trkpt lat="31.9436990" lon="34.9600550">
<ele>122.956322</ele>
<time>2017-04-18T16:39:01.002Z</time>
</trkpt>
<trkpt lat="31.9436750" lon="34.9601830">
<ele>123.504967</ele>
<time>2017-04-18T16:39:05.003Z</time>
</trkpt>
<trkpt lat="31.9436290" lon="34.9603050">
<ele>123.870720</ele>
<time>2017-04-18T16:39:09.003Z</time>
</trkpt>
<trkpt lat="31.9435730" lon="34.9604240">
<ele>124.815598</ele>
<time>2017-04-18T16:39:13.003Z</time>
</trkpt>
<trkpt lat="31.9435100" lon="34.9605270">
<ele>125.272797</ele>
<time>2017-04-18T16:39:17.004Z</time>
</trkpt>
<trkpt lat="31.9434430" lon="34.9606190">
<ele>125.608086</ele>
<time>2017-04-18T16:39:21.004Z</time>
</trkpt>
<trkpt lat="31.9433800" lon="34.9607220">
<ele>125.943367</ele>
<time>2017-04-18T16:39:25.004Z</time>
</trkpt>
<trkpt lat="31.9433590" lon="34.9608470">
<ele>126.461517</ele>
<time>2017-04-18T16:39:28.996Z</time>
</trkpt>
<trkpt lat="31.9433800" lon="34.9609720">
<ele>127.436882</ele>
<time>2017-04-18T16:39:32.996Z</time>
</trkpt>
<trkpt lat="31.9434130" lon="34.9611010">
<ele>127.894081</ele>
<time>2017-04-18T16:39:36.996Z</time>
</trkpt>
<trkpt lat="31.9434360" lon="34.9612300">
<ele>128.412231</ele>
<time>2017-04-18T16:39:40.997Z</time>
</trkpt>
<trkpt lat="31.9434310" lon="34.9613620">
<ele>129.357117</ele>
<time>2017-04-18T16:39:44.997Z</time>
</trkpt>
<trkpt lat="31.9434080" lon="34.9614780">
<ele>129.204712</ele>
<time>2017-04-18T16:39:48.997Z</time>
</trkpt>
<trkpt lat="31.9433750" lon="34.9615880">
<ele>129.936234</ele>
<time>2017-04-18T16:39:52.998Z</time>
</trkpt>
<trkpt lat="31.9433180" lon="34.9616840">
<ele>131.063995</ele>
<time>2017-04-18T16:39:56.998Z</time>
</trkpt>
<trkpt lat="31.9432270" lon="34.9617540">
<ele>131.673599</ele>
<time>2017-04-18T16:40:02.001Z</time>
</trkpt>
<trkpt lat="31.9431360" lon="34.9617980">
<ele>132.740402</ele>
<time>2017-04-18T16:40:07.003Z</time>
</trkpt>
<trkpt lat="31.9430520" lon="34.9617580">
<ele>133.959595</ele>
<time>2017-04-18T16:40:11.997Z</time>
</trkpt>
<trkpt lat="31.9429890" lon="34.9616760">
<ele>134.051041</ele>
<time>2017-04-18T16:40:17.000Z</time>
</trkpt>
<trkpt lat="31.9429460" lon="34.9615470">
<ele>133.563370</ele>
<time>2017-04-18T16:40:22.002Z</time>
</trkpt>
<trkpt lat="31.9428950" lon="34.9614480">
<ele>134.142487</ele>
<time>2017-04-18T16:40:25.000Z</time>
</trkpt>
<trkpt lat="31.9428350" lon="34.9613320">
<ele>134.203430</ele>
<time>2017-04-18T16:40:29.001Z</time>
</trkpt>
<trkpt lat="31.9427850" lon="34.9612340">
<ele>133.929123</ele>
<time>2017-04-18T16:40:31.999Z</time>
</trkpt>
<trkpt lat="31.9427490" lon="34.9611380">
<ele>134.873993</ele>
<time>2017-04-18T16:40:34.997Z</time>
</trkpt>
<trkpt lat="31.9427110" lon="34.9610050">
<ele>134.264404</ele>
<time>2017-04-18T16:40:38.997Z</time>
</trkpt>
<trkpt lat="31.9426590" lon="34.9608950">
<ele>134.447281</ele>
<time>2017-04-18T16:40:42.004Z</time>
</trkpt>
<trkpt lat="31.9425950" lon="34.9608070">
<ele>134.447281</ele>
<time>2017-04-18T16:40:45.002Z</time>
</trkpt>
<trkpt lat="31.9425120" lon="34.9607210">
<ele>134.447281</ele>
<time>2017-04-18T16:40:49.002Z</time>
</trkpt>
<trkpt lat="31.9424710" lon="34.9606160">
<ele>134.355835</ele>
<time>2017-04-18T16:41:05.004Z</time>
</trkpt>
<trkpt lat="31.9423910" lon="34.9606860">
<ele>135.026398</ele>
<time>2017-04-18T16:41:12.002Z</time>
</trkpt>
<trkpt lat="31.9422980" lon="34.9606940">
<ele>137.007599</ele>
<time>2017-04-18T16:41:19.000Z</time>
</trkpt>
<trkpt lat="31.9421910" lon="34.9606740">
<ele>137.921997</ele>
<time>2017-04-18T16:41:25.999Z</time>
</trkpt>
<trkpt lat="31.9420960" lon="34.9606460">
<ele>139.202164</ele>
<time>2017-04-18T16:41:32.004Z</time>
</trkpt>
<trkpt lat="31.9419950" lon="34.9606180">
<ele>141.396713</ele>
<time>2017-04-18T16:41:38.000Z</time>
</trkpt>
<trkpt lat="31.9419050" lon="34.9606030">
<ele>142.524475</ele>
<time>2017-04-18T16:41:43.996Z</time>
</trkpt>
<trkpt lat="31.9417990" lon="34.9606190">
<ele>143.469360</ele>
<time>2017-04-18T16:41:51.003Z</time>
</trkpt>
<trkpt lat="31.9416970" lon="34.9606690">
<ele>143.286484</ele>
<time>2017-04-18T16:41:55.997Z</time>
</trkpt>
<trkpt lat="31.9416040" lon="34.9607360">
<ele>143.408401</ele>
<time>2017-04-18T16:42:00.999Z</time>
</trkpt>
<trkpt lat="31.9415170" lon="34.9607890">
<ele>143.316971</ele>
<time>2017-04-18T16:42:05.000Z</time>
</trkpt>
<trkpt lat="31.9414180" lon="34.9608540">
<ele>142.768311</ele>
<time>2017-04-18T16:42:09.000Z</time>
</trkpt>
<trkpt lat="31.9413470" lon="34.9609310">
<ele>142.311111</ele>
<time>2017-04-18T16:42:11.998Z</time>
</trkpt>
<trkpt lat="31.9412510" lon="34.9610030">
<ele>141.701523</ele>
<time>2017-04-18T16:42:14.996Z</time>
</trkpt>
<trkpt lat="31.9411310" lon="34.9610510">
<ele>141.030960</ele>
<time>2017-04-18T16:42:18.003Z</time>
</trkpt>
<trkpt lat="31.9410340" lon="34.9610650">
<ele>140.817596</ele>
<time>2017-04-18T16:42:19.999Z</time>
</trkpt>
<trkpt lat="31.9409420" lon="34.9610710">
<ele>139.750793</ele>
<time>2017-04-18T16:42:22.003Z</time>
</trkpt>
<trkpt lat="31.9408320" lon="34.9610590">
<ele>138.897369</ele>
<time>2017-04-18T16:42:25.001Z</time>
</trkpt>
<trkpt lat="31.9407360" lon="34.9610360">
<ele>138.196320</ele>
<time>2017-04-18T16:42:26.997Z</time>
</trkpt>
<trkpt lat="31.9406200" lon="34.9610130">
<ele>137.921997</ele>
<time>2017-04-18T16:42:29.002Z</time>
</trkpt>
<trkpt lat="31.9404930" lon="34.9609900">
<ele>136.916168</ele>
<time>2017-04-18T16:42:30.997Z</time>
</trkpt>
<trkpt lat="31.9403630" lon="34.9609890">
<ele>136.611359</ele>
<time>2017-04-18T16:42:33.002Z</time>
</trkpt>
<trkpt lat="31.9402400" lon="34.9610250">
<ele>135.483597</ele>
<time>2017-04-18T16:42:34.998Z</time>
</trkpt>
<trkpt lat="31.9401240" lon="34.9610930">
<ele>135.361679</ele>
<time>2017-04-18T16:42:37.002Z</time>
</trkpt>
<trkpt lat="31.9400100" lon="34.9611680">
<ele>134.782562</ele>
<time>2017-04-18T16:42:38.998Z</time>
</trkpt>
<trkpt lat="31.9399060" lon="34.9612580">
<ele>134.142487</ele>
<time>2017-04-18T16:42:41.003Z</time>
</trkpt>
<trkpt lat="31.9398110" lon="34.9613660">
<ele>134.203430</ele>
<time>2017-04-18T16:42:42.998Z</time>
</trkpt>
<trkpt lat="31.9397270" lon="34.9614700">
<ele>134.508240</ele>
<time>2017-04-18T16:42:45.003Z</time>
</trkpt>
<trkpt lat="31.9396450" lon="34.9615690">
<ele>134.630157</ele>
<time>2017-04-18T16:42:46.999Z</time>
</trkpt>
<trkpt lat="31.9395680" lon="34.9616610">
<ele>134.691116</ele>
<time>2017-04-18T16:42:49.003Z</time>
</trkpt>
<trkpt lat="31.9394940" lon="34.9617590">
<ele>134.386322</ele>
<time>2017-04-18T16:42:50.999Z</time>
</trkpt>
<trkpt lat="31.9394190" lon="34.9618550">
<ele>134.508240</ele>
<time>2017-04-18T16:42:53.004Z</time>
</trkpt>
<trkpt lat="31.9393460" lon="34.9619510">
<ele>134.782562</ele>
<time>2017-04-18T16:42:54.999Z</time>
</trkpt>
<trkpt lat="31.9392730" lon="34.9620430">
<ele>134.691116</ele>
<time>2017-04-18T16:42:57.004Z</time>
</trkpt>
<trkpt lat="31.9392080" lon="34.9621350">
<ele>134.355835</ele>
<time>2017-04-18T16:42:59.000Z</time>
</trkpt>
<trkpt lat="31.9391440" lon="34.9622220">
<ele>134.294876</ele>
<time>2017-04-18T16:43:01.004Z</time>
</trkpt>
<trkpt lat="31.9390800" lon="34.9623050">
<ele>134.660629</ele>
<time>2017-04-18T16:43:03.000Z</time>
</trkpt>
<trkpt lat="31.9390000" lon="34.9624290">
<ele>134.416794</ele>
<time>2017-04-18T16:43:05.998Z</time>
</trkpt>
<trkpt lat="31.9389680" lon="34.9625320">
<ele>134.325363</ele>
<time>2017-04-18T16:43:08.003Z</time>
</trkpt>
<trkpt lat="31.9389580" lon="34.9626410">
<ele>135.239761</ele>
<time>2017-04-18T16:43:09.998Z</time>
</trkpt>
<trkpt lat="31.9389510" lon="34.9627820">
<ele>135.818878</ele>
<time>2017-04-18T16:43:12.996Z</time>
</trkpt>
<trkpt lat="31.9389380" lon="34.9629120">
<ele>135.818878</ele>
<time>2017-04-18T16:43:16.003Z</time>
</trkpt>
<trkpt lat="31.9389030" lon="34.9630580">
<ele>135.392166</ele>
<time>2017-04-18T16:43:19.001Z</time>
</trkpt>
<trkpt lat="31.9388760" lon="34.9631660">
<ele>135.361679</ele>
<time>2017-04-18T16:43:20.997Z</time>
</trkpt>
<trkpt lat="31.9388560" lon="34.9632850">
<ele>134.447281</ele>
<time>2017-04-18T16:43:23.002Z</time>
</trkpt>
<trkpt lat="31.9388450" lon="34.9634080">
<ele>134.477768</ele>
<time>2017-04-18T16:43:24.997Z</time>
</trkpt>
<trkpt lat="31.9388300" lon="34.9635300">
<ele>134.477768</ele>
<time>2017-04-18T16:43:27.002Z</time>
</trkpt>
<trkpt lat="31.9388000" lon="34.9636530">
<ele>133.715759</ele>
<time>2017-04-18T16:43:28.998Z</time>
</trkpt>
<trkpt lat="31.9387570" lon="34.9637650">
<ele>133.654800</ele>
<time>2017-04-18T16:43:31.002Z</time>
</trkpt>
<trkpt lat="31.9386820" lon="34.9638950">
<ele>132.069839</ele>
<time>2017-04-18T16:43:34.000Z</time>
</trkpt>
<trkpt lat="31.9385780" lon="34.9639650">
<ele>131.368805</ele>
<time>2017-04-18T16:43:36.998Z</time>
</trkpt>
<trkpt lat="31.9384460" lon="34.9639280">
<ele>130.942078</ele>
<time>2017-04-18T16:43:39.996Z</time>
</trkpt>
<trkpt lat="31.9383570" lon="34.9638710">
<ele>130.515366</ele>
<time>2017-04-18T16:43:42.001Z</time>
</trkpt>
<trkpt lat="31.9382650" lon="34.9638060">
<ele>129.875275</ele>
<time>2017-04-18T16:43:43.997Z</time>
</trkpt>
<trkpt lat="31.9381670" lon="34.9637390">
<ele>129.722885</ele>
<time>2017-04-18T16:43:46.001Z</time>
</trkpt>
<trkpt lat="31.9380670" lon="34.9636710">
<ele>128.869431</ele>
<time>2017-04-18T16:43:47.997Z</time>
</trkpt>
<trkpt lat="31.9379700" lon="34.9636050">
<ele>128.320801</ele>
<time>2017-04-18T16:43:50.002Z</time>
</trkpt>
<trkpt lat="31.9378860" lon="34.9635570">
<ele>127.802635</ele>
<time>2017-04-18T16:43:51.997Z</time>
</trkpt>
<trkpt lat="31.9377820" lon="34.9635490">
<ele>126.583435</ele>
<time>2017-04-18T16:43:55.998Z</time>
</trkpt>
<trkpt lat="31.9377480" lon="34.9636560">
<ele>125.730003</ele>
<time>2017-04-18T16:43:58.996Z</time>
</trkpt>
<trkpt lat="31.9377620" lon="34.9637820">
<ele>124.327919</ele>
<time>2017-04-18T16:44:01.000Z</time>
</trkpt>
<trkpt lat="31.9378000" lon="34.9639190">
<ele>124.023117</ele>
<time>2017-04-18T16:44:02.996Z</time>
</trkpt>
<trkpt lat="31.9378170" lon="34.9640670">
<ele>122.864883</ele>
<time>2017-04-18T16:44:05.001Z</time>
</trkpt>
<trkpt lat="31.9378140" lon="34.9641870">
<ele>120.914162</ele>
<time>2017-04-18T16:44:06.996Z</time>
</trkpt>
<trkpt lat="31.9377480" lon="34.9641780">
<ele>120.243599</ele>
<time>2017-04-18T16:45:58.997Z</time>
</trkpt>
<trkpt lat="31.9376790" lon="34.9641020">
<ele>119.938797</ele>
<time>2017-04-18T16:46:02.997Z</time>
</trkpt>
<trkpt lat="31.9376160" lon="34.9640090">
<ele>118.262398</ele>
<time>2017-04-18T16:46:08.000Z</time>
</trkpt>
<trkpt lat="31.9375460" lon="34.9639750">
<ele>117.927116</ele>
<time>2017-04-18T16:46:17.003Z</time>
</trkpt>
<trkpt lat="31.9374580" lon="34.9639250">
<ele>116.890800</ele>
<time>2017-04-18T16:46:21.996Z</time>
</trkpt>
<trkpt lat="31.9373760" lon="34.9638690">
<ele>117.073685</ele>
<time>2017-04-18T16:46:25.003Z</time>
</trkpt>
<trkpt lat="31.9372800" lon="34.9638090">
<ele>116.342163</ele>
<time>2017-04-18T16:46:28.001Z</time>
</trkpt>
<trkpt lat="31.9371680" lon="34.9637390">
<ele>115.732567</ele>
<time>2017-04-18T16:46:30.999Z</time>
</trkpt>
<trkpt lat="31.9370860" lon="34.9636940">
<ele>115.945915</ele>
<time>2017-04-18T16:46:33.004Z</time>
</trkpt>
<trkpt lat="31.9369980" lon="34.9636560">
<ele>114.909599</ele>
<time>2017-04-18T16:46:35.000Z</time>
</trkpt>
<trkpt lat="31.9369120" lon="34.9636150">
<ele>114.300003</ele>
<time>2017-04-18T16:46:37.004Z</time>
</trkpt>
<trkpt lat="31.9367910" lon="34.9635280">
<ele>114.269516</ele>
<time>2017-04-18T16:46:40.002Z</time>
</trkpt>
<trkpt lat="31.9367040" lon="34.9634770">
<ele>113.903763</ele>
<time>2017-04-18T16:46:41.998Z</time>
</trkpt>
<trkpt lat="31.9365820" lon="34.9634240">
<ele>112.562637</ele>
<time>2017-04-18T16:46:44.996Z</time>
</trkpt>
<trkpt lat="31.9365000" lon="34.9633710">
<ele>112.227364</ele>
<time>2017-04-18T16:46:47.001Z</time>
</trkpt>
<trkpt lat="31.9364190" lon="34.9633000">
<ele>111.221519</ele>
<time>2017-04-18T16:46:48.996Z</time>
</trkpt>
<trkpt lat="31.9363550" lon="34.9632170">
<ele>110.977684</ele>
<time>2017-04-18T16:46:51.001Z</time>
</trkpt>
<trkpt lat="31.9362630" lon="34.9631620">
<ele>110.124237</ele>
<time>2017-04-18T16:46:53.999Z</time>
</trkpt>
<trkpt lat="31.9361880" lon="34.9630620">
<ele>109.545120</ele>
<time>2017-04-18T16:46:59.002Z</time>
</trkpt>
<trkpt lat="31.9361560" lon="34.9629520">
<ele>109.423203</ele>
<time>2017-04-18T16:47:03.002Z</time>
</trkpt>
<trkpt lat="31.9361250" lon="34.9628010">
<ele>108.905037</ele>
<time>2017-04-18T16:47:07.002Z</time>
</trkpt>
<trkpt lat="31.9360910" lon="34.9626800">
<ele>108.112564</ele>
<time>2017-04-18T16:47:10.000Z</time>
</trkpt>
<trkpt lat="31.9360900" lon="34.9625550">
<ele>107.228638</ele>
<time>2017-04-18T16:47:12.998Z</time>
</trkpt>
<trkpt lat="31.9360530" lon="34.9624280">
<ele>106.466637</ele>
<time>2017-04-18T16:47:15.996Z</time>
</trkpt>
<trkpt lat="31.9359690" lon="34.9623170">
<ele>106.344719</ele>
<time>2017-04-18T16:47:19.003Z</time>
</trkpt>
<trkpt lat="31.9358880" lon="34.9622350">
<ele>106.039917</ele>
<time>2017-04-18T16:47:22.001Z</time>
</trkpt>
<trkpt lat="31.9358590" lon="34.9621080">
<ele>105.643684</ele>
<time>2017-04-18T16:47:24.999Z</time>
</trkpt>
<trkpt lat="31.9358690" lon="34.9619920">
<ele>104.180634</ele>
<time>2017-04-18T16:47:27.004Z</time>
</trkpt>
<trkpt lat="31.9358720" lon="34.9618720">
<ele>103.967285</ele>
<time>2017-04-18T16:47:29.000Z</time>
</trkpt>
<trkpt lat="31.9358450" lon="34.9617640">
<ele>104.089203</ele>
<time>2017-04-18T16:47:31.004Z</time>
</trkpt>
<trkpt lat="31.9357960" lon="34.9616290">
<ele>104.302567</ele>
<time>2017-04-18T16:47:34.002Z</time>
</trkpt>
<trkpt lat="31.9357250" lon="34.9615130">
<ele>103.571037</ele>
<time>2017-04-18T16:47:37.000Z</time>
</trkpt>
<trkpt lat="31.9356870" lon="34.9613900">
<ele>103.174797</ele>
<time>2017-04-18T16:47:39.998Z</time>
</trkpt>
<trkpt lat="31.9356820" lon="34.9612500">
<ele>103.357681</ele>
<time>2017-04-18T16:47:42.996Z</time>
</trkpt>
<trkpt lat="31.9356710" lon="34.9611080">
<ele>103.205284</ele>
<time>2017-04-18T16:47:49.001Z</time>
</trkpt>
<trkpt lat="31.9356910" lon="34.9610170">
<ele>101.681282</ele>
<time>2017-04-18T16:48:09.003Z</time>
</trkpt>
<trkpt lat="31.9357170" lon="34.9608750">
<ele>101.742233</ele>
<time>2017-04-18T16:48:16.001Z</time>
</trkpt>
<trkpt lat="31.9357170" lon="34.9607600">
<ele>101.406967</ele>
<time>2017-04-18T16:48:18.999Z</time>
</trkpt>
<trkpt lat="31.9357100" lon="34.9606290">
<ele>101.010719</ele>
<time>2017-04-18T16:48:21.997Z</time>
</trkpt>
<trkpt lat="31.9357120" lon="34.9605020">
<ele>100.888802</ele>
<time>2017-04-18T16:48:25.004Z</time>
</trkpt>
<trkpt lat="31.9357280" lon="34.9603420">
<ele>100.584000</ele>
<time>2017-04-18T16:48:28.002Z</time>
</trkpt>
<trkpt lat="31.9357550" lon="34.9602280">
<ele>100.126801</ele>
<time>2017-04-18T16:48:29.998Z</time>
</trkpt>
<trkpt lat="31.9357600" lon="34.9601110">
<ele>99.517197</ele>
<time>2017-04-18T16:48:32.003Z</time>
</trkpt>
<trkpt lat="31.9357660" lon="34.9599880">
<ele>99.090485</ele>
<time>2017-04-18T16:48:33.998Z</time>
</trkpt>
<trkpt lat="31.9357600" lon="34.9598370">
<ele>98.054161</ele>
<time>2017-04-18T16:48:36.996Z</time>
</trkpt>
<trkpt lat="31.9357380" lon="34.9596940">
<ele>97.810318</ele>
<time>2017-04-18T16:48:40.003Z</time>
</trkpt>
<trkpt lat="31.9356790" lon="34.9595470">
<ele>96.469200</ele>
<time>2017-04-18T16:48:43.001Z</time>
</trkpt>
<trkpt lat="31.9356180" lon="34.9594330">
<ele>96.926399</ele>
<time>2017-04-18T16:48:45.999Z</time>
</trkpt>
<trkpt lat="31.9355540" lon="34.9593280">
<ele>96.408234</ele>
<time>2017-04-18T16:48:48.997Z</time>
</trkpt>
<trkpt lat="31.9354630" lon="34.9592240">
<ele>95.890083</ele>
<time>2017-04-18T16:48:52.004Z</time>
</trkpt>
<trkpt lat="31.9353910" lon="34.9591520">
<ele>95.829117</ele>
<time>2017-04-18T16:48:54.000Z</time>
</trkpt>
<trkpt lat="31.9353150" lon="34.9590720">
<ele>95.798637</ele>
<time>2017-04-18T16:48:55.996Z</time>
</trkpt>
<trkpt lat="31.9352460" lon="34.9589890">
<ele>95.097603</ele>
<time>2017-04-18T16:48:58.000Z</time>
</trkpt>
<trkpt lat="31.9351990" lon="34.9588950">
<ele>94.762321</ele>
<time>2017-04-18T16:48:59.996Z</time>
</trkpt>
<trkpt lat="31.9351760" lon="34.9587800">
<ele>94.427032</ele>
<time>2017-04-18T16:49:02.001Z</time>
</trkpt>
<trkpt lat="31.9351660" lon="34.9586590">
<ele>94.091766</ele>
<time>2017-04-18T16:49:03.996Z</time>
</trkpt>
<trkpt lat="31.9351590" lon="34.9585450">
<ele>93.878403</ele>
<time>2017-04-18T16:49:06.001Z</time>
</trkpt>
<trkpt lat="31.9351690" lon="34.9584220">
<ele>93.421204</ele>
<time>2017-04-18T16:49:07.997Z</time>
</trkpt>
<trkpt lat="31.9351920" lon="34.9582980">
<ele>92.994484</ele>
<time>2017-04-18T16:49:10.001Z</time>
</trkpt>
<trkpt lat="31.9352200" lon="34.9581710">
<ele>93.116402</ele>
<time>2017-04-18T16:49:11.997Z</time>
</trkpt>
<trkpt lat="31.9352530" lon="34.9580420">
<ele>92.720161</ele>
<time>2017-04-18T16:49:14.002Z</time>
</trkpt>
<trkpt lat="31.9352940" lon="34.9579130">
<ele>92.811600</ele>
<time>2017-04-18T16:49:15.997Z</time>
</trkpt>
<trkpt lat="31.9353410" lon="34.9577860">
<ele>92.506798</ele>
<time>2017-04-18T16:49:18.002Z</time>
</trkpt>
<trkpt lat="31.9353840" lon="34.9576570">
<ele>91.958160</ele>
<time>2017-04-18T16:49:19.998Z</time>
</trkpt>
<trkpt lat="31.9354270" lon="34.9575300">
<ele>92.354401</ele>
<time>2017-04-18T16:49:22.002Z</time>
</trkpt>
<trkpt lat="31.9354720" lon="34.9574020">
<ele>92.750633</ele>
<time>2017-04-18T16:49:23.998Z</time>
</trkpt>
<trkpt lat="31.9355140" lon="34.9572780">
<ele>92.476318</ele>
<time>2017-04-18T16:49:26.003Z</time>
</trkpt>
<trkpt lat="31.9355530" lon="34.9571590">
<ele>92.598236</ele>
<time>2017-04-18T16:49:27.998Z</time>
</trkpt>
<trkpt lat="31.9355880" lon="34.9570470">
<ele>92.232483</ele>
<time>2017-04-18T16:49:30.003Z</time>
</trkpt>
<trkpt lat="31.9356170" lon="34.9569360">
<ele>92.141037</ele>
<time>2017-04-18T16:49:31.999Z</time>
</trkpt>
<trkpt lat="31.9356490" lon="34.9568210">
<ele>91.836235</ele>
<time>2017-04-18T16:49:34.003Z</time>
</trkpt>
<trkpt lat="31.9356750" lon="34.9567070">
<ele>91.805763</ele>
<time>2017-04-18T16:49:35.999Z</time>
</trkpt>
<trkpt lat="31.9357030" lon="34.9565910">
<ele>91.958160</ele>
<time>2017-04-18T16:49:38.004Z</time>
</trkpt>
<trkpt lat="31.9357300" lon="34.9564800">
<ele>91.744797</ele>
<time>2017-04-18T16:49:39.999Z</time>
</trkpt>
<trkpt lat="31.9357390" lon="34.9563560">
<ele>90.525597</ele>
<time>2017-04-18T16:49:42.997Z</time>
</trkpt>
<trkpt lat="31.9356770" lon="34.9562670">
<ele>89.489281</ele>
<time>2017-04-18T16:49:46.998Z</time>
</trkpt>
<trkpt lat="31.9355620" lon="34.9562190">
<ele>89.641685</ele>
<time>2017-04-18T16:49:49.996Z</time>
</trkpt>
<trkpt lat="31.9354650" lon="34.9561800">
<ele>89.916000</ele>
<time>2017-04-18T16:49:53.003Z</time>
</trkpt>
<trkpt lat="31.9353740" lon="34.9561510">
<ele>90.647514</ele>
<time>2017-04-18T16:49:56.001Z</time>
</trkpt>
<trkpt lat="31.9352590" lon="34.9561100">
<ele>91.318085</ele>
<time>2017-04-18T16:50:00.001Z</time>
</trkpt>
<trkpt lat="31.9351510" lon="34.9560690">
<ele>91.653366</ele>
<time>2017-04-18T16:50:04.001Z</time>
</trkpt>
<trkpt lat="31.9350420" lon="34.9560180">
<ele>93.299278</ele>
<time>2017-04-18T16:50:08.002Z</time>
</trkpt>
<trkpt lat="31.9349410" lon="34.9559720">
<ele>94.000320</ele>
<time>2017-04-18T16:50:12.002Z</time>
</trkpt>
<trkpt lat="31.9348360" lon="34.9559260">
<ele>94.518478</ele>
<time>2017-04-18T16:50:16.996Z</time>
</trkpt>
<trkpt lat="31.9347420" lon="34.9558950">
<ele>94.579437</ele>
<time>2017-04-18T16:50:20.996Z</time>
</trkpt>
<trkpt lat="31.9346340" lon="34.9558580">
<ele>96.164398</ele>
<time>2017-04-18T16:50:25.999Z</time>
</trkpt>
<trkpt lat="31.9345460" lon="34.9558280">
<ele>97.505516</ele>
<time>2017-04-18T16:50:31.001Z</time>
</trkpt>
<trkpt lat="31.9344530" lon="34.9557750">
<ele>98.419922</ele>
<time>2017-04-18T16:50:36.997Z</time>
</trkpt>
<trkpt lat="31.9343550" lon="34.9557230">
<ele>99.334320</ele>
<time>2017-04-18T16:50:43.002Z</time>
</trkpt>
<trkpt lat="31.9342560" lon="34.9556910">
<ele>100.705917</ele>
<time>2017-04-18T16:50:48.998Z</time>
</trkpt>
<trkpt lat="31.9341700" lon="34.9556440">
<ele>100.858315</ele>
<time>2017-04-18T16:50:55.003Z</time>
</trkpt>
<trkpt lat="31.9340860" lon="34.9555760">
<ele>101.620316</ele>
<time>2017-04-18T16:50:59.997Z</time>
</trkpt>
<trkpt lat="31.9340110" lon="34.9554970">
<ele>101.681282</ele>
<time>2017-04-18T16:51:05.000Z</time>
</trkpt>
<trkpt lat="31.9339280" lon="34.9554150">
<ele>102.443283</ele>
<time>2017-04-18T16:51:10.002Z</time>
</trkpt>
<trkpt lat="31.9338410" lon="34.9553520">
<ele>103.113838</ele>
<time>2017-04-18T16:51:14.996Z</time>
</trkpt>
<trkpt lat="31.9337560" lon="34.9553030">
<ele>103.601517</ele>
<time>2017-04-18T16:51:19.999Z</time>
</trkpt>
<trkpt lat="31.9336770" lon="34.9552370">
<ele>103.936798</ele>
<time>2017-04-18T16:51:25.001Z</time>
</trkpt>
<trkpt lat="31.9335910" lon="34.9551610">
<ele>104.485435</ele>
<time>2017-04-18T16:51:30.004Z</time>
</trkpt>
<trkpt lat="31.9335080" lon="34.9550980">
<ele>104.759766</ele>
<time>2017-04-18T16:51:34.998Z</time>
</trkpt>
<trkpt lat="31.9334090" lon="34.9550380">
<ele>105.521767</ele>
<time>2017-04-18T16:51:40.000Z</time>
</trkpt>
<trkpt lat="31.9333060" lon="34.9549790">
<ele>106.832397</ele>
<time>2017-04-18T16:51:45.003Z</time>
</trkpt>
<trkpt lat="31.9332100" lon="34.9549110">
<ele>107.350563</ele>
<time>2017-04-18T16:51:49.997Z</time>
</trkpt>
<trkpt lat="31.9331150" lon="34.9548620">
<ele>107.960167</ele>
<time>2017-04-18T16:51:54.999Z</time>
</trkpt>
<trkpt lat="31.9330180" lon="34.9547830">
<ele>108.539284</ele>
<time>2017-04-18T16:52:00.002Z</time>
</trkpt>
<trkpt lat="31.9329260" lon="34.9547140">
<ele>109.941360</ele>
<time>2017-04-18T16:52:04.996Z</time>
</trkpt>
<trkpt lat="31.9328290" lon="34.9546460">
<ele>110.703362</ele>
<time>2017-04-18T16:52:09.998Z</time>
</trkpt>
<trkpt lat="31.9327350" lon="34.9545830">
<ele>111.770164</ele>
<time>2017-04-18T16:52:15.001Z</time>
</trkpt>
<trkpt lat="31.9326420" lon="34.9545300">
<ele>111.953033</ele>
<time>2017-04-18T16:52:20.004Z</time>
</trkpt>
<trkpt lat="31.9325570" lon="34.9544690">
<ele>113.507515</ele>
<time>2017-04-18T16:52:24.997Z</time>
</trkpt>
<trkpt lat="31.9324680" lon="34.9543980">
<ele>114.147598</ele>
<time>2017-04-18T16:52:30.000Z</time>
</trkpt>
<trkpt lat="31.9324150" lon="34.9543060">
<ele>114.970566</ele>
<time>2017-04-18T16:52:35.996Z</time>
</trkpt>
<trkpt lat="31.9323510" lon="34.9542020">
<ele>115.945915</ele>
<time>2017-04-18T16:52:43.003Z</time>
</trkpt>
<trkpt lat="31.9323130" lon="34.9540900">
<ele>117.226082</ele>
<time>2017-04-18T16:52:50.002Z</time>
</trkpt>
<trkpt lat="31.9322980" lon="34.9539770">
<ele>118.536720</ele>
<time>2017-04-18T16:52:57.000Z</time>
</trkpt>
<trkpt lat="31.9322650" lon="34.9538700">
<ele>119.054878</ele>
<time>2017-04-18T16:53:02.996Z</time>
</trkpt>
<trkpt lat="31.9322390" lon="34.9537610">
<ele>120.639839</ele>
<time>2017-04-18T16:53:09.001Z</time>
</trkpt>
<trkpt lat="31.9322010" lon="34.9536570">
<ele>121.310402</ele>
<time>2017-04-18T16:53:14.997Z</time>
</trkpt>
<trkpt lat="31.9321710" lon="34.9535520">
<ele>122.102882</ele>
<time>2017-04-18T16:53:21.002Z</time>
</trkpt>
<trkpt lat="31.9321380" lon="34.9534400">
<ele>123.596397</ele>
<time>2017-04-18T16:53:26.998Z</time>
</trkpt>
<trkpt lat="31.9321170" lon="34.9533320">
<ele>123.962166</ele>
<time>2017-04-18T16:53:33.003Z</time>
</trkpt>
<trkpt lat="31.9320680" lon="34.9532230">
<ele>124.846085</ele>
<time>2017-04-18T16:53:38.999Z</time>
</trkpt>
<trkpt lat="31.9320100" lon="34.9531200">
<ele>124.846085</ele>
<time>2017-04-18T16:53:45.004Z</time>
</trkpt>
<trkpt lat="31.9319500" lon="34.9530340">
<ele>125.943367</ele>
<time>2017-04-18T16:53:49.998Z</time>
</trkpt>
<trkpt lat="31.9318790" lon="34.9529310">
<ele>126.217682</ele>
<time>2017-04-18T16:53:55.000Z</time>
</trkpt>
<trkpt lat="31.9318110" lon="34.9528360">
<ele>126.431038</ele>
<time>2017-04-18T16:54:00.003Z</time>
</trkpt>
<trkpt lat="31.9317310" lon="34.9527460">
<ele>126.766319</ele>
<time>2017-04-18T16:54:04.003Z</time>
</trkpt>
<trkpt lat="31.9316630" lon="34.9526720">
<ele>126.918716</ele>
<time>2017-04-18T16:54:07.001Z</time>
</trkpt>
<trkpt lat="31.9315940" lon="34.9525950">
<ele>127.375916</ele>
<time>2017-04-18T16:54:09.999Z</time>
</trkpt>
<trkpt lat="31.9315230" lon="34.9525140">
<ele>127.497833</ele>
<time>2017-04-18T16:54:12.997Z</time>
</trkpt>
<trkpt lat="31.9314460" lon="34.9524420">
<ele>127.375916</ele>
<time>2017-04-18T16:54:16.004Z</time>
</trkpt>
<trkpt lat="31.9313780" lon="34.9523750">
<ele>127.741684</ele>
<time>2017-04-18T16:54:19.002Z</time>
</trkpt>
<trkpt lat="31.9312970" lon="34.9522900">
<ele>129.021835</ele>
<time>2017-04-18T16:54:23.003Z</time>
</trkpt>
<trkpt lat="31.9312360" lon="34.9521930">
<ele>128.808487</ele>
<time>2017-04-18T16:54:27.003Z</time>
</trkpt>
<trkpt lat="31.9311930" lon="34.9520690">
<ele>129.021835</ele>
<time>2017-04-18T16:54:31.003Z</time>
</trkpt>
<trkpt lat="31.9311500" lon="34.9519400">
<ele>128.991364</ele>
<time>2017-04-18T16:54:35.004Z</time>
</trkpt>
<trkpt lat="31.9311140" lon="34.9518350">
<ele>129.113281</ele>
<time>2017-04-18T16:54:38.002Z</time>
</trkpt>
<trkpt lat="31.9311050" lon="34.9517210">
<ele>128.808487</ele>
<time>2017-04-18T16:54:41.000Z</time>
</trkpt>
<trkpt lat="31.9310750" lon="34.9516040">
<ele>128.412231</ele>
<time>2017-04-18T16:54:43.998Z</time>
</trkpt>
<trkpt lat="31.9309910" lon="34.9515350">
<ele>128.320801</ele>
<time>2017-04-18T16:54:46.996Z</time>
</trkpt>
<trkpt lat="31.9309080" lon="34.9514640">
<ele>127.711197</ele>
<time>2017-04-18T16:54:50.996Z</time>
</trkpt>
<trkpt lat="31.9308670" lon="34.9513520">
<ele>127.863602</ele>
<time>2017-04-18T16:54:54.003Z</time>
</trkpt>
<trkpt lat="31.9307800" lon="34.9512530">
<ele>127.314964</ele>
<time>2017-04-18T16:54:57.001Z</time>
</trkpt>
<trkpt lat="31.9306780" lon="34.9511600">
<ele>126.766319</ele>
<time>2017-04-18T16:54:59.999Z</time>
</trkpt>
<trkpt lat="31.9306000" lon="34.9510800">
<ele>126.248161</ele>
<time>2017-04-18T16:55:02.004Z</time>
</trkpt>
<trkpt lat="31.9305150" lon="34.9509950">
<ele>125.669037</ele>
<time>2017-04-18T16:55:03.999Z</time>
</trkpt>
<trkpt lat="31.9304200" lon="34.9509010">
<ele>124.266960</ele>
<time>2017-04-18T16:55:06.004Z</time>
</trkpt>
<trkpt lat="31.9303180" lon="34.9508060">
<ele>123.718315</ele>
<time>2017-04-18T16:55:08.000Z</time>
</trkpt>
<trkpt lat="31.9302240" lon="34.9507220">
<ele>123.017281</ele>
<time>2017-04-18T16:55:10.004Z</time>
</trkpt>
<trkpt lat="31.9301360" lon="34.9506620">
<ele>122.285767</ele>
<time>2017-04-18T16:55:12.000Z</time>
</trkpt>
<trkpt lat="31.9300380" lon="34.9506090">
<ele>121.676163</ele>
<time>2017-04-18T16:55:13.996Z</time>
</trkpt>
<trkpt lat="31.9299320" lon="34.9505590">
<ele>121.157997</ele>
<time>2017-04-18T16:55:16.000Z</time>
</trkpt>
<trkpt lat="31.9298160" lon="34.9505100">
<ele>120.639839</ele>
<time>2017-04-18T16:55:17.996Z</time>
</trkpt>
<trkpt lat="31.9296890" lon="34.9504660">
<ele>120.030235</ele>
<time>2017-04-18T16:55:20.001Z</time>
</trkpt>
<trkpt lat="31.9295560" lon="34.9504170">
<ele>119.085365</ele>
<time>2017-04-18T16:55:21.996Z</time>
</trkpt>
<trkpt lat="31.9294190" lon="34.9503620">
<ele>117.896637</ele>
<time>2017-04-18T16:55:24.001Z</time>
</trkpt>
<trkpt lat="31.9292810" lon="34.9503020">
<ele>117.469917</ele>
<time>2017-04-18T16:55:25.997Z</time>
</trkpt>
<trkpt lat="31.9291500" lon="34.9502340">
<ele>116.677437</ele>
<time>2017-04-18T16:55:28.001Z</time>
</trkpt>
<trkpt lat="31.9290300" lon="34.9501670">
<ele>115.945915</ele>
<time>2017-04-18T16:55:29.997Z</time>
</trkpt>
<trkpt lat="31.9289030" lon="34.9501170">
<ele>115.183922</ele>
<time>2017-04-18T16:55:32.002Z</time>
</trkpt>
<trkpt lat="31.9287820" lon="34.9500540">
<ele>114.574318</ele>
<time>2017-04-18T16:55:33.997Z</time>
</trkpt>
<trkpt lat="31.9286730" lon="34.9499720">
<ele>114.635284</ele>
<time>2017-04-18T16:55:36.002Z</time>
</trkpt>
<trkpt lat="31.9285670" lon="34.9498950">
<ele>114.665764</ele>
<time>2017-04-18T16:55:37.998Z</time>
</trkpt>
<trkpt lat="31.9284550" lon="34.9498800">
<ele>114.330482</ele>
<time>2017-04-18T16:55:40.002Z</time>
</trkpt>
<trkpt lat="31.9283580" lon="34.9499390">
<ele>114.269516</ele>
<time>2017-04-18T16:55:41.998Z</time>
</trkpt>
<trkpt lat="31.9282540" lon="34.9499720">
<ele>114.086639</ele>
<time>2017-04-18T16:55:44.003Z</time>
</trkpt>
<trkpt lat="31.9281350" lon="34.9499690">
<ele>113.294167</ele>
<time>2017-04-18T16:55:45.998Z</time>
</trkpt>
<trkpt lat="31.9280130" lon="34.9499450">
<ele>112.501678</ele>
<time>2017-04-18T16:55:48.003Z</time>
</trkpt>
<trkpt lat="31.9279200" lon="34.9499270">
<ele>111.983521</ele>
<time>2017-04-18T16:55:49.999Z</time>
</trkpt>
<trkpt lat="31.9278240" lon="34.9498920">
<ele>111.069115</ele>
<time>2017-04-18T16:55:53.999Z</time>
</trkpt>
<trkpt lat="31.9277300" lon="34.9498490">
<ele>110.398567</ele>
<time>2017-04-18T16:55:59.002Z</time>
</trkpt>
<trkpt lat="31.9276260" lon="34.9497830">
<ele>110.185204</ele>
<time>2017-04-18T16:56:03.002Z</time>
</trkpt>
<trkpt lat="31.9275340" lon="34.9497050">
<ele>109.575600</ele>
<time>2017-04-18T16:56:06.000Z</time>
</trkpt>
<trkpt lat="31.9274450" lon="34.9496000">
<ele>109.240318</ele>
<time>2017-04-18T16:56:08.998Z</time>
</trkpt>
<trkpt lat="31.9273410" lon="34.9495010">
<ele>108.234482</ele>
<time>2017-04-18T16:56:11.996Z</time>
</trkpt>
<trkpt lat="31.9272630" lon="34.9494370">
<ele>108.295433</ele>
<time>2017-04-18T16:56:14.001Z</time>
</trkpt>
<trkpt lat="31.9271840" lon="34.9493760">
<ele>108.051598</ele>
<time>2017-04-18T16:56:15.996Z</time>
</trkpt>
<trkpt lat="31.9271050" lon="34.9493190">
<ele>107.960167</ele>
<time>2017-04-18T16:56:18.001Z</time>
</trkpt>
<trkpt lat="31.9269840" lon="34.9492430">
<ele>107.624886</ele>
<time>2017-04-18T16:56:20.999Z</time>
</trkpt>
<trkpt lat="31.9268940" lon="34.9491990">
<ele>107.533440</ele>
<time>2017-04-18T16:56:23.004Z</time>
</trkpt>
<trkpt lat="31.9268000" lon="34.9491670">
<ele>106.801918</ele>
<time>2017-04-18T16:56:24.999Z</time>
</trkpt>
<trkpt lat="31.9266990" lon="34.9491490">
<ele>106.588562</ele>
<time>2017-04-18T16:56:27.004Z</time>
</trkpt>
<trkpt lat="31.9265930" lon="34.9491520">
<ele>106.375198</ele>
<time>2017-04-18T16:56:29.000Z</time>
</trkpt>
<trkpt lat="31.9264830" lon="34.9491700">
<ele>106.039917</ele>
<time>2017-04-18T16:56:31.004Z</time>
</trkpt>
<trkpt lat="31.9263670" lon="34.9491850">
<ele>105.277916</ele>
<time>2017-04-18T16:56:33.000Z</time>
</trkpt>
<trkpt lat="31.9262480" lon="34.9491880">
<ele>104.729279</ele>
<time>2017-04-18T16:56:34.996Z</time>
</trkpt>
<trkpt lat="31.9261270" lon="34.9491770">
<ele>104.759766</ele>
<time>2017-04-18T16:56:37.000Z</time>
</trkpt>
<trkpt lat="31.9260050" lon="34.9491550">
<ele>104.119682</ele>
<time>2017-04-18T16:56:38.996Z</time>
</trkpt>
<trkpt lat="31.9258890" lon="34.9491070">
<ele>103.571037</ele>
<time>2017-04-18T16:56:41.001Z</time>
</trkpt>
<trkpt lat="31.9257860" lon="34.9490310">
<ele>103.601517</ele>
<time>2017-04-18T16:56:42.996Z</time>
</trkpt>
<trkpt lat="31.9256810" lon="34.9489600">
<ele>103.296715</ele>
<time>2017-04-18T16:56:45.001Z</time>
</trkpt>
<trkpt lat="31.9255700" lon="34.9489250">
<ele>102.870003</ele>
<time>2017-04-18T16:56:46.997Z</time>
</trkpt>
<trkpt lat="31.9254640" lon="34.9489150">
<ele>101.346001</ele>
<time>2017-04-18T16:56:49.001Z</time>
</trkpt>
<trkpt lat="31.9253660" lon="34.9489080">
<ele>100.980240</ele>
<time>2017-04-18T16:56:51.999Z</time>
</trkpt>
<trkpt lat="31.9252520" lon="34.9488950">
<ele>100.279198</ele>
<time>2017-04-18T16:56:54.997Z</time>
</trkpt>
<trkpt lat="31.9251580" lon="34.9488920">
<ele>99.334320</ele>
<time>2017-04-18T16:56:57.002Z</time>
</trkpt>
<trkpt lat="31.9250570" lon="34.9488960">
<ele>98.755203</ele>
<time>2017-04-18T16:56:58.998Z</time>
</trkpt>
<trkpt lat="31.9249570" lon="34.9489020">
<ele>98.206566</ele>
<time>2017-04-18T16:57:01.002Z</time>
</trkpt>
<trkpt lat="31.9248650" lon="34.9489110">
<ele>97.596962</ele>
<time>2017-04-18T16:57:02.998Z</time>
</trkpt>
<trkpt lat="31.9247470" lon="34.9489530">
<ele>96.316803</ele>
<time>2017-04-18T16:57:05.996Z</time>
</trkpt>
<trkpt lat="31.9246220" lon="34.9490200">
<ele>94.792801</ele>
<time>2017-04-18T16:57:09.003Z</time>
</trkpt>
<trkpt lat="31.9245150" lon="34.9491180">
<ele>94.579437</ele>
<time>2017-04-18T16:57:12.001Z</time>
</trkpt>
<trkpt lat="31.9244090" lon="34.9492020">
<ele>94.579437</ele>
<time>2017-04-18T16:57:14.999Z</time>
</trkpt>
<trkpt lat="31.9243050" lon="34.9492910">
<ele>93.969833</ele>
<time>2017-04-18T16:57:17.997Z</time>
</trkpt>
<trkpt lat="31.9242330" lon="34.9493520">
<ele>94.122238</ele>
<time>2017-04-18T16:57:20.002Z</time>
</trkpt>
<trkpt lat="31.9241560" lon="34.9494120">
<ele>94.487999</ele>
<time>2017-04-18T16:57:21.997Z</time>
</trkpt>
<trkpt lat="31.9240780" lon="34.9494670">
<ele>94.122238</ele>
<time>2017-04-18T16:57:24.002Z</time>
</trkpt>
<trkpt lat="31.9239570" lon="34.9495260">
<ele>94.213684</ele>
<time>2017-04-18T16:57:27.000Z</time>
</trkpt>
<trkpt lat="31.9238310" lon="34.9495730">
<ele>94.487999</ele>
<time>2017-04-18T16:57:29.998Z</time>
</trkpt>
<trkpt lat="31.9237070" lon="34.9496180">
<ele>94.518478</ele>
<time>2017-04-18T16:57:32.996Z</time>
</trkpt>
<trkpt lat="31.9235900" lon="34.9496750">
<ele>94.000320</ele>
<time>2017-04-18T16:57:36.003Z</time>
</trkpt>
<trkpt lat="31.9234810" lon="34.9497350">
<ele>94.640404</ele>
<time>2017-04-18T16:57:39.001Z</time>
</trkpt>
<trkpt lat="31.9233840" lon="34.9497880">
<ele>95.463364</ele>
<time>2017-04-18T16:57:41.999Z</time>
</trkpt>
<trkpt lat="31.9233090" lon="34.9498520">
<ele>95.250000</ele>
<time>2017-04-18T16:57:44.997Z</time>
</trkpt>
<trkpt lat="31.9233360" lon="34.9499710">
<ele>96.133919</ele>
<time>2017-04-18T16:57:48.997Z</time>
</trkpt>
<trkpt lat="31.9234400" lon="34.9500300">
<ele>97.840797</ele>
<time>2017-04-18T16:57:52.998Z</time>
</trkpt>
<trkpt lat="31.9235540" lon="34.9500830">
<ele>98.145599</ele>
<time>2017-04-18T16:57:56.998Z</time>
</trkpt>
<trkpt lat="31.9236600" lon="34.9501310">
<ele>98.968567</ele>
<time>2017-04-18T16:57:59.996Z</time>
</trkpt>
<trkpt lat="31.9237460" lon="34.9501780">
<ele>99.242882</ele>
<time>2017-04-18T16:58:03.003Z</time>
</trkpt>
<trkpt lat="31.9238460" lon="34.9502380">
<ele>99.913437</ele>
<time>2017-04-18T16:58:07.003Z</time>
</trkpt>
<trkpt lat="31.9239260" lon="34.9503010">
<ele>99.882965</ele>
<time>2017-04-18T16:58:10.001Z</time>
</trkpt>
<trkpt lat="31.9240140" lon="34.9503840">
<ele>99.425766</ele>
<time>2017-04-18T16:58:12.999Z</time>
</trkpt>
<trkpt lat="31.9240940" lon="34.9504850">
<ele>99.425766</ele>
<time>2017-04-18T16:58:15.997Z</time>
</trkpt>
<trkpt lat="31.9241720" lon="34.9505950">
<ele>99.882965</ele>
<time>2017-04-18T16:58:19.004Z</time>
</trkpt>
<trkpt lat="31.9242170" lon="34.9507310">
<ele>99.669601</ele>
<time>2017-04-18T16:58:22.002Z</time>
</trkpt>
<trkpt lat="31.9242420" lon="34.9508610">
<ele>100.065834</ele>
<time>2017-04-18T16:58:25.000Z</time>
</trkpt>
<trkpt lat="31.9242580" lon="34.9509800">
<ele>100.309685</ele>
<time>2017-04-18T16:58:27.998Z</time>
</trkpt>
<trkpt lat="31.9242700" lon="34.9510970">
<ele>101.071678</ele>
<time>2017-04-18T16:58:30.996Z</time>
</trkpt>
<trkpt lat="31.9242770" lon="34.9512070">
<ele>101.376480</ele>
<time>2017-04-18T16:58:34.003Z</time>
</trkpt>
<trkpt lat="31.9242830" lon="34.9513160">
<ele>102.382317</ele>
<time>2017-04-18T16:58:37.001Z</time>
</trkpt>
<trkpt lat="31.9242850" lon="34.9514310">
<ele>102.626167</ele>
<time>2017-04-18T16:58:39.999Z</time>
</trkpt>
<trkpt lat="31.9242870" lon="34.9515440">
<ele>102.626167</ele>
<time>2017-04-18T16:58:42.997Z</time>
</trkpt>
<trkpt lat="31.9243000" lon="34.9516540">
<ele>103.205284</ele>
<time>2017-04-18T16:58:46.004Z</time>
</trkpt>
<trkpt lat="31.9243210" lon="34.9517600">
<ele>103.692963</ele>
<time>2017-04-18T16:58:49.002Z</time>
</trkpt>
<trkpt lat="31.9243560" lon="34.9518650">
<ele>104.058716</ele>
<time>2017-04-18T16:58:52.000Z</time>
</trkpt>
<trkpt lat="31.9243980" lon="34.9519780">
<ele>103.936798</ele>
<time>2017-04-18T16:58:54.998Z</time>
</trkpt>
<trkpt lat="31.9244530" lon="34.9520980">
<ele>104.150162</ele>
<time>2017-04-18T16:58:57.996Z</time>
</trkpt>
<trkpt lat="31.9245080" lon="34.9522420">
<ele>103.144318</ele>
<time>2017-04-18T16:59:01.003Z</time>
</trkpt>
<trkpt lat="31.9245370" lon="34.9523900">
<ele>103.967285</ele>
<time>2017-04-18T16:59:04.001Z</time>
</trkpt>
<trkpt lat="31.9245310" lon="34.9525170">
<ele>104.393997</ele>
<time>2017-04-18T16:59:06.999Z</time>
</trkpt>
<trkpt lat="31.9244970" lon="34.9526380">
<ele>105.582718</ele>
<time>2017-04-18T16:59:11.000Z</time>
</trkpt>
<trkpt lat="31.9244680" lon="34.9527670">
<ele>106.314240</ele>
<time>2017-04-18T16:59:15.000Z</time>
</trkpt>
<trkpt lat="31.9244370" lon="34.9528920">
<ele>107.472481</ele>
<time>2017-04-18T16:59:19.000Z</time>
</trkpt>
<trkpt lat="31.9244130" lon="34.9530170">
<ele>108.905037</ele>
<time>2017-04-18T16:59:23.001Z</time>
</trkpt>
<trkpt lat="31.9243790" lon="34.9531500">
<ele>109.026962</ele>
<time>2017-04-18T16:59:27.001Z</time>
</trkpt>
<trkpt lat="31.9243460" lon="34.9532810">
<ele>109.179367</ele>
<time>2017-04-18T16:59:31.001Z</time>
</trkpt>
<trkpt lat="31.9243030" lon="34.9533980">
<ele>109.667038</ele>
<time>2017-04-18T16:59:35.002Z</time>
</trkpt>
<trkpt lat="31.9242640" lon="34.9535230">
<ele>110.215683</ele>
<time>2017-04-18T16:59:39.002Z</time>
</trkpt>
<trkpt lat="31.9242250" lon="34.9536470">
<ele>111.251999</ele>
<time>2017-04-18T16:59:43.002Z</time>
</trkpt>
<trkpt lat="31.9241970" lon="34.9537660">
<ele>111.739685</ele>
<time>2017-04-18T16:59:47.003Z</time>
</trkpt>
<trkpt lat="31.9241960" lon="34.9538980">
<ele>111.495834</ele>
<time>2017-04-18T16:59:51.003Z</time>
</trkpt>
<trkpt lat="31.9242180" lon="34.9540020">
<ele>111.556801</ele>
<time>2017-04-18T16:59:54.001Z</time>
</trkpt>
<trkpt lat="31.9242530" lon="34.9541080">
<ele>111.556801</ele>
<time>2017-04-18T16:59:56.999Z</time>
</trkpt>
<trkpt lat="31.9242980" lon="34.9542190">
<ele>112.044479</ele>
<time>2017-04-18T16:59:59.997Z</time>
</trkpt>
<trkpt lat="31.9243460" lon="34.9543350">
<ele>112.440720</ele>
<time>2017-04-18T17:00:03.997Z</time>
</trkpt>
<trkpt lat="31.9244000" lon="34.9544570">
<ele>112.196884</ele>
<time>2017-04-18T17:00:07.998Z</time>
</trkpt>
<trkpt lat="31.9244470" lon="34.9545750">
<ele>112.227364</ele>
<time>2017-04-18T17:00:10.996Z</time>
</trkpt>
<trkpt lat="31.9244650" lon="34.9547030">
<ele>112.349281</ele>
<time>2017-04-18T17:00:14.003Z</time>
</trkpt>
<trkpt lat="31.9244450" lon="34.9548210">
<ele>113.172234</ele>
<time>2017-04-18T17:00:17.001Z</time>
</trkpt>
<trkpt lat="31.9244130" lon="34.9549300">
<ele>114.269516</ele>
<time>2017-04-18T17:00:19.999Z</time>
</trkpt>
<trkpt lat="31.9243800" lon="34.9550410">
<ele>115.122963</ele>
<time>2017-04-18T17:00:22.997Z</time>
</trkpt>
<trkpt lat="31.9243630" lon="34.9551590">
<ele>115.884964</ele>
<time>2017-04-18T17:00:26.004Z</time>
</trkpt>
<trkpt lat="31.9243610" lon="34.9552820">
<ele>115.915436</ele>
<time>2017-04-18T17:00:29.002Z</time>
</trkpt>
<trkpt lat="31.9243680" lon="34.9554090">
<ele>115.763039</ele>
<time>2017-04-18T17:00:32.000Z</time>
</trkpt>
<trkpt lat="31.9243720" lon="34.9555380">
<ele>116.189766</ele>
<time>2017-04-18T17:00:34.998Z</time>
</trkpt>
<trkpt lat="31.9243700" lon="34.9556650">
<ele>116.799362</ele>
<time>2017-04-18T17:00:37.996Z</time>
</trkpt>
<trkpt lat="31.9243520" lon="34.9557950">
<ele>118.323364</ele>
<time>2017-04-18T17:00:41.996Z</time>
</trkpt>
<trkpt lat="31.9243240" lon="34.9559350">
<ele>119.176804</ele>
<time>2017-04-18T17:00:45.996Z</time>
</trkpt>
<trkpt lat="31.9242860" lon="34.9560540">
<ele>119.603516</ele>
<time>2017-04-18T17:00:49.997Z</time>
</trkpt>
<trkpt lat="31.9242340" lon="34.9561770">
<ele>119.512085</ele>
<time>2017-04-18T17:00:53.997Z</time>
</trkpt>
<trkpt lat="31.9241750" lon="34.9562870">
<ele>119.969284</ele>
<time>2017-04-18T17:00:57.997Z</time>
</trkpt>
<trkpt lat="31.9241150" lon="34.9563700">
<ele>121.157997</ele>
<time>2017-04-18T17:01:01.998Z</time>
</trkpt>
<trkpt lat="31.9240610" lon="34.9564610">
<ele>121.828568</ele>
<time>2017-04-18T17:01:05.998Z</time>
</trkpt>
<trkpt lat="31.9239980" lon="34.9565540">
<ele>122.651520</ele>
<time>2017-04-18T17:01:09.998Z</time>
</trkpt>
<trkpt lat="31.9239360" lon="34.9566600">
<ele>122.681999</ele>
<time>2017-04-18T17:01:13.999Z</time>
</trkpt>
<trkpt lat="31.9238590" lon="34.9567580">
<ele>123.291603</ele>
<time>2017-04-18T17:01:17.999Z</time>
</trkpt>
<trkpt lat="31.9237610" lon="34.9568290">
<ele>124.053596</ele>
<time>2017-04-18T17:01:21.999Z</time>
</trkpt>
<trkpt lat="31.9236610" lon="34.9568710">
<ele>125.211838</ele>
<time>2017-04-18T17:01:26.000Z</time>
</trkpt>
<trkpt lat="31.9235560" lon="34.9568970">
<ele>125.790962</ele>
<time>2017-04-18T17:01:30.000Z</time>
</trkpt>
<trkpt lat="31.9234620" lon="34.9569340">
<ele>126.370079</ele>
<time>2017-04-18T17:01:34.000Z</time>
</trkpt>
<trkpt lat="31.9233950" lon="34.9570180">
<ele>126.979683</ele>
<time>2017-04-18T17:01:38.001Z</time>
</trkpt>
<trkpt lat="31.9234260" lon="34.9571380">
<ele>126.705360</ele>
<time>2017-04-18T17:01:42.001Z</time>
</trkpt>
<trkpt lat="31.9235040" lon="34.9571920">
<ele>126.431038</ele>
<time>2017-04-18T17:01:44.999Z</time>
</trkpt>
<trkpt lat="31.9236100" lon="34.9572250">
<ele>126.431038</ele>
<time>2017-04-18T17:01:47.997Z</time>
</trkpt>
<trkpt lat="31.9237390" lon="34.9572380">
<ele>125.516640</ele>
<time>2017-04-18T17:01:51.004Z</time>
</trkpt>
<trkpt lat="31.9238380" lon="34.9572210">
<ele>124.876564</ele>
<time>2017-04-18T17:01:53.000Z</time>
</trkpt>
<trkpt lat="31.9239400" lon="34.9571970">
<ele>124.206001</ele>
<time>2017-04-18T17:01:55.004Z</time>
</trkpt>
<trkpt lat="31.9240290" lon="34.9571880">
<ele>123.779282</ele>
<time>2017-04-18T17:01:57.000Z</time>
</trkpt>
<trkpt lat="31.9241540" lon="34.9572380">
<ele>122.681999</ele>
<time>2017-04-18T17:01:59.998Z</time>
</trkpt>
<trkpt lat="31.9242140" lon="34.9573210">
<ele>121.889519</ele>
<time>2017-04-18T17:02:02.003Z</time>
</trkpt>
<trkpt lat="31.9242520" lon="34.9574240">
<ele>122.773438</ele>
<time>2017-04-18T17:02:03.998Z</time>
</trkpt>
<trkpt lat="31.9242590" lon="34.9575770">
<ele>123.779282</ele>
<time>2017-04-18T17:02:06.996Z</time>
</trkpt>
<trkpt lat="31.9242330" lon="34.9576980">
<ele>124.145035</ele>
<time>2017-04-18T17:02:10.003Z</time>
</trkpt>
<trkpt lat="31.9241990" lon="34.9577980">
<ele>125.028961</ele>
<time>2017-04-18T17:02:13.001Z</time>
</trkpt>
<trkpt lat="31.9241720" lon="34.9579030">
<ele>125.516640</ele>
<time>2017-04-18T17:02:15.999Z</time>
</trkpt>
<trkpt lat="31.9241610" lon="34.9580350">
<ele>125.912880</ele>
<time>2017-04-18T17:02:20.000Z</time>
</trkpt>
<trkpt lat="31.9242020" lon="34.9581690">
<ele>126.461517</ele>
<time>2017-04-18T17:02:24.000Z</time>
</trkpt>
<trkpt lat="31.9242680" lon="34.9582560">
<ele>126.400566</ele>
<time>2017-04-18T17:02:26.998Z</time>
</trkpt>
<trkpt lat="31.9243560" lon="34.9583130">
<ele>126.674881</ele>
<time>2017-04-18T17:02:29.996Z</time>
</trkpt>
<trkpt lat="31.9244590" lon="34.9583340">
<ele>126.613914</ele>
<time>2017-04-18T17:02:33.003Z</time>
</trkpt>
<trkpt lat="31.9245620" lon="34.9583060">
<ele>126.918716</ele>
<time>2017-04-18T17:02:36.001Z</time>
</trkpt>
<trkpt lat="31.9246540" lon="34.9582290">
<ele>126.217682</ele>
<time>2017-04-18T17:02:38.999Z</time>
</trkpt>
<trkpt lat="31.9247240" lon="34.9581000">
<ele>125.425201</ele>
<time>2017-04-18T17:02:41.997Z</time>
</trkpt>
<trkpt lat="31.9247640" lon="34.9579850">
<ele>125.089920</ele>
<time>2017-04-18T17:02:44.002Z</time>
</trkpt>
<trkpt lat="31.9248000" lon="34.9578590">
<ele>124.084084</ele>
<time>2017-04-18T17:02:45.997Z</time>
</trkpt>
<trkpt lat="31.9248390" lon="34.9577350">
<ele>122.773438</ele>
<time>2017-04-18T17:02:48.002Z</time>
</trkpt>
<trkpt lat="31.9248850" lon="34.9576080">
<ele>121.127518</ele>
<time>2017-04-18T17:02:49.998Z</time>
</trkpt>
<trkpt lat="31.9249490" lon="34.9575050">
<ele>121.005600</ele>
<time>2017-04-18T17:02:52.002Z</time>
</trkpt>
<trkpt lat="31.9250390" lon="34.9574330">
<ele>120.670319</ele>
<time>2017-04-18T17:02:53.998Z</time>
</trkpt>
<trkpt lat="31.9251400" lon="34.9573800">
<ele>119.329201</ele>
<time>2017-04-18T17:02:56.003Z</time>
</trkpt>
<trkpt lat="31.9252390" lon="34.9573680">
<ele>118.811035</ele>
<time>2017-04-18T17:02:57.998Z</time>
</trkpt>
<trkpt lat="31.9253370" lon="34.9574100">
<ele>119.054878</ele>
<time>2017-04-18T17:03:00.003Z</time>
</trkpt>
<trkpt lat="31.9254200" lon="34.9574730">
<ele>118.993919</ele>
<time>2017-04-18T17:03:01.999Z</time>
</trkpt>
<trkpt lat="31.9255360" lon="34.9575500">
<ele>118.323364</ele>
<time>2017-04-18T17:03:04.997Z</time>
</trkpt>
<trkpt lat="31.9256290" lon="34.9575610">
<ele>119.268234</ele>
<time>2017-04-18T17:03:07.001Z</time>
</trkpt>
<trkpt lat="31.9257390" lon="34.9574920">
<ele>119.390167</ele>
<time>2017-04-18T17:03:09.999Z</time>
</trkpt>
<trkpt lat="31.9258110" lon="34.9573610">
<ele>119.085365</ele>
<time>2017-04-18T17:03:12.997Z</time>
</trkpt>
<trkpt lat="31.9258640" lon="34.9572060">
<ele>118.841515</ele>
<time>2017-04-18T17:03:16.004Z</time>
</trkpt>
<trkpt lat="31.9258860" lon="34.9570960">
<ele>118.689117</ele>
<time>2017-04-18T17:03:18.000Z</time>
</trkpt>
<trkpt lat="31.9259080" lon="34.9569860">
<ele>118.963440</ele>
<time>2017-04-18T17:03:19.996Z</time>
</trkpt>
<trkpt lat="31.9259470" lon="34.9568340">
<ele>118.628166</ele>
<time>2017-04-18T17:03:23.003Z</time>
</trkpt>
<trkpt lat="31.9259980" lon="34.9566910">
<ele>118.811035</ele>
<time>2017-04-18T17:03:26.001Z</time>
</trkpt>
<trkpt lat="31.9260450" lon="34.9565910">
<ele>117.713760</ele>
<time>2017-04-18T17:03:27.996Z</time>
</trkpt>
<trkpt lat="31.9261180" lon="34.9564970">
<ele>117.134636</ele>
<time>2017-04-18T17:03:30.001Z</time>
</trkpt>
<trkpt lat="31.9262110" lon="34.9564230">
<ele>116.921280</ele>
<time>2017-04-18T17:03:31.997Z</time>
</trkpt>
<trkpt lat="31.9263200" lon="34.9563810">
<ele>116.250717</ele>
<time>2017-04-18T17:03:34.001Z</time>
</trkpt>
<trkpt lat="31.9264390" lon="34.9563610">
<ele>115.915436</ele>
<time>2017-04-18T17:03:35.997Z</time>
</trkpt>
<trkpt lat="31.9265550" lon="34.9563660">
<ele>116.098320</ele>
<time>2017-04-18T17:03:38.002Z</time>
</trkpt>
<trkpt lat="31.9266680" lon="34.9563820">
<ele>116.342163</ele>
<time>2017-04-18T17:03:39.997Z</time>
</trkpt>
<trkpt lat="31.9267790" lon="34.9563910">
<ele>116.281197</ele>
<time>2017-04-18T17:03:42.002Z</time>
</trkpt>
<trkpt lat="31.9268890" lon="34.9564000">
<ele>116.098320</ele>
<time>2017-04-18T17:03:43.998Z</time>
</trkpt>
<trkpt lat="31.9269950" lon="34.9564080">
<ele>116.311684</ele>
<time>2017-04-18T17:03:46.002Z</time>
</trkpt>
<trkpt lat="31.9270960" lon="34.9564230">
<ele>116.677437</ele>
<time>2017-04-18T17:03:47.998Z</time>
</trkpt>
<trkpt lat="31.9271940" lon="34.9564470">
<ele>117.073685</ele>
<time>2017-04-18T17:03:50.003Z</time>
</trkpt>
<trkpt lat="31.9272740" lon="34.9565030">
<ele>117.348000</ele>
<time>2017-04-18T17:03:51.998Z</time>
</trkpt>
<trkpt lat="31.9273570" lon="34.9566140">
<ele>118.811035</ele>
<time>2017-04-18T17:03:54.996Z</time>
</trkpt>
<trkpt lat="31.9274110" lon="34.9567290">
<ele>119.451118</ele>
<time>2017-04-18T17:03:58.003Z</time>
</trkpt>
<trkpt lat="31.9274470" lon="34.9568500">
<ele>120.731285</ele>
<time>2017-04-18T17:04:01.001Z</time>
</trkpt>
<trkpt lat="31.9274880" lon="34.9569680">
<ele>121.554237</ele>
<time>2017-04-18T17:04:03.999Z</time>
</trkpt>
<trkpt lat="31.9275290" lon="34.9570840">
<ele>122.011436</ele>
<time>2017-04-18T17:04:06.997Z</time>
</trkpt>
<trkpt lat="31.9275780" lon="34.9572020">
<ele>122.468636</ele>
<time>2017-04-18T17:04:10.004Z</time>
</trkpt>
<trkpt lat="31.9276460" lon="34.9573110">
<ele>122.773438</ele>
<time>2017-04-18T17:04:13.002Z</time>
</trkpt>
<trkpt lat="31.9277150" lon="34.9574120">
<ele>123.108719</ele>
<time>2017-04-18T17:04:16.000Z</time>
</trkpt>
<trkpt lat="31.9277840" lon="34.9575060">
<ele>123.718315</ele>
<time>2017-04-18T17:04:18.998Z</time>
</trkpt>
<trkpt lat="31.9278520" lon="34.9575870">
<ele>124.206001</ele>
<time>2017-04-18T17:04:21.996Z</time>
</trkpt>
<trkpt lat="31.9279110" lon="34.9576620">
<ele>124.754639</ele>
<time>2017-04-18T17:04:25.003Z</time>
</trkpt>
<trkpt lat="31.9279520" lon="34.9577700">
<ele>125.455681</ele>
<time>2017-04-18T17:04:29.004Z</time>
</trkpt>
<trkpt lat="31.9279920" lon="34.9578730">
<ele>126.126236</ele>
<time>2017-04-18T17:04:33.004Z</time>
</trkpt>
<trkpt lat="31.9280490" lon="34.9579700">
<ele>127.589279</ele>
<time>2017-04-18T17:04:37.004Z</time>
</trkpt>
<trkpt lat="31.9281250" lon="34.9580580">
<ele>126.979683</ele>
<time>2017-04-18T17:04:40.996Z</time>
</trkpt>
<trkpt lat="31.9282270" lon="34.9581230">
<ele>127.589279</ele>
<time>2017-04-18T17:04:44.996Z</time>
</trkpt>
<trkpt lat="31.9283330" lon="34.9581610">
<ele>128.412231</ele>
<time>2017-04-18T17:04:48.996Z</time>
</trkpt>
<trkpt lat="31.9284390" lon="34.9581700">
<ele>128.899918</ele>
<time>2017-04-18T17:04:53.999Z</time>
</trkpt>
<trkpt lat="31.9285290" lon="34.9581970">
<ele>129.539993</ele>
<time>2017-04-18T17:05:00.004Z</time>
</trkpt>
<trkpt lat="31.9284970" lon="34.9582920">
<ele>130.332489</ele>
<time>2017-04-18T17:05:06.000Z</time>
</trkpt>
<trkpt lat="31.9284450" lon="34.9583700">
<ele>130.637283</ele>
<time>2017-04-18T17:05:12.998Z</time>
</trkpt>
<trkpt lat="31.9284153" lon="34.9584027">
<ele>130.637283</ele>
<time>2017-04-18T17:05:58.004Z</time>
</trkpt>
<trkpt lat="31.9284754" lon="34.9584080">
<ele>131.033524</ele>
<time>2017-04-18T17:06:04.000Z</time>
</trkpt>
<trkpt lat="31.9286393" lon="34.9584295">
<ele>131.460236</ele>
<time>2017-04-18T17:06:06.998Z</time>
</trkpt>
<trkpt lat="31.9289944" lon="34.9583973">
<ele>131.673599</ele>
<time>2017-04-18T17:06:09.996Z</time>
</trkpt>
<trkpt lat="31.9291402" lon="34.9585368">
<ele>131.460236</ele>
<time>2017-04-18T17:06:13.003Z</time>
</trkpt>
<trkpt lat="31.9292769" lon="34.9587191">
<ele>131.917435</ele>
<time>2017-04-18T17:06:16.001Z</time>
</trkpt>
<trkpt lat="31.9294135" lon="34.9588157">
<ele>131.673599</ele>
<time>2017-04-18T17:06:18.999Z</time>
</trkpt>
<trkpt lat="31.9295320" lon="34.9589230">
<ele>132.527039</ele>
<time>2017-04-18T17:06:21.997Z</time>
</trkpt>
<trkpt lat="31.9296505" lon="34.9589552">
<ele>131.643112</ele>
<time>2017-04-18T17:06:25.004Z</time>
</trkpt>
<trkpt lat="31.9298261" lon="34.9590303">
<ele>131.246887</ele>
<time>2017-04-18T17:06:28.002Z</time>
</trkpt>
<trkpt lat="31.9299900" lon="34.9590303">
<ele>130.210571</ele>
<time>2017-04-18T17:06:29.998Z</time>
</trkpt>
<trkpt lat="31.9301812" lon="34.9590464">
<ele>129.692398</ele>
<time>2017-04-18T17:06:32.003Z</time>
</trkpt>
<trkpt lat="31.9304159" lon="34.9592019">
<ele>129.509521</ele>
<time>2017-04-18T17:06:33.998Z</time>
</trkpt>
<trkpt lat="31.9306162" lon="34.9592663">
<ele>127.650238</ele>
<time>2017-04-18T17:06:37.999Z</time>
</trkpt>
<trkpt lat="31.9307892" lon="34.9592663">
<ele>126.918716</ele>
<time>2017-04-18T17:06:40.003Z</time>
</trkpt>
<trkpt lat="31.9309258" lon="34.9595024">
<ele>157.032959</ele>
<time>2017-04-18T17:21:08.997Z</time>
</trkpt>
<trkpt lat="31.9309531" lon="34.9596633">
<ele>157.581604</ele>
<time>2017-04-18T17:21:15.002Z</time>
</trkpt>
<trkpt lat="31.9309805" lon="34.9599315">
<ele>158.038803</ele>
<time>2017-04-18T17:21:20.998Z</time>
</trkpt>
<trkpt lat="31.9309896" lon="34.9601246">
<ele>159.959030</ele>
<time>2017-04-18T17:21:28.999Z</time>
</trkpt>
<trkpt lat="31.9310645" lon="34.9603928">
<ele>160.050476</ele>
<time>2017-04-18T17:21:43.004Z</time>
</trkpt>
<trkpt lat="31.9309078" lon="34.9604358">
<ele>161.574478</ele>
<time>2017-04-18T17:21:50.996Z</time>
</trkpt>
<trkpt lat="31.9307023" lon="34.9604411">
<ele>160.934402</ele>
<time>2017-04-18T17:22:02.004Z</time>
</trkpt>
<trkpt lat="31.9305293" lon="34.9604894">
<ele>161.086807</ele>
<time>2017-04-18T17:22:06.997Z</time>
</trkpt>
<trkpt lat="31.9303927" lon="34.9605431">
<ele>161.056320</ele>
<time>2017-04-18T17:22:12.000Z</time>
</trkpt>
<trkpt lat="31.9301794" lon="34.9606611">
<ele>161.696396</ele>
<time>2017-04-18T17:22:17.996Z</time>
</trkpt>
<trkpt lat="31.9299792" lon="34.9608542">
<ele>162.214569</ele>
<time>2017-04-18T17:22:25.003Z</time>
</trkpt>
<trkpt lat="31.9298517" lon="34.9610580">
<ele>161.178238</ele>
<time>2017-04-18T17:22:37.998Z</time>
</trkpt>
<trkpt lat="31.9295515" lon="34.9610366">
<ele>161.422073</ele>
<time>2017-04-18T17:22:48.996Z</time>
</trkpt>
<trkpt lat="31.9292510" lon="34.9610473">
<ele>160.964874</ele>
<time>2017-04-18T17:22:57.999Z</time>
</trkpt>
<trkpt lat="31.9290233" lon="34.9610473">
<ele>160.263840</ele>
<time>2017-04-18T17:23:03.002Z</time>
</trkpt>
<trkpt lat="31.9288048" lon="34.9610258">
<ele>159.989532</ele>
<time>2017-04-18T17:23:07.002Z</time>
</trkpt>
<trkpt lat="31.9286411" lon="34.9610258">
<ele>160.020004</ele>
<time>2017-04-18T17:23:12.998Z</time>
</trkpt>
<trkpt lat="31.9283302" lon="34.9612672">
<time>2017-06-10T05:59:22.240Z</time>
</trkpt>
<trkpt lat="31.9282877" lon="34.9613799">
<ele>159.349442</ele>
<time>2017-04-18T17:23:18.001Z</time>
</trkpt>
<trkpt lat="31.9285654" lon="34.9614335">
<ele>158.922729</ele>
<time>2017-04-18T17:23:22.001Z</time>
</trkpt>
<trkpt lat="31.9288522" lon="34.9615569">
<ele>159.501831</ele>
<time>2017-04-18T17:23:26.002Z</time>
</trkpt>
<trkpt lat="31.9290445" lon="34.9616216">
<ele>158.648407</ele>
<time>2017-04-18T17:23:30.002Z</time>
</trkpt>
<trkpt lat="31.9296127" lon="34.9617554">
<ele>158.130234</ele>
<time>2017-04-18T17:23:37.000Z</time>
</trkpt>
<trkpt lat="31.9299952" lon="34.9619432">
<ele>157.490158</ele>
<time>2017-04-18T17:24:32.996Z</time>
</trkpt>
<trkpt lat="31.9301591" lon="34.9621792">
<ele>157.002472</ele>
<time>2017-04-18T17:24:37.999Z</time>
</trkpt>
<trkpt lat="31.9303721" lon="34.9624152">
<ele>156.880569</ele>
<time>2017-04-18T17:24:43.001Z</time>
</trkpt>
<trkpt lat="31.9301628" lon="34.9625064">
<time>2017-06-10T05:58:09.942Z</time>
</trkpt>
<trkpt lat="31.9295399" lon="34.9622811">
<ele>157.733994</ele>
<time>2017-04-18T17:24:48.004Z</time>
</trkpt>
<trkpt lat="31.9292271" lon="34.9623723">
<time>2017-06-10T05:59:16.330Z</time>
</trkpt>
<trkpt lat="31.9288783" lon="34.9625493">
<ele>160.141922</ele>
<time>2017-04-18T17:24:54.000Z</time>
</trkpt>
<trkpt lat="31.9286415" lon="34.9626781">
<ele>161.422073</ele>
<time>2017-04-18T17:24:59.996Z</time>
</trkpt>
<trkpt lat="31.9284776" lon="34.9627854">
<ele>162.824158</ele>
<time>2017-04-18T17:25:07.003Z</time>
</trkpt>
<trkpt lat="31.9282291" lon="34.9630429">
<ele>164.866333</ele>
<time>2017-04-18T17:25:22.002Z</time>
</trkpt>
<trkpt lat="31.9281281" lon="34.9632038">
<ele>166.542725</ele>
<time>2017-04-18T17:25:29.001Z</time>
</trkpt>
<trkpt lat="31.9278869" lon="34.9633218">
<ele>167.639999</ele>
<time>2017-04-18T17:25:35.999Z</time>
</trkpt>
<trkpt lat="31.9276410" lon="34.9634827">
<ele>168.219131</ele>
<time>2017-04-18T17:25:42.004Z</time>
</trkpt>
<trkpt lat="31.9275501" lon="34.9637724">
<ele>168.981125</ele>
<time>2017-04-18T17:25:48.000Z</time>
</trkpt>
<trkpt lat="31.9274954" lon="34.9641158">
<ele>169.377365</ele>
<time>2017-04-18T17:25:53.996Z</time>
</trkpt>
<trkpt lat="31.9274417" lon="34.9643947">
<ele>170.779434</ele>
<time>2017-04-18T17:26:00.001Z</time>
</trkpt>
<trkpt lat="31.9274280" lon="34.9647488">
<ele>170.352722</ele>
<time>2017-04-18T17:26:06.999Z</time>
</trkpt>
<trkpt lat="31.9273953" lon="34.9650170">
<ele>171.053757</ele>
<time>2017-04-18T17:26:13.004Z</time>
</trkpt>
<trkpt lat="31.9274046" lon="34.9652423">
<ele>170.901367</ele>
<time>2017-04-18T17:26:19.000Z</time>
</trkpt>
<trkpt lat="31.9275147" lon="34.9653818">
<ele>170.901367</ele>
<time>2017-04-18T17:26:25.999Z</time>
</trkpt>
<trkpt lat="31.9275693" lon="34.9655373">
<ele>170.352722</ele>
<time>2017-04-18T17:26:31.001Z</time>
</trkpt>
<trkpt lat="31.9276285" lon="34.9657090">
<ele>170.657532</ele>
<time>2017-04-18T17:26:36.004Z</time>
</trkpt>
<trkpt lat="31.9276870" lon="34.9658860">
<ele>170.291763</ele>
<time>2017-04-18T17:26:40.998Z</time>
</trkpt>
<trkpt lat="31.9276810" lon="34.9661167">
<ele>169.956467</ele>
<time>2017-04-18T17:26:44.998Z</time>
</trkpt>
<trkpt lat="31.9276856" lon="34.9663474">
<ele>168.584869</ele>
<time>2017-04-18T17:26:50.001Z</time>
</trkpt>
<trkpt lat="31.9276870" lon="34.9666156">
<ele>167.426636</ele>
<time>2017-04-18T17:26:54.001Z</time>
</trkpt>
<trkpt lat="31.9279055" lon="34.9667229">
<ele>166.298874</ele>
<time>2017-04-18T17:26:58.001Z</time>
</trkpt>
<trkpt lat="31.9280512" lon="34.9668623">
<ele>166.207443</ele>
<time>2017-04-18T17:27:03.004Z</time>
</trkpt>
<trkpt lat="31.9281878" lon="34.9669696">
<ele>164.957764</ele>
<time>2017-04-18T17:27:11.998Z</time>
</trkpt>
<trkpt lat="31.9283881" lon="34.9670018">
<ele>164.073837</ele>
<time>2017-04-18T17:27:26.997Z</time>
</trkpt>
<trkpt lat="31.9283820" lon="34.9671627">
<ele>163.433762</ele>
<time>2017-04-18T17:27:33.002Z</time>
</trkpt>
<trkpt lat="31.9282333" lon="34.9672700">
<ele>162.976563</ele>
<time>2017-04-18T17:27:40.000Z</time>
</trkpt>
<trkpt lat="31.9279601" lon="34.9673451">
<ele>162.458405</ele>
<time>2017-04-18T17:27:45.003Z</time>
</trkpt>
<trkpt lat="31.9277052" lon="34.9674095">
<ele>162.519363</ele>
<time>2017-04-18T17:27:49.997Z</time>
</trkpt>
<trkpt lat="31.9275140" lon="34.9676241">
<ele>162.062164</ele>
<time>2017-04-18T17:27:53.997Z</time>
</trkpt>
<trkpt lat="31.9274502" lon="34.9678065">
<ele>161.330643</ele>
<time>2017-04-18T17:27:57.997Z</time>
</trkpt>
<trkpt lat="31.9274502" lon="34.9680532">
<ele>161.025833</ele>
<time>2017-04-18T17:28:01.998Z</time>
</trkpt>
<trkpt lat="31.9275595" lon="34.9682249">
<ele>155.204163</ele>
<time>2017-04-18T17:30:04.997Z</time>
</trkpt>
<trkpt lat="31.9275504" lon="34.9684395">
<ele>155.935684</ele>
<time>2017-04-18T17:30:09.999Z</time>
</trkpt>
<trkpt lat="31.9274957" lon="34.9686540">
<ele>155.447998</ele>
<time>2017-04-18T17:30:16.004Z</time>
</trkpt>
<trkpt lat="31.9273865" lon="34.9688686">
<ele>154.990799</ele>
<time>2017-04-18T17:31:01.001Z</time>
</trkpt>
<trkpt lat="31.9272408" lon="34.9690081">
<ele>155.508957</ele>
<time>2017-04-18T17:31:06.004Z</time>
</trkpt>
<trkpt lat="31.9270769" lon="34.9692227">
<ele>154.777435</ele>
<time>2017-04-18T17:31:10.004Z</time>
</trkpt>
<trkpt lat="31.9269130" lon="34.9693514">
<ele>154.807922</ele>
<time>2017-04-18T17:31:13.002Z</time>
</trkpt>
<trkpt lat="31.9267855" lon="34.9695124">
<ele>153.893524</ele>
<time>2017-04-18T17:31:16.000Z</time>
</trkpt>
<trkpt lat="31.9266489" lon="34.9696626">
<ele>153.497284</ele>
<time>2017-04-18T17:31:17.996Z</time>
</trkpt>
<trkpt lat="31.9265032" lon="34.9697913">
<ele>153.344879</ele>
<time>2017-04-18T17:31:20.001Z</time>
</trkpt>
<trkpt lat="31.9263393" lon="34.9698879">
<ele>152.826721</ele>
<time>2017-04-18T17:31:21.996Z</time>
</trkpt>
<trkpt lat="31.9261370" lon="34.9699576">
<ele>152.278076</ele>
<time>2017-04-18T17:31:24.001Z</time>
</trkpt>
<trkpt lat="31.9259958" lon="34.9700595">
<ele>151.485596</ele>
<time>2017-04-18T17:31:25.997Z</time>
</trkpt>
<trkpt lat="31.9259457" lon="34.9701346">
<ele>141.244324</ele>
<time>2017-04-18T17:32:23.004Z</time>
</trkpt>
<trkpt lat="31.9260670" lon="34.9702220">
<ele>141.335770</ele>
<time>2017-04-18T17:32:27.004Z</time>
</trkpt>
<trkpt lat="31.9261480" lon="34.9702780">
<ele>141.244324</ele>
<time>2017-04-18T17:32:30.002Z</time>
</trkpt>
<trkpt lat="31.9262400" lon="34.9703210">
<ele>140.634720</ele>
<time>2017-04-18T17:32:33.000Z</time>
</trkpt>
<trkpt lat="31.9263510" lon="34.9703400">
<ele>139.842239</ele>
<time>2017-04-18T17:32:35.998Z</time>
</trkpt>
<trkpt lat="31.9264670" lon="34.9703370">
<ele>139.019287</ele>
<time>2017-04-18T17:32:38.996Z</time>
</trkpt>
<trkpt lat="31.9265710" lon="34.9703310">
<ele>138.196320</ele>
<time>2017-04-18T17:32:42.003Z</time>
</trkpt>
<trkpt lat="31.9266720" lon="34.9703360">
<ele>137.617203</ele>
<time>2017-04-18T17:32:45.001Z</time>
</trkpt>
<trkpt lat="31.9267820" lon="34.9703270">
<ele>137.251434</ele>
<time>2017-04-18T17:32:47.999Z</time>
</trkpt>
<trkpt lat="31.9269010" lon="34.9702850">
<ele>136.611359</ele>
<time>2017-04-18T17:32:50.997Z</time>
</trkpt>
<trkpt lat="31.9270090" lon="34.9702800">
<ele>136.702805</ele>
<time>2017-04-18T17:32:54.004Z</time>
</trkpt>
<trkpt lat="31.9271170" lon="34.9703060">
<ele>136.702805</ele>
<time>2017-04-18T17:32:57.002Z</time>
</trkpt>
<trkpt lat="31.9272450" lon="34.9703400">
<ele>136.215118</ele>
<time>2017-04-18T17:33:00.000Z</time>
</trkpt>
<trkpt lat="31.9273370" lon="34.9703870">
<ele>135.270233</ele>
<time>2017-04-18T17:33:01.996Z</time>
</trkpt>
<trkpt lat="31.9274220" lon="34.9704400">
<ele>134.599686</ele>
<time>2017-04-18T17:33:04.000Z</time>
</trkpt>
<trkpt lat="31.9275560" lon="34.9704830">
<ele>133.289032</ele>
<time>2017-04-18T17:33:06.998Z</time>
</trkpt>
<trkpt lat="31.9276470" lon="34.9705440">
<ele>133.136642</ele>
<time>2017-04-18T17:33:09.003Z</time>
</trkpt>
<trkpt lat="31.9277290" lon="34.9706160">
<ele>133.563370</ele>
<time>2017-04-18T17:33:10.999Z</time>
</trkpt>
<trkpt lat="31.9278070" lon="34.9706770">
<ele>132.984238</ele>
<time>2017-04-18T17:33:13.003Z</time>
</trkpt>
<trkpt lat="31.9278960" lon="34.9707230">
<ele>132.374634</ele>
<time>2017-04-18T17:33:14.999Z</time>
</trkpt>
<trkpt lat="31.9279890" lon="34.9707720">
<ele>131.521194</ele>
<time>2017-04-18T17:33:17.004Z</time>
</trkpt>
<trkpt lat="31.9280860" lon="34.9708150">
<ele>131.338318</ele>
<time>2017-04-18T17:33:18.999Z</time>
</trkpt>
<trkpt lat="31.9281910" lon="34.9708660">
<ele>131.246887</ele>
<time>2017-04-18T17:33:21.004Z</time>
</trkpt>
<trkpt lat="31.9283020" lon="34.9709190">
<ele>130.484879</ele>
<time>2017-04-18T17:33:23.000Z</time>
</trkpt>
<trkpt lat="31.9284100" lon="34.9709840">
<ele>130.180084</ele>
<time>2017-04-18T17:33:25.004Z</time>
</trkpt>
<trkpt lat="31.9285130" lon="34.9710330">
<ele>130.058167</ele>
<time>2017-04-18T17:33:27.000Z</time>
</trkpt>
<trkpt lat="31.9286340" lon="34.9710600">
<ele>128.960876</ele>
<time>2017-04-18T17:33:28.996Z</time>
</trkpt>
<trkpt lat="31.9287670" lon="34.9710590">
<ele>127.406403</ele>
<time>2017-04-18T17:33:31.000Z</time>
</trkpt>
<trkpt lat="31.9288850" lon="34.9710350">
<ele>127.802635</ele>
<time>2017-04-18T17:33:32.996Z</time>
</trkpt>
<trkpt lat="31.9289850" lon="34.9710040">
<ele>127.772163</ele>
<time>2017-04-18T17:33:35.001Z</time>
</trkpt>
<trkpt lat="31.9290820" lon="34.9709730">
<ele>127.772163</ele>
<time>2017-04-18T17:33:36.996Z</time>
</trkpt>
<trkpt lat="31.9291850" lon="34.9709530">
<ele>127.558800</ele>
<time>2017-04-18T17:33:39.001Z</time>
</trkpt>
<trkpt lat="31.9292890" lon="34.9709490">
<ele>127.802635</ele>
<time>2017-04-18T17:33:40.997Z</time>
</trkpt>
<trkpt lat="31.9293930" lon="34.9709620">
<ele>127.802635</ele>
<time>2017-04-18T17:33:43.001Z</time>
</trkpt>
<trkpt lat="31.9295300" lon="34.9710060">
<ele>127.894081</ele>
<time>2017-04-18T17:33:45.999Z</time>
</trkpt>
<trkpt lat="31.9296490" lon="34.9710370">
<ele>127.894081</ele>
<time>2017-04-18T17:33:48.997Z</time>
</trkpt>
<trkpt lat="31.9297710" lon="34.9710530">
<ele>128.107437</ele>
<time>2017-04-18T17:33:52.004Z</time>
</trkpt>
<trkpt lat="31.9298950" lon="34.9710620">
<ele>128.534164</ele>
<time>2017-04-18T17:33:55.002Z</time>
</trkpt>
<trkpt lat="31.9300140" lon="34.9710630">
<ele>129.174240</ele>
<time>2017-04-18T17:33:58.000Z</time>
</trkpt>
<trkpt lat="31.9301380" lon="34.9710520">
<ele>128.412231</ele>
<time>2017-04-18T17:34:00.998Z</time>
</trkpt>
<trkpt lat="31.9302340" lon="34.9710360">
<ele>128.046478</ele>
<time>2017-04-18T17:34:03.003Z</time>
</trkpt>
<trkpt lat="31.9303310" lon="34.9710210">
<ele>127.375916</ele>
<time>2017-04-18T17:34:04.999Z</time>
</trkpt>
<trkpt lat="31.9304370" lon="34.9709980">
<ele>127.406403</ele>
<time>2017-04-18T17:34:07.003Z</time>
</trkpt>
<trkpt lat="31.9305410" lon="34.9709790">
<ele>127.314964</ele>
<time>2017-04-18T17:34:08.999Z</time>
</trkpt>
<trkpt lat="31.9306440" lon="34.9709830">
<ele>126.949203</ele>
<time>2017-04-18T17:34:11.004Z</time>
</trkpt>
<trkpt lat="31.9307390" lon="34.9710280">
<ele>127.589279</ele>
<time>2017-04-18T17:34:12.999Z</time>
</trkpt>
<trkpt lat="31.9308260" lon="34.9710920">
<ele>127.253998</ele>
<time>2017-04-18T17:34:15.004Z</time>
</trkpt>
<trkpt lat="31.9309070" lon="34.9711590">
<ele>127.741684</ele>
<time>2017-04-18T17:34:17.000Z</time>
</trkpt>
<trkpt lat="31.9309840" lon="34.9712310">
<ele>127.680717</ele>
<time>2017-04-18T17:34:19.004Z</time>
</trkpt>
<trkpt lat="31.9310570" lon="34.9713020">
<ele>128.534164</ele>
<time>2017-04-18T17:34:21.000Z</time>
</trkpt>
<trkpt lat="31.9311310" lon="34.9713710">
<ele>128.229370</ele>
<time>2017-04-18T17:34:22.996Z</time>
</trkpt>
<trkpt lat="31.9312400" lon="34.9714670">
<ele>129.296158</ele>
<time>2017-04-18T17:34:26.003Z</time>
</trkpt>
<trkpt lat="31.9313400" lon="34.9715600">
<ele>129.479034</ele>
<time>2017-04-18T17:34:29.001Z</time>
</trkpt>
<trkpt lat="31.9314390" lon="34.9716490">
<ele>130.454407</ele>
<time>2017-04-18T17:34:31.999Z</time>
</trkpt>
<trkpt lat="31.9315340" lon="34.9717300">
<ele>130.180084</ele>
<time>2017-04-18T17:34:34.997Z</time>
</trkpt>
<trkpt lat="31.9316260" lon="34.9718190">
<ele>130.881119</ele>
<time>2017-04-18T17:34:38.004Z</time>
</trkpt>
<trkpt lat="31.9317070" lon="34.9719060">
<ele>131.429764</ele>
<time>2017-04-18T17:34:41.002Z</time>
</trkpt>
<trkpt lat="31.9317880" lon="34.9719860">
<ele>131.185913</ele>
<time>2017-04-18T17:34:44.000Z</time>
</trkpt>
<trkpt lat="31.9318730" lon="34.9720630">
<ele>131.368805</ele>
<time>2017-04-18T17:34:46.998Z</time>
</trkpt>
<trkpt lat="31.9319570" lon="34.9721350">
<ele>132.039368</ele>
<time>2017-04-18T17:34:49.996Z</time>
</trkpt>
<trkpt lat="31.9320370" lon="34.9722030">
<ele>132.100311</ele>
<time>2017-04-18T17:34:53.003Z</time>
</trkpt>
<trkpt lat="31.9320780" lon="34.9722940">
<ele>132.283203</ele>
<time>2017-04-18T17:34:57.003Z</time>
</trkpt>
<trkpt lat="31.9320600" lon="34.9723880">
<ele>132.984238</ele>
<time>2017-04-18T17:35:27.001Z</time>
</trkpt>
<trkpt lat="31.9321030" lon="34.9725120">
<ele>133.075684</ele>
<time>2017-04-18T17:35:32.004Z</time>
</trkpt>
<trkpt lat="31.9321450" lon="34.9726350">
<ele>133.990082</ele>
<time>2017-04-18T17:35:36.997Z</time>
</trkpt>
<trkpt lat="31.9321810" lon="34.9727650">
<ele>134.599686</ele>
<time>2017-04-18T17:35:42.000Z</time>
</trkpt>
<trkpt lat="31.9322150" lon="34.9728700">
<ele>135.392166</ele>
<time>2017-04-18T17:35:46.000Z</time>
</trkpt>
<trkpt lat="31.9322580" lon="34.9729880">
<ele>135.575043</ele>
<time>2017-04-18T17:35:51.003Z</time>
</trkpt>
<trkpt lat="31.9322920" lon="34.9730900">
<ele>135.849365</ele>
<time>2017-04-18T17:35:55.003Z</time>
</trkpt>
<trkpt lat="31.9323350" lon="34.9731960">
<ele>135.971283</ele>
<time>2017-04-18T17:35:59.004Z</time>
</trkpt>
<trkpt lat="31.9323900" lon="34.9732940">
<ele>136.855194</ele>
<time>2017-04-18T17:36:03.004Z</time>
</trkpt>
<trkpt lat="31.9324540" lon="34.9734030">
<ele>136.489441</ele>
<time>2017-04-18T17:36:07.004Z</time>
</trkpt>
<trkpt lat="31.9325150" lon="34.9735280">
<ele>136.672318</ele>
<time>2017-04-18T17:36:10.996Z</time>
</trkpt>
<trkpt lat="31.9325660" lon="34.9736250">
<ele>137.251434</ele>
<time>2017-04-18T17:36:14.003Z</time>
</trkpt>
<trkpt lat="31.9326140" lon="34.9737260">
<ele>137.281921</ele>
<time>2017-04-18T17:36:17.001Z</time>
</trkpt>
<trkpt lat="31.9326660" lon="34.9738240">
<ele>137.129517</ele>
<time>2017-04-18T17:36:19.999Z</time>
</trkpt>
<trkpt lat="31.9327180" lon="34.9739200">
<ele>136.702805</ele>
<time>2017-04-18T17:36:22.997Z</time>
</trkpt>
<trkpt lat="31.9327700" lon="34.9740180">
<ele>137.617203</ele>
<time>2017-04-18T17:36:26.004Z</time>
</trkpt>
<trkpt lat="31.9328190" lon="34.9741130">
<ele>137.678162</ele>
<time>2017-04-18T17:36:29.002Z</time>
</trkpt>
<trkpt lat="31.9328330" lon="34.9742210">
<ele>137.525757</ele>
<time>2017-04-18T17:36:32.000Z</time>
</trkpt>
<trkpt lat="31.9328190" lon="34.9743520">
<ele>138.501114</ele>
<time>2017-04-18T17:36:36.000Z</time>
</trkpt>
<trkpt lat="31.9328010" lon="34.9744690">
<ele>139.415512</ele>
<time>2017-04-18T17:36:40.000Z</time>
</trkpt>
<trkpt lat="31.9327780" lon="34.9745760">
<ele>140.604233</ele>
<time>2017-04-18T17:36:44.001Z</time>
</trkpt>
<trkpt lat="31.9327340" lon="34.9746930">
<ele>140.726166</ele>
<time>2017-04-18T17:36:48.001Z</time>
</trkpt>
<trkpt lat="31.9326860" lon="34.9748130">
<ele>140.939514</ele>
<time>2017-04-18T17:36:52.001Z</time>
</trkpt>
<trkpt lat="31.9326480" lon="34.9749310">
<ele>141.152878</ele>
<time>2017-04-18T17:36:56.002Z</time>
</trkpt>
<trkpt lat="31.9326070" lon="34.9750630">
<ele>141.701523</ele>
<time>2017-04-18T17:37:00.002Z</time>
</trkpt>
<trkpt lat="31.9325630" lon="34.9751860">
<ele>142.372086</ele>
<time>2017-04-18T17:37:04.002Z</time>
</trkpt>
<trkpt lat="31.9325190" lon="34.9753080">
<ele>143.103607</ele>
<time>2017-04-18T17:37:08.003Z</time>
</trkpt>
<trkpt lat="31.9324810" lon="34.9754340">
<ele>143.621765</ele>
<time>2017-04-18T17:37:12.003Z</time>
</trkpt>
<trkpt lat="31.9324480" lon="34.9755400">
<ele>143.012161</ele>
<time>2017-04-18T17:37:15.001Z</time>
</trkpt>
<trkpt lat="31.9324180" lon="34.9756450">
<ele>143.743683</ele>
<time>2017-04-18T17:37:17.999Z</time>
</trkpt>
<trkpt lat="31.9323950" lon="34.9757560">
<ele>143.774170</ele>
<time>2017-04-18T17:37:20.997Z</time>
</trkpt>
<trkpt lat="31.9323790" lon="34.9758670">
<ele>143.774170</ele>
<time>2017-04-18T17:37:24.004Z</time>
</trkpt>
<trkpt lat="31.9323630" lon="34.9759760">
<ele>144.597122</ele>
<time>2017-04-18T17:37:27.002Z</time>
</trkpt>
<trkpt lat="31.9323370" lon="34.9761200">
<ele>144.779999</ele>
<time>2017-04-18T17:37:31.002Z</time>
</trkpt>
<trkpt lat="31.9323100" lon="34.9762280">
<ele>144.901917</ele>
<time>2017-04-18T17:37:34.000Z</time>
</trkpt>
<trkpt lat="31.9322810" lon="34.9763310">
<ele>145.359116</ele>
<time>2017-04-18T17:37:36.998Z</time>
</trkpt>
<trkpt lat="31.9322400" lon="34.9764590">
<ele>146.029678</ele>
<time>2017-04-18T17:37:40.999Z</time>
</trkpt>
<trkpt lat="31.9322080" lon="34.9765670">
<ele>145.999207</ele>
<time>2017-04-18T17:37:44.999Z</time>
</trkpt>
<trkpt lat="31.9321650" lon="34.9766810">
<ele>146.913605</ele>
<time>2017-04-18T17:37:50.002Z</time>
</trkpt>
<trkpt lat="31.9321230" lon="34.9767890">
<ele>147.584167</ele>
<time>2017-04-18T17:37:55.004Z</time>
</trkpt>
<trkpt lat="31.9320740" lon="34.9768800">
<ele>148.163284</ele>
<time>2017-04-18T17:37:59.998Z</time>
</trkpt>
<trkpt lat="31.9320200" lon="34.9769750">
<ele>147.949921</ele>
<time>2017-04-18T17:38:05.001Z</time>
</trkpt>
<trkpt lat="31.9319650" lon="34.9770720">
<ele>147.949921</ele>
<time>2017-04-18T17:38:10.003Z</time>
</trkpt>
<trkpt lat="31.9319170" lon="34.9771840">
<ele>148.346161</ele>
<time>2017-04-18T17:38:14.997Z</time>
</trkpt>
<trkpt lat="31.9318730" lon="34.9772920">
<ele>148.772888</ele>
<time>2017-04-18T17:38:20.000Z</time>
</trkpt>
<trkpt lat="31.9318430" lon="34.9774020">
<ele>149.626312</ele>
<time>2017-04-18T17:38:25.002Z</time>
</trkpt>
<trkpt lat="31.9318020" lon="34.9775050">
<ele>149.534882</ele>
<time>2017-04-18T17:38:29.996Z</time>
</trkpt>
<trkpt lat="31.9317610" lon="34.9776220">
<ele>149.839676</ele>
<time>2017-04-18T17:38:34.999Z</time>
</trkpt>
<trkpt lat="31.9317220" lon="34.9777440">
<ele>150.266403</ele>
<time>2017-04-18T17:38:40.001Z</time>
</trkpt>
<trkpt lat="31.9316910" lon="34.9778670">
<ele>150.997925</ele>
<time>2017-04-18T17:38:45.004Z</time>
</trkpt>
<trkpt lat="31.9316780" lon="34.9779760">
<ele>150.571198</ele>
<time>2017-04-18T17:38:49.004Z</time>
</trkpt>
<trkpt lat="31.9316770" lon="34.9780880">
<ele>151.272232</ele>
<time>2017-04-18T17:38:52.996Z</time>
</trkpt>
<trkpt lat="31.9316740" lon="34.9782110">
<ele>151.333206</ele>
<time>2017-04-18T17:38:56.996Z</time>
</trkpt>
<trkpt lat="31.9316650" lon="34.9783430">
<ele>151.698959</ele>
<time>2017-04-18T17:39:00.996Z</time>
</trkpt>
<trkpt lat="31.9316680" lon="34.9784750">
<ele>152.582886</ele>
<time>2017-04-18T17:39:05.999Z</time>
</trkpt>
<trkpt lat="31.9316850" lon="34.9785830">
<ele>153.497284</ele>
<time>2017-04-18T17:39:09.999Z</time>
</trkpt>
<trkpt lat="31.9317020" lon="34.9787120">
<ele>154.350723</ele>
<time>2017-04-18T17:39:15.002Z</time>
</trkpt>
<trkpt lat="31.9317120" lon="34.9788400">
<ele>154.838394</ele>
<time>2017-04-18T17:39:19.996Z</time>
</trkpt>
<trkpt lat="31.9317240" lon="34.9789670">
<ele>155.417511</ele>
<time>2017-04-18T17:39:23.996Z</time>
</trkpt>
<trkpt lat="31.9317400" lon="34.9790930">
<ele>155.813766</ele>
<time>2017-04-18T17:39:27.996Z</time>
</trkpt>
<trkpt lat="31.9317420" lon="34.9792130">
<ele>157.215836</ele>
<time>2017-04-18T17:39:31.997Z</time>
</trkpt>
<trkpt lat="31.9317360" lon="34.9793210">
<ele>157.551132</ele>
<time>2017-04-18T17:39:35.997Z</time>
</trkpt>
<trkpt lat="31.9317330" lon="34.9794340">
<ele>158.191193</ele>
<time>2017-04-18T17:39:39.997Z</time>
</trkpt>
<trkpt lat="31.9317250" lon="34.9795510">
<ele>158.465530</ele>
<time>2017-04-18T17:39:43.998Z</time>
</trkpt>
<trkpt lat="31.9317100" lon="34.9796780">
<ele>158.739838</ele>
<time>2017-04-18T17:39:49.000Z</time>
</trkpt>
<trkpt lat="31.9316950" lon="34.9797950">
<ele>158.556961</ele>
<time>2017-04-18T17:39:53.001Z</time>
</trkpt>
<trkpt lat="31.9316880" lon="34.9799100">
<ele>160.263840</ele>
<time>2017-04-18T17:39:57.001Z</time>
</trkpt>
<trkpt lat="31.9316850" lon="34.9800200">
<ele>159.898071</ele>
<time>2017-04-18T17:40:01.001Z</time>
</trkpt>
<trkpt lat="31.9316770" lon="34.9801350">
<ele>160.020004</ele>
<time>2017-04-18T17:40:05.002Z</time>
</trkpt>
<trkpt lat="31.9316430" lon="34.9802540">
<ele>160.477203</ele>
<time>2017-04-18T17:40:09.002Z</time>
</trkpt>
<trkpt lat="31.9315880" lon="34.9803670">
<ele>161.025833</ele>
<time>2017-04-18T17:40:13.002Z</time>
</trkpt>
<trkpt lat="31.9315250" lon="34.9804610">
<ele>160.964874</ele>
<time>2017-04-18T17:40:17.003Z</time>
</trkpt>
<trkpt lat="31.9314710" lon="34.9805610">
<ele>161.483032</ele>
<time>2017-04-18T17:40:21.996Z</time>
</trkpt>
<trkpt lat="31.9315320" lon="34.9806520">
<ele>161.970734</ele>
<time>2017-04-18T17:40:29.004Z</time>
</trkpt>
<trkpt lat="31.9316220" lon="34.9806680">
<ele>162.824158</ele>
<time>2017-04-18T17:40:36.002Z</time>
</trkpt>
<trkpt lat="31.9317290" lon="34.9806570">
<ele>163.921432</ele>
<time>2017-04-18T17:40:43.000Z</time>
</trkpt>
<trkpt lat="31.9318220" lon="34.9806140">
<ele>164.591995</ele>
<time>2017-04-18T17:40:48.996Z</time>
</trkpt>
<trkpt lat="31.9319220" lon="34.9805760">
<ele>164.957764</ele>
<time>2017-04-18T17:40:55.001Z</time>
</trkpt>
<trkpt lat="31.9320170" lon="34.9805600">
<ele>166.115997</ele>
<time>2017-04-18T17:41:00.997Z</time>
</trkpt>
<trkpt lat="31.9321190" lon="34.9805610">
<ele>166.878006</ele>
<time>2017-04-18T17:41:07.002Z</time>
</trkpt>
<trkpt lat="31.9322140" lon="34.9805770">
<ele>168.066727</ele>
<time>2017-04-18T17:41:12.998Z</time>
</trkpt>
<trkpt lat="31.9323110" lon="34.9806180">
<ele>169.499268</ele>
<time>2017-04-18T17:41:19.997Z</time>
</trkpt>
<trkpt lat="31.9324060" lon="34.9806610">
<ele>171.297607</ele>
<time>2017-04-18T17:41:27.004Z</time>
</trkpt>
<trkpt lat="31.9325020" lon="34.9807220">
<ele>172.181534</ele>
<time>2017-04-18T17:41:34.002Z</time>
</trkpt>
<trkpt lat="31.9325970" lon="34.9807530">
<ele>173.644562</ele>
<time>2017-04-18T17:41:39.998Z</time>
</trkpt>
<trkpt lat="31.9326980" lon="34.9807700">
<ele>173.857925</ele>
<time>2017-04-18T17:41:46.003Z</time>
</trkpt>
<trkpt lat="31.9328100" lon="34.9807720">
<ele>174.955200</ele>
<time>2017-04-18T17:41:51.999Z</time>
</trkpt>
<trkpt lat="31.9329090" lon="34.9807760">
<ele>176.143921</ele>
<time>2017-04-18T17:41:58.004Z</time>
</trkpt>
<trkpt lat="31.9330120" lon="34.9807430">
<ele>177.454559</ele>
<time>2017-04-18T17:42:05.003Z</time>
</trkpt>
<trkpt lat="31.9330800" lon="34.9806650">
<ele>178.582321</ele>
<time>2017-04-18T17:42:10.999Z</time>
</trkpt>
<trkpt lat="31.9331490" lon="34.9805700">
<ele>179.588165</ele>
<time>2017-04-18T17:42:17.997Z</time>
</trkpt>
<trkpt lat="31.9331630" lon="34.9804620">
<ele>180.167267</ele>
<time>2017-04-18T17:42:24.002Z</time>
</trkpt>
<trkpt lat="31.9331560" lon="34.9803360">
<ele>180.441605</ele>
<time>2017-04-18T17:42:29.998Z</time>
</trkpt>
<trkpt lat="31.9331300" lon="34.9802240">
<ele>180.807358</ele>
<time>2017-04-18T17:42:37.999Z</time>
</trkpt>
<trkpt lat="31.9330910" lon="34.9801230">
<ele>180.319672</ele>
<time>2017-04-18T17:42:44.997Z</time>
</trkpt>
<trkpt lat="31.9330330" lon="34.9800000">
<ele>180.502563</ele>
<time>2017-04-18T17:43:18.002Z</time>
</trkpt>
<trkpt lat="31.9329930" lon="34.9798980">
<ele>180.228241</ele>
<time>2017-04-18T17:43:21.000Z</time>
</trkpt>
<trkpt lat="31.9329530" lon="34.9797800">
<ele>179.618637</ele>
<time>2017-04-18T17:43:23.998Z</time>
</trkpt>
<trkpt lat="31.9329460" lon="34.9796380">
<ele>179.435760</ele>
<time>2017-04-18T17:43:26.996Z</time>
</trkpt>
<trkpt lat="31.9329850" lon="34.9795450">
<ele>180.075836</ele>
<time>2017-04-18T17:43:29.001Z</time>
</trkpt>
<trkpt lat="31.9330540" lon="34.9794250">
<ele>180.624466</ele>
<time>2017-04-18T17:43:31.999Z</time>
</trkpt>
<trkpt lat="31.9331090" lon="34.9793120">
<ele>180.533035</ele>
<time>2017-04-18T17:43:34.997Z</time>
</trkpt>
<trkpt lat="31.9331680" lon="34.9792090">
<ele>180.776871</ele>
<time>2017-04-18T17:43:38.004Z</time>
</trkpt>
<trkpt lat="31.9332450" lon="34.9791260">
<ele>181.447433</ele>
<time>2017-04-18T17:43:41.002Z</time>
</trkpt>
<trkpt lat="31.9333440" lon="34.9790700">
<ele>181.325531</ele>
<time>2017-04-18T17:43:44.000Z</time>
</trkpt>
<trkpt lat="31.9334490" lon="34.9790440">
<ele>181.630325</ele>
<time>2017-04-18T17:43:46.998Z</time>
</trkpt>
<trkpt lat="31.9335540" lon="34.9790250">
<ele>181.996078</ele>
<time>2017-04-18T17:43:49.996Z</time>
</trkpt>
<trkpt lat="31.9336640" lon="34.9790030">
<ele>182.117996</ele>
<time>2017-04-18T17:43:53.003Z</time>
</trkpt>
<trkpt lat="31.9337700" lon="34.9789690">
<ele>181.569366</ele>
<time>2017-04-18T17:43:56.001Z</time>
</trkpt>
<trkpt lat="31.9338790" lon="34.9789440">
<ele>181.935135</ele>
<time>2017-04-18T17:43:58.999Z</time>
</trkpt>
<trkpt lat="31.9339830" lon="34.9789140">
<ele>181.386475</ele>
<time>2017-04-18T17:44:01.997Z</time>
</trkpt>
<trkpt lat="31.9340670" lon="34.9788320">
<ele>180.350159</ele>
<time>2017-04-18T17:44:05.004Z</time>
</trkpt>
<trkpt lat="31.9341300" lon="34.9786970">
<ele>179.892960</ele>
<time>2017-04-18T17:44:08.002Z</time>
</trkpt>
<trkpt lat="31.9341820" lon="34.9785830">
<ele>179.710068</ele>
<time>2017-04-18T17:44:11.000Z</time>
</trkpt>
<trkpt lat="31.9342060" lon="34.9784520">
<ele>180.228241</ele>
<time>2017-04-18T17:44:15.000Z</time>
</trkpt>
<trkpt lat="31.9342130" lon="34.9783330">
<ele>180.837830</ele>
<time>2017-04-18T17:44:17.998Z</time>
</trkpt>
<trkpt lat="31.9342200" lon="34.9782230">
<ele>181.569366</ele>
<time>2017-04-18T17:44:20.996Z</time>
</trkpt>
<trkpt lat="31.9341830" lon="34.9780940">
<ele>181.965607</ele>
<time>2017-04-18T17:44:24.996Z</time>
</trkpt>
<trkpt lat="31.9341550" lon="34.9779790">
<ele>181.660797</ele>
<time>2017-04-18T17:44:28.003Z</time>
</trkpt>
<trkpt lat="31.9341370" lon="34.9778580">
<ele>182.148468</ele>
<time>2017-04-18T17:44:31.001Z</time>
</trkpt>
<trkpt lat="31.9341120" lon="34.9777140">
<ele>182.514236</ele>
<time>2017-04-18T17:44:35.002Z</time>
</trkpt>
<trkpt lat="31.9340840" lon="34.9775820">
<ele>183.306732</ele>
<time>2017-04-18T17:44:39.002Z</time>
</trkpt>
<trkpt lat="31.9340520" lon="34.9774730">
<ele>182.605667</ele>
<time>2017-04-18T17:44:42.000Z</time>
</trkpt>
<trkpt lat="31.9340120" lon="34.9773480">
<ele>182.453278</ele>
<time>2017-04-18T17:44:44.998Z</time>
</trkpt>
<trkpt lat="31.9339810" lon="34.9772080">
<ele>182.361832</ele>
<time>2017-04-18T17:44:47.996Z</time>
</trkpt>
<trkpt lat="31.9339700" lon="34.9770580">
<ele>181.935135</ele>
<time>2017-04-18T17:44:51.003Z</time>
</trkpt>
<trkpt lat="31.9339520" lon="34.9769130">
<ele>182.331360</ele>
<time>2017-04-18T17:44:54.001Z</time>
</trkpt>
<trkpt lat="31.9339450" lon="34.9767720">
<ele>182.422806</ele>
<time>2017-04-18T17:44:56.999Z</time>
</trkpt>
<trkpt lat="31.9339400" lon="34.9766150">
<ele>181.752243</ele>
<time>2017-04-18T17:44:59.997Z</time>
</trkpt>
<trkpt lat="31.9339420" lon="34.9764980">
<ele>181.386475</ele>
<time>2017-04-18T17:45:02.002Z</time>
</trkpt>
<trkpt lat="31.9339620" lon="34.9763810">
<ele>180.685440</ele>
<time>2017-04-18T17:45:03.997Z</time>
</trkpt>
<trkpt lat="31.9340040" lon="34.9762750">
<ele>179.862473</ele>
<time>2017-04-18T17:45:06.002Z</time>
</trkpt>
<trkpt lat="31.9340640" lon="34.9761790">
<ele>179.984406</ele>
<time>2017-04-18T17:45:07.998Z</time>
</trkpt>
<trkpt lat="31.9341370" lon="34.9761040">
<ele>179.740570</ele>
<time>2017-04-18T17:45:10.002Z</time>
</trkpt>
<trkpt lat="31.9342190" lon="34.9760490">
<ele>179.100479</ele>
<time>2017-04-18T17:45:11.998Z</time>
</trkpt>
<trkpt lat="31.9343020" lon="34.9760140">
<ele>179.771042</ele>
<time>2017-04-18T17:45:14.003Z</time>
</trkpt>
<trkpt lat="31.9344250" lon="34.9759900">
<ele>179.283371</ele>
<time>2017-04-18T17:45:17.001Z</time>
</trkpt>
<trkpt lat="31.9345460" lon="34.9759980">
<ele>179.892960</ele>
<time>2017-04-18T17:45:19.999Z</time>
</trkpt>
<trkpt lat="31.9346360" lon="34.9760680">
<ele>180.502563</ele>
<time>2017-04-18T17:45:23.999Z</time>
</trkpt>
<trkpt lat="31.9346990" lon="34.9761700">
<ele>180.533035</ele>
<time>2017-04-18T17:45:27.999Z</time>
</trkpt>
<trkpt lat="31.9347530" lon="34.9762630">
<ele>181.081665</ele>
<time>2017-04-18T17:45:32.000Z</time>
</trkpt>
<trkpt lat="31.9348130" lon="34.9763650">
<ele>181.813202</ele>
<time>2017-04-18T17:45:36.000Z</time>
</trkpt>
<trkpt lat="31.9348740" lon="34.9764710">
<ele>181.325531</ele>
<time>2017-04-18T17:45:40.000Z</time>
</trkpt>
<trkpt lat="31.9349370" lon="34.9765960">
<ele>181.599838</ele>
<time>2017-04-18T17:45:44.001Z</time>
</trkpt>
<trkpt lat="31.9349890" lon="34.9766940">
<ele>181.356003</ele>
<time>2017-04-18T17:45:46.999Z</time>
</trkpt>
<trkpt lat="31.9350360" lon="34.9767970">
<ele>181.630325</ele>
<time>2017-04-18T17:45:49.997Z</time>
</trkpt>
<trkpt lat="31.9350720" lon="34.9769120">
<ele>181.569366</ele>
<time>2017-04-18T17:45:53.004Z</time>
</trkpt>
<trkpt lat="31.9350940" lon="34.9770330">
<ele>181.264557</ele>
<time>2017-04-18T17:45:56.002Z</time>
</trkpt>
<trkpt lat="31.9351070" lon="34.9771440">
<ele>181.538879</ele>
<time>2017-04-18T17:45:59.000Z</time>
</trkpt>
<trkpt lat="31.9351310" lon="34.9772620">
<ele>181.996078</ele>
<time>2017-04-18T17:46:01.998Z</time>
</trkpt>
<trkpt lat="31.9351540" lon="34.9773720">
<ele>181.965607</ele>
<time>2017-04-18T17:46:04.996Z</time>
</trkpt>
<trkpt lat="31.9351680" lon="34.9774940">
<ele>181.569366</ele>
<time>2017-04-18T17:46:08.003Z</time>
</trkpt>
<trkpt lat="31.9351580" lon="34.9776240">
<ele>181.874161</ele>
<time>2017-04-18T17:46:11.001Z</time>
</trkpt>
<trkpt lat="31.9351380" lon="34.9777630">
<ele>181.752243</ele>
<time>2017-04-18T17:46:13.999Z</time>
</trkpt>
<trkpt lat="31.9351170" lon="34.9779000">
<ele>182.544724</ele>
<time>2017-04-18T17:46:16.997Z</time>
</trkpt>
<trkpt lat="31.9350980" lon="34.9780400">
<ele>182.727600</ele>
<time>2017-04-18T17:46:20.004Z</time>
</trkpt>
<trkpt lat="31.9350760" lon="34.9781770">
<ele>182.148468</ele>
<time>2017-04-18T17:46:23.002Z</time>
</trkpt>
<trkpt lat="31.9350500" lon="34.9783010">
<ele>183.581039</ele>
<time>2017-04-18T17:46:26.000Z</time>
</trkpt>
<trkpt lat="31.9350200" lon="34.9784280">
<ele>183.306732</ele>
<time>2017-04-18T17:46:28.998Z</time>
</trkpt>
<trkpt lat="31.9349900" lon="34.9785510">
<ele>183.215271</ele>
<time>2017-04-18T17:46:31.996Z</time>
</trkpt>
<trkpt lat="31.9349540" lon="34.9786720">
<ele>183.885834</ele>
<time>2017-04-18T17:46:35.003Z</time>
</trkpt>
<trkpt lat="31.9349100" lon="34.9787900">
<ele>183.824875</ele>
<time>2017-04-18T17:46:38.001Z</time>
</trkpt>
<trkpt lat="31.9348560" lon="34.9789020">
<ele>184.434479</ele>
<time>2017-04-18T17:46:40.999Z</time>
</trkpt>
<trkpt lat="31.9348040" lon="34.9790080">
<ele>184.647842</ele>
<time>2017-04-18T17:46:43.997Z</time>
</trkpt>
<trkpt lat="31.9347520" lon="34.9791030">
<ele>185.166000</ele>
<time>2017-04-18T17:46:47.004Z</time>
</trkpt>
<trkpt lat="31.9346970" lon="34.9792120">
<ele>186.811920</ele>
<time>2017-04-18T17:46:51.004Z</time>
</trkpt>
<trkpt lat="31.9346330" lon="34.9793070">
<ele>187.512970</ele>
<time>2017-04-18T17:46:55.998Z</time>
</trkpt>
<trkpt lat="31.9345740" lon="34.9793950">
<ele>188.427368</ele>
<time>2017-04-18T17:47:01.000Z</time>
</trkpt>
<trkpt lat="31.9345470" lon="34.9795190">
<ele>189.646561</ele>
<time>2017-04-18T17:47:06.996Z</time>
</trkpt>
<trkpt lat="31.9345800" lon="34.9796410">
<ele>189.677032</ele>
<time>2017-04-18T17:47:11.999Z</time>
</trkpt>
<trkpt lat="31.9346220" lon="34.9797470">
<ele>189.768478</ele>
<time>2017-04-18T17:47:15.999Z</time>
</trkpt>
<trkpt lat="31.9346680" lon="34.9798810">
<ele>189.097931</ele>
<time>2017-04-18T17:47:20.000Z</time>
</trkpt>
<trkpt lat="31.9346940" lon="34.9800110">
<ele>189.280807</ele>
<time>2017-04-18T17:47:22.998Z</time>
</trkpt>
<trkpt lat="31.9347030" lon="34.9801420">
<ele>189.494171</ele>
<time>2017-04-18T17:47:25.996Z</time>
</trkpt>
<trkpt lat="31.9347040" lon="34.9802590">
<ele>188.793121</ele>
<time>2017-04-18T17:47:29.003Z</time>
</trkpt>
<trkpt lat="31.9346770" lon="34.9803750">
<ele>188.488327</ele>
<time>2017-04-18T17:47:32.001Z</time>
</trkpt>
<trkpt lat="31.9346510" lon="34.9805010">
<ele>188.274963</ele>
<time>2017-04-18T17:47:34.999Z</time>
</trkpt>
<trkpt lat="31.9346340" lon="34.9806330">
<ele>187.086243</ele>
<time>2017-04-18T17:47:37.997Z</time>
</trkpt>
<trkpt lat="31.9346110" lon="34.9807770">
<ele>186.964325</ele>
<time>2017-04-18T17:47:41.004Z</time>
</trkpt>
<trkpt lat="31.9345800" lon="34.9809240">
<ele>185.927994</ele>
<time>2017-04-18T17:47:44.002Z</time>
</trkpt>
<trkpt lat="31.9345410" lon="34.9810620">
<ele>185.501266</ele>
<time>2017-04-18T17:47:47.000Z</time>
</trkpt>
<trkpt lat="31.9344980" lon="34.9811900">
<ele>184.312561</ele>
<time>2017-04-18T17:47:49.998Z</time>
</trkpt>
<trkpt lat="31.9344620" lon="34.9813240">
<ele>183.794403</ele>
<time>2017-04-18T17:47:52.996Z</time>
</trkpt>
<trkpt lat="31.9344410" lon="34.9814490">
<ele>182.331360</ele>
<time>2017-04-18T17:47:56.003Z</time>
</trkpt>
<trkpt lat="31.9344310" lon="34.9815560">
<ele>181.112167</ele>
<time>2017-04-18T17:47:59.001Z</time>
</trkpt>
<trkpt lat="31.9344160" lon="34.9816920">
<ele>179.222397</ele>
<time>2017-04-18T17:48:03.001Z</time>
</trkpt>
<trkpt lat="31.9344310" lon="34.9818200">
<ele>177.911758</ele>
<time>2017-04-18T17:48:07.001Z</time>
</trkpt>
<trkpt lat="31.9345190" lon="34.9818600">
<ele>176.966873</ele>
<time>2017-04-18T17:48:11.002Z</time>
</trkpt>
<trkpt lat="31.9346330" lon="34.9818450">
<ele>175.107605</ele>
<time>2017-04-18T17:48:14.000Z</time>
</trkpt>
<trkpt lat="31.9347260" lon="34.9818160">
<ele>174.284637</ele>
<time>2017-04-18T17:48:16.004Z</time>
</trkpt>
<trkpt lat="31.9348270" lon="34.9817860">
<ele>173.553131</ele>
<time>2017-04-18T17:48:18.000Z</time>
</trkpt>
<trkpt lat="31.9349410" lon="34.9817600">
<ele>172.364395</ele>
<time>2017-04-18T17:48:19.996Z</time>
</trkpt>
<trkpt lat="31.9350690" lon="34.9817280">
<ele>170.748962</ele>
<time>2017-04-18T17:48:22.000Z</time>
</trkpt>
<trkpt lat="31.9352040" lon="34.9816950">
<ele>169.865036</ele>
<time>2017-04-18T17:48:23.996Z</time>
</trkpt>
<trkpt lat="31.9353380" lon="34.9816490">
<ele>169.194473</ele>
<time>2017-04-18T17:48:26.001Z</time>
</trkpt>
<trkpt lat="31.9354680" lon="34.9815820">
<ele>168.462967</ele>
<time>2017-04-18T17:48:27.996Z</time>
</trkpt>
<trkpt lat="31.9355790" lon="34.9814820">
<ele>167.822876</ele>
<time>2017-04-18T17:48:30.001Z</time>
</trkpt>
<trkpt lat="31.9356760" lon="34.9813580">
<ele>166.298874</ele>
<time>2017-04-18T17:48:31.997Z</time>
</trkpt>
<trkpt lat="31.9357640" lon="34.9812220">
<ele>166.176956</ele>
<time>2017-04-18T17:48:34.001Z</time>
</trkpt>
<trkpt lat="31.9358390" lon="34.9810770">
<ele>165.140640</ele>
<time>2017-04-18T17:48:35.997Z</time>
</trkpt>
<trkpt lat="31.9358980" lon="34.9809490">
<ele>164.683441</ele>
<time>2017-04-18T17:48:38.002Z</time>
</trkpt>
<trkpt lat="31.9359560" lon="34.9808650">
<ele>163.951935</ele>
<time>2017-04-18T17:48:39.997Z</time>
</trkpt>
<trkpt lat="31.9360490" lon="34.9808620">
<ele>163.830002</ele>
<time>2017-04-18T17:48:43.004Z</time>
</trkpt>
<trkpt lat="31.9361500" lon="34.9808540">
<ele>162.946075</ele>
<time>2017-04-18T17:48:46.002Z</time>
</trkpt>
<trkpt lat="31.9362250" lon="34.9807930">
<ele>163.128967</ele>
<time>2017-04-18T17:48:49.000Z</time>
</trkpt>
<trkpt lat="31.9362990" lon="34.9807130">
<ele>163.372803</ele>
<time>2017-04-18T17:48:51.998Z</time>
</trkpt>
<trkpt lat="31.9363970" lon="34.9806460">
<ele>162.976563</ele>
<time>2017-04-18T17:48:54.996Z</time>
</trkpt>
<trkpt lat="31.9365060" lon="34.9806070">
<ele>163.890961</ele>
<time>2017-04-18T17:48:58.003Z</time>
</trkpt>
<trkpt lat="31.9366050" lon="34.9805940">
<ele>164.713928</ele>
<time>2017-04-18T17:49:01.001Z</time>
</trkpt>
<trkpt lat="31.9367010" lon="34.9806310">
<ele>165.232071</ele>
<time>2017-04-18T17:49:05.002Z</time>
</trkpt>
<trkpt lat="31.9367370" lon="34.9807290">
<ele>166.024567</ele>
<time>2017-04-18T17:49:09.002Z</time>
</trkpt>
<trkpt lat="31.9367180" lon="34.9808400">
<ele>166.999924</ele>
<time>2017-04-18T17:49:13.002Z</time>
</trkpt>
<trkpt lat="31.9367100" lon="34.9809420">
<ele>168.188629</ele>
<time>2017-04-18T17:49:18.998Z</time>
</trkpt>
<trkpt lat="31.9367930" lon="34.9809520">
<ele>168.280075</ele>
<time>2017-04-18T17:49:25.003Z</time>
</trkpt>
<trkpt lat="31.9368930" lon="34.9809130">
<ele>167.883835</ele>
<time>2017-04-18T17:49:30.999Z</time>
</trkpt>
<trkpt lat="31.9369860" lon="34.9808810">
<ele>168.188629</ele>
<time>2017-04-18T17:49:35.000Z</time>
</trkpt>
<trkpt lat="31.9370690" lon="34.9807930">
<ele>168.127670</ele>
<time>2017-04-18T17:49:39.000Z</time>
</trkpt>
<trkpt lat="31.9371380" lon="34.9806720">
<ele>167.822876</ele>
<time>2017-04-18T17:49:43.000Z</time>
</trkpt>
<trkpt lat="31.9371960" lon="34.9805690">
<ele>166.908478</ele>
<time>2017-04-18T17:49:45.998Z</time>
</trkpt>
<trkpt lat="31.9372600" lon="34.9804530">
<ele>167.457123</ele>
<time>2017-04-18T17:49:49.999Z</time>
</trkpt>
<trkpt lat="31.9373170" lon="34.9803810">
<ele>167.853363</ele>
<time>2017-04-18T17:49:56.997Z</time>
</trkpt>
<trkpt lat="31.9373150" lon="34.9803380">
<ele>167.274231</ele>
<time>2017-04-18T17:51:35.001Z</time>
</trkpt>
<trkpt lat="31.9372860" lon="34.9802000">
<ele>167.243759</ele>
<time>2017-04-18T17:51:37.999Z</time>
</trkpt>
<trkpt lat="31.9372690" lon="34.9800380">
<ele>166.451279</ele>
<time>2017-04-18T17:51:40.997Z</time>
</trkpt>
<trkpt lat="31.9372490" lon="34.9799090">
<ele>164.896805</ele>
<time>2017-04-18T17:51:43.001Z</time>
</trkpt>
<trkpt lat="31.9372280" lon="34.9797690">
<ele>164.591995</ele>
<time>2017-04-18T17:51:44.997Z</time>
</trkpt>
<trkpt lat="31.9372080" lon="34.9796230">
<ele>163.738571</ele>
<time>2017-04-18T17:51:47.002Z</time>
</trkpt>
<trkpt lat="31.9371720" lon="34.9794830">
<ele>163.616638</ele>
<time>2017-04-18T17:51:48.997Z</time>
</trkpt>
<trkpt lat="31.9371350" lon="34.9793700">
<ele>163.342331</ele>
<time>2017-04-18T17:51:51.002Z</time>
</trkpt>
<trkpt lat="31.9370840" lon="34.9792310">
<ele>161.848801</ele>
<time>2017-04-18T17:51:54.000Z</time>
</trkpt>
<trkpt lat="31.9370730" lon="34.9791240">
<ele>161.422073</ele>
<time>2017-04-18T17:51:55.996Z</time>
</trkpt>
<trkpt lat="31.9370740" lon="34.9790050">
<ele>160.934402</ele>
<time>2017-04-18T17:51:58.000Z</time>
</trkpt>
<trkpt lat="31.9370760" lon="34.9788800">
<ele>160.263840</ele>
<time>2017-04-18T17:51:59.996Z</time>
</trkpt>
<trkpt lat="31.9370750" lon="34.9787530">
<ele>159.715195</ele>
<time>2017-04-18T17:52:02.001Z</time>
</trkpt>
<trkpt lat="31.9370860" lon="34.9786200">
<ele>159.654236</ele>
<time>2017-04-18T17:52:03.996Z</time>
</trkpt>
<trkpt lat="31.9371100" lon="34.9784860">
<ele>159.197037</ele>
<time>2017-04-18T17:52:06.001Z</time>
</trkpt>
<trkpt lat="31.9371230" lon="34.9783530">
<ele>159.318970</ele>
<time>2017-04-18T17:52:07.997Z</time>
</trkpt>
<trkpt lat="31.9371350" lon="34.9782200">
<ele>159.166565</ele>
<time>2017-04-18T17:52:10.001Z</time>
</trkpt>
<trkpt lat="31.9371420" lon="34.9780840">
<ele>158.739838</ele>
<time>2017-04-18T17:52:11.997Z</time>
</trkpt>
<trkpt lat="31.9371490" lon="34.9779510">
<ele>159.014160</ele>
<time>2017-04-18T17:52:14.002Z</time>
</trkpt>
<trkpt lat="31.9371760" lon="34.9778190">
<ele>158.374069</ele>
<time>2017-04-18T17:52:15.997Z</time>
</trkpt>
<trkpt lat="31.9371950" lon="34.9776900">
<ele>158.069275</ele>
<time>2017-04-18T17:52:18.002Z</time>
</trkpt>
<trkpt lat="31.9371770" lon="34.9775800">
<ele>157.764465</ele>
<time>2017-04-18T17:52:19.998Z</time>
</trkpt>
<trkpt lat="31.9371200" lon="34.9774910">
<ele>156.636734</ele>
<time>2017-04-18T17:52:22.002Z</time>
</trkpt>
<trkpt lat="31.9370540" lon="34.9774000">
<ele>156.270966</ele>
<time>2017-04-18T17:52:23.998Z</time>
</trkpt>
<trkpt lat="31.9369840" lon="34.9773180">
<ele>156.118561</ele>
<time>2017-04-18T17:52:26.003Z</time>
</trkpt>
<trkpt lat="31.9368840" lon="34.9772380">
<ele>154.929840</ele>
<time>2017-04-18T17:52:29.001Z</time>
</trkpt>
<trkpt lat="31.9368210" lon="34.9771190">
<ele>154.076401</ele>
<time>2017-04-18T17:52:31.999Z</time>
</trkpt>
<trkpt lat="31.9368100" lon="34.9769620">
<ele>153.771606</ele>
<time>2017-04-18T17:52:34.997Z</time>
</trkpt>
<trkpt lat="31.9368060" lon="34.9768510">
<ele>153.466797</ele>
<time>2017-04-18T17:52:37.001Z</time>
</trkpt>
<trkpt lat="31.9367930" lon="34.9767410">
<ele>153.253433</ele>
<time>2017-04-18T17:52:38.997Z</time>
</trkpt>
<trkpt lat="31.9367760" lon="34.9766250">
<ele>152.278076</ele>
<time>2017-04-18T17:52:41.002Z</time>
</trkpt>
<trkpt lat="31.9367760" lon="34.9764990">
<ele>151.759918</ele>
<time>2017-04-18T17:52:42.997Z</time>
</trkpt>
<trkpt lat="31.9367800" lon="34.9763760">
<ele>151.912323</ele>
<time>2017-04-18T17:52:45.002Z</time>
</trkpt>
<trkpt lat="31.9368000" lon="34.9762570">
<ele>151.485596</ele>
<time>2017-04-18T17:52:46.998Z</time>
</trkpt>
<trkpt lat="31.9368360" lon="34.9761450">
<ele>150.815033</ele>
<time>2017-04-18T17:52:49.002Z</time>
</trkpt>
<trkpt lat="31.9368760" lon="34.9760380">
<ele>151.455124</ele>
<time>2017-04-18T17:52:50.998Z</time>
</trkpt>
<trkpt lat="31.9369180" lon="34.9759300">
<ele>151.241760</ele>
<time>2017-04-18T17:52:53.003Z</time>
</trkpt>
<trkpt lat="31.9369620" lon="34.9758210">
<ele>151.546570</ele>
<time>2017-04-18T17:52:54.998Z</time>
</trkpt>
<trkpt lat="31.9370170" lon="34.9757250">
<ele>151.973282</ele>
<time>2017-04-18T17:52:57.003Z</time>
</trkpt>
<trkpt lat="31.9370930" lon="34.9756550">
<ele>152.491440</ele>
<time>2017-04-18T17:52:58.999Z</time>
</trkpt>
<trkpt lat="31.9371750" lon="34.9756170">
<ele>152.948639</ele>
<time>2017-04-18T17:53:01.003Z</time>
</trkpt>
<trkpt lat="31.9372910" lon="34.9756280">
<ele>153.741119</ele>
<time>2017-04-18T17:53:04.001Z</time>
</trkpt>
<trkpt lat="31.9373890" lon="34.9756520">
<ele>154.106888</ele>
<time>2017-04-18T17:53:06.999Z</time>
</trkpt>
<trkpt lat="31.9375000" lon="34.9756530">
<ele>155.326080</ele>
<time>2017-04-18T17:53:11.000Z</time>
</trkpt>
<trkpt lat="31.9375830" lon="34.9756200">
<ele>155.478485</ele>
<time>2017-04-18T17:53:13.998Z</time>
</trkpt>
<trkpt lat="31.9376840" lon="34.9755470">
<ele>155.539429</ele>
<time>2017-04-18T17:53:17.998Z</time>
</trkpt>
<trkpt lat="31.9377540" lon="34.9754440">
<ele>156.210007</ele>
<time>2017-04-18T17:53:21.998Z</time>
</trkpt>
<trkpt lat="31.9377870" lon="34.9753250">
<ele>156.575760</ele>
<time>2017-04-18T17:53:25.999Z</time>
</trkpt>
<trkpt lat="31.9378080" lon="34.9751940">
<ele>157.215836</ele>
<time>2017-04-18T17:53:29.999Z</time>
</trkpt>
<trkpt lat="31.9378440" lon="34.9750660">
<ele>157.764465</ele>
<time>2017-04-18T17:53:33.999Z</time>
</trkpt>
<trkpt lat="31.9378990" lon="34.9749760">
<ele>157.703522</ele>
<time>2017-04-18T17:53:36.997Z</time>
</trkpt>
<trkpt lat="31.9379690" lon="34.9748980">
<ele>157.794968</ele>
<time>2017-04-18T17:53:40.004Z</time>
</trkpt>
<trkpt lat="31.9380480" lon="34.9748250">
<ele>157.551132</ele>
<time>2017-04-18T17:53:43.002Z</time>
</trkpt>
<trkpt lat="31.9381300" lon="34.9747370">
<ele>157.307266</ele>
<time>2017-04-18T17:53:46.000Z</time>
</trkpt>
<trkpt lat="31.9382160" lon="34.9746360">
<ele>156.911041</ele>
<time>2017-04-18T17:53:48.998Z</time>
</trkpt>
<trkpt lat="31.9383050" lon="34.9745070">
<ele>156.514801</ele>
<time>2017-04-18T17:53:51.996Z</time>
</trkpt>
<trkpt lat="31.9383710" lon="34.9744050">
<ele>155.295593</ele>
<time>2017-04-18T17:53:54.001Z</time>
</trkpt>
<trkpt lat="31.9384440" lon="34.9742950">
<ele>154.228806</ele>
<time>2017-04-18T17:53:55.997Z</time>
</trkpt>
<trkpt lat="31.9385240" lon="34.9741730">
<ele>153.923996</ele>
<time>2017-04-18T17:53:58.001Z</time>
</trkpt>
<trkpt lat="31.9386120" lon="34.9740400">
<ele>153.344879</ele>
<time>2017-04-18T17:53:59.997Z</time>
</trkpt>
<trkpt lat="31.9387090" lon="34.9739100">
<ele>151.942795</ele>
<time>2017-04-18T17:54:02.002Z</time>
</trkpt>
<trkpt lat="31.9388080" lon="34.9737990">
<ele>151.089371</ele>
<time>2017-04-18T17:54:03.997Z</time>
</trkpt>
<trkpt lat="31.9389040" lon="34.9737090">
<ele>149.778717</ele>
<time>2017-04-18T17:54:06.002Z</time>
</trkpt>
<trkpt lat="31.9389770" lon="34.9736420">
<ele>149.809204</ele>
<time>2017-04-18T17:54:07.998Z</time>
</trkpt>
<trkpt lat="31.9390650" lon="34.9735590">
<ele>149.778717</ele>
<time>2017-04-18T17:54:10.996Z</time>
</trkpt>
<trkpt lat="31.9391430" lon="34.9735240">
<ele>148.315689</ele>
<time>2017-04-18T17:54:15.998Z</time>
</trkpt>
<trkpt lat="31.9392420" lon="34.9735040">
<ele>148.010880</ele>
<time>2017-04-18T17:54:19.999Z</time>
</trkpt>
<trkpt lat="31.9393430" lon="34.9735050">
<ele>148.864319</ele>
<time>2017-04-18T17:54:22.997Z</time>
</trkpt>
<trkpt lat="31.9394150" lon="34.9734580">
<ele>144.292313</ele>
<time>2017-04-18T18:04:47.004Z</time>
</trkpt>
<trkpt lat="31.9393780" lon="34.9734030">
<ele>149.473923</ele>
<time>2017-04-18T18:05:56.996Z</time>
</trkpt>
<trkpt lat="31.9393340" lon="34.9732720">
<ele>148.559525</ele>
<time>2017-04-18T18:06:00.003Z</time>
</trkpt>
<trkpt lat="31.9393080" lon="34.9731590">
<ele>147.614639</ele>
<time>2017-04-18T18:06:01.999Z</time>
</trkpt>
<trkpt lat="31.9392860" lon="34.9730350">
<ele>147.492722</ele>
<time>2017-04-18T18:06:04.003Z</time>
</trkpt>
<trkpt lat="31.9392750" lon="34.9728990">
<ele>146.212570</ele>
<time>2017-04-18T18:06:05.999Z</time>
</trkpt>
<trkpt lat="31.9392960" lon="34.9727650">
<ele>146.090637</ele>
<time>2017-04-18T18:06:08.004Z</time>
</trkpt>
<trkpt lat="31.9393390" lon="34.9726420">
<ele>146.090637</ele>
<time>2017-04-18T18:06:09.999Z</time>
</trkpt>
<trkpt lat="31.9393900" lon="34.9725170">
<ele>146.121124</ele>
<time>2017-04-18T18:06:12.004Z</time>
</trkpt>
<trkpt lat="31.9394340" lon="34.9723910">
<ele>145.359116</ele>
<time>2017-04-18T18:06:14.000Z</time>
</trkpt>
<trkpt lat="31.9394640" lon="34.9722530">
<ele>144.749512</ele>
<time>2017-04-18T18:06:16.004Z</time>
</trkpt>
<trkpt lat="31.9394880" lon="34.9721070">
<ele>144.536163</ele>
<time>2017-04-18T18:06:18.000Z</time>
</trkpt>
<trkpt lat="31.9394990" lon="34.9719670">
<ele>144.658081</ele>
<time>2017-04-18T18:06:19.996Z</time>
</trkpt>
<trkpt lat="31.9394970" lon="34.9718360">
<ele>144.932404</ele>
<time>2017-04-18T18:06:22.000Z</time>
</trkpt>
<trkpt lat="31.9394820" lon="34.9717100">
<ele>144.566635</ele>
<time>2017-04-18T18:06:23.996Z</time>
</trkpt>
<trkpt lat="31.9394600" lon="34.9715840">
<ele>144.840958</ele>
<time>2017-04-18T18:06:26.001Z</time>
</trkpt>
<trkpt lat="31.9394360" lon="34.9714580">
<ele>144.688568</ele>
<time>2017-04-18T18:06:27.996Z</time>
</trkpt>
<trkpt lat="31.9394090" lon="34.9713390">
<ele>144.719040</ele>
<time>2017-04-18T18:06:30.001Z</time>
</trkpt>
<trkpt lat="31.9393800" lon="34.9712290">
<ele>144.597122</ele>
<time>2017-04-18T18:06:31.997Z</time>
</trkpt>
<trkpt lat="31.9393370" lon="34.9711240">
<ele>144.475204</ele>
<time>2017-04-18T18:06:34.001Z</time>
</trkpt>
<trkpt lat="31.9392850" lon="34.9710110">
<ele>143.743683</ele>
<time>2017-04-18T18:06:35.997Z</time>
</trkpt>
<trkpt lat="31.9392250" lon="34.9708790">
<ele>142.524475</ele>
<time>2017-04-18T18:06:38.002Z</time>
</trkpt>
<trkpt lat="31.9391780" lon="34.9707170">
<ele>141.488159</ele>
<time>2017-04-18T18:06:39.997Z</time>
</trkpt>
<trkpt lat="31.9391560" lon="34.9705410">
<ele>140.939514</ele>
<time>2017-04-18T18:06:42.002Z</time>
</trkpt>
<trkpt lat="31.9391390" lon="34.9703660">
<ele>139.964157</ele>
<time>2017-04-18T18:06:43.998Z</time>
</trkpt>
<trkpt lat="31.9391380" lon="34.9701940">
<ele>139.933685</ele>
<time>2017-04-18T18:06:46.002Z</time>
</trkpt>
<trkpt lat="31.9391470" lon="34.9700250">
<ele>139.811768</ele>
<time>2017-04-18T18:06:47.998Z</time>
</trkpt>
<trkpt lat="31.9391580" lon="34.9698610">
<ele>139.628876</ele>
<time>2017-04-18T18:06:50.003Z</time>
</trkpt>
<trkpt lat="31.9391600" lon="34.9696970">
<ele>138.927841</ele>
<time>2017-04-18T18:06:51.998Z</time>
</trkpt>
<trkpt lat="31.9391560" lon="34.9695350">
<ele>138.592560</ele>
<time>2017-04-18T18:06:54.003Z</time>
</trkpt>
<trkpt lat="31.9391500" lon="34.9693850">
<ele>138.623032</ele>
<time>2017-04-18T18:06:55.999Z</time>
</trkpt>
<trkpt lat="31.9391430" lon="34.9692370">
<ele>138.318237</ele>
<time>2017-04-18T18:06:58.003Z</time>
</trkpt>
<trkpt lat="31.9391330" lon="34.9690940">
<ele>138.440170</ele>
<time>2017-04-18T18:06:59.999Z</time>
</trkpt>
<trkpt lat="31.9391240" lon="34.9689560">
<ele>138.104889</ele>
<time>2017-04-18T18:07:02.004Z</time>
</trkpt>
<trkpt lat="31.9391120" lon="34.9688210">
<ele>137.708633</ele>
<time>2017-04-18T18:07:03.999Z</time>
</trkpt>
<trkpt lat="31.9391050" lon="34.9686850">
<ele>137.800079</ele>
<time>2017-04-18T18:07:06.004Z</time>
</trkpt>
<trkpt lat="31.9391030" lon="34.9685470">
<ele>137.556244</ele>
<time>2017-04-18T18:07:08.000Z</time>
</trkpt>
<trkpt lat="31.9391020" lon="34.9684110">
<ele>137.373367</ele>
<time>2017-04-18T18:07:10.004Z</time>
</trkpt>
<trkpt lat="31.9391040" lon="34.9682750">
<ele>137.403839</ele>
<time>2017-04-18T18:07:12.000Z</time>
</trkpt>
<trkpt lat="31.9391190" lon="34.9681480">
<ele>136.702805</ele>
<time>2017-04-18T18:07:13.996Z</time>
</trkpt>
<trkpt lat="31.9391850" lon="34.9680450">
<ele>137.190475</ele>
<time>2017-04-18T18:07:16.000Z</time>
</trkpt>
<trkpt lat="31.9392730" lon="34.9680150">
<ele>137.800079</ele>
<time>2017-04-18T18:07:17.996Z</time>
</trkpt>
<trkpt lat="31.9393700" lon="34.9680220">
<ele>138.501114</ele>
<time>2017-04-18T18:07:21.003Z</time>
</trkpt>
<trkpt lat="31.9394850" lon="34.9680380">
<ele>139.598404</ele>
<time>2017-04-18T18:07:25.003Z</time>
</trkpt>
<trkpt lat="31.9395900" lon="34.9680530">
<ele>140.848083</ele>
<time>2017-04-18T18:07:29.004Z</time>
</trkpt>
<trkpt lat="31.9397020" lon="34.9680780">
<ele>141.914886</ele>
<time>2017-04-18T18:07:33.004Z</time>
</trkpt>
<trkpt lat="31.9398120" lon="34.9680990">
<ele>142.615921</ele>
<time>2017-04-18T18:07:37.004Z</time>
</trkpt>
<trkpt lat="31.9399250" lon="34.9680970">
<ele>144.170395</ele>
<time>2017-04-18T18:07:41.998Z</time>
</trkpt>
<trkpt lat="31.9400170" lon="34.9680880">
<ele>145.023834</ele>
<time>2017-04-18T18:07:45.998Z</time>
</trkpt>
<trkpt lat="31.9401120" lon="34.9680870">
<ele>145.481033</ele>
<time>2017-04-18T18:07:49.999Z</time>
</trkpt>
<trkpt lat="31.9402070" lon="34.9680790">
<ele>145.938232</ele>
<time>2017-04-18T18:07:53.999Z</time>
</trkpt>
<trkpt lat="31.9403060" lon="34.9680730">
<ele>147.126968</ele>
<time>2017-04-18T18:07:57.999Z</time>
</trkpt>
<trkpt lat="31.9404030" lon="34.9680750">
<ele>147.065994</ele>
<time>2017-04-18T18:08:02.000Z</time>
</trkpt>
<trkpt lat="31.9405190" lon="34.9680880">
<ele>148.132797</ele>
<time>2017-04-18T18:08:07.002Z</time>
</trkpt>
<trkpt lat="31.9406230" lon="34.9681140">
<ele>149.504395</ele>
<time>2017-04-18T18:08:11.996Z</time>
</trkpt>
<trkpt lat="31.9407350" lon="34.9681340">
<ele>149.931122</ele>
<time>2017-04-18T18:08:16.999Z</time>
</trkpt>
<trkpt lat="31.9408340" lon="34.9681650">
<ele>151.180801</ele>
<time>2017-04-18T18:08:22.001Z</time>
</trkpt>
<trkpt lat="31.9409340" lon="34.9681940">
<ele>152.095200</ele>
<time>2017-04-18T18:08:27.997Z</time>
</trkpt>
<trkpt lat="31.9410350" lon="34.9682280">
<ele>152.491440</ele>
<time>2017-04-18T18:08:34.002Z</time>
</trkpt>
<trkpt lat="31.9411340" lon="34.9682780">
<ele>153.344879</ele>
<time>2017-04-18T18:08:39.998Z</time>
</trkpt>
<trkpt lat="31.9412140" lon="34.9683560">
<ele>154.442169</ele>
<time>2017-04-18T18:08:46.003Z</time>
</trkpt>
<trkpt lat="31.9412800" lon="34.9684280">
<ele>155.508957</ele>
<time>2017-04-18T18:08:50.997Z</time>
</trkpt>
<trkpt lat="31.9413560" lon="34.9685090">
<ele>156.423370</ele>
<time>2017-04-18T18:08:57.002Z</time>
</trkpt>
<trkpt lat="31.9414540" lon="34.9685570">
<ele>157.459671</ele>
<time>2017-04-18T18:09:02.998Z</time>
</trkpt>
<trkpt lat="31.9415480" lon="34.9686010">
<ele>157.612076</ele>
<time>2017-04-18T18:09:08.001Z</time>
</trkpt>
<trkpt lat="31.9416340" lon="34.9686410">
<ele>159.014160</ele>
<time>2017-04-18T18:09:13.003Z</time>
</trkpt>
<trkpt lat="31.9417370" lon="34.9686760">
<ele>159.562805</ele>
<time>2017-04-18T18:09:18.999Z</time>
</trkpt>
<trkpt lat="31.9418390" lon="34.9687150">
<ele>161.483032</ele>
<time>2017-04-18T18:09:25.004Z</time>
</trkpt>
<trkpt lat="31.9419370" lon="34.9687620">
<ele>163.403275</ele>
<time>2017-04-18T18:09:31.000Z</time>
</trkpt>
<trkpt lat="31.9420450" lon="34.9687780">
<ele>164.622467</ele>
<time>2017-04-18T18:09:36.996Z</time>
</trkpt>
<trkpt lat="31.9421440" lon="34.9687320">
<ele>165.597839</ele>
<time>2017-04-18T18:09:43.001Z</time>
</trkpt>
<trkpt lat="31.9422180" lon="34.9686410">
<ele>165.110168</ele>
<time>2017-04-18T18:09:48.004Z</time>
</trkpt>
<trkpt lat="31.9422760" lon="34.9685280">
<ele>166.329361</ele>
<time>2017-04-18T18:09:52.998Z</time>
</trkpt>
<trkpt lat="31.9423430" lon="34.9684550">
<ele>166.725601</ele>
<time>2017-04-18T18:09:56.998Z</time>
</trkpt>
<trkpt lat="31.9424190" lon="34.9683870">
<ele>168.127670</ele>
<time>2017-04-18T18:10:02.001Z</time>
</trkpt>
<trkpt lat="31.9425120" lon="34.9683640">
<ele>168.859207</ele>
<time>2017-04-18T18:10:07.997Z</time>
</trkpt>
<trkpt lat="31.9426040" lon="34.9683820">
<ele>169.986969</ele>
<time>2017-04-18T18:10:12.999Z</time>
</trkpt>
<trkpt lat="31.9427100" lon="34.9684250">
<ele>170.870880</ele>
<time>2017-04-18T18:10:19.004Z</time>
</trkpt>
<trkpt lat="31.9427970" lon="34.9684790">
<ele>171.175674</ele>
<time>2017-04-18T18:10:23.998Z</time>
</trkpt>
<trkpt lat="31.9428950" lon="34.9685390">
<ele>171.084244</ele>
<time>2017-04-18T18:10:29.001Z</time>
</trkpt>
<trkpt lat="31.9430020" lon="34.9685730">
<ele>171.053757</ele>
<time>2017-04-18T18:10:34.003Z</time>
</trkpt>
<trkpt lat="31.9431030" lon="34.9685650">
<ele>171.053757</ele>
<time>2017-04-18T18:10:38.004Z</time>
</trkpt>
<trkpt lat="31.9431990" lon="34.9685380">
<ele>170.474640</ele>
<time>2017-04-18T18:10:41.002Z</time>
</trkpt>
<trkpt lat="31.9433040" lon="34.9684990">
<ele>170.200333</ele>
<time>2017-04-18T18:10:45.002Z</time>
</trkpt>
<trkpt lat="31.9434120" lon="34.9684700">
<ele>169.316406</ele>
<time>2017-04-18T18:10:49.002Z</time>
</trkpt>
<trkpt lat="31.9435300" lon="34.9684370">
<ele>167.822876</ele>
<time>2017-04-18T18:10:52.000Z</time>
</trkpt>
<trkpt lat="31.9436320" lon="34.9684090">
<ele>166.969437</ele>
<time>2017-04-18T18:10:53.996Z</time>
</trkpt>
<trkpt lat="31.9437410" lon="34.9683630">
<ele>166.390320</ele>
<time>2017-04-18T18:10:56.001Z</time>
</trkpt>
<trkpt lat="31.9438360" lon="34.9682790">
<ele>165.536865</ele>
<time>2017-04-18T18:10:57.996Z</time>
</trkpt>
<trkpt lat="31.9439120" lon="34.9681660">
<ele>165.323532</ele>
<time>2017-04-18T18:11:00.001Z</time>
</trkpt>
<trkpt lat="31.9439840" lon="34.9680410">
<ele>164.531036</ele>
<time>2017-04-18T18:11:01.997Z</time>
</trkpt>
<trkpt lat="31.9440470" lon="34.9679060">
<ele>164.012878</ele>
<time>2017-04-18T18:11:04.001Z</time>
</trkpt>
<trkpt lat="31.9441130" lon="34.9677630">
<ele>163.372803</ele>
<time>2017-04-18T18:11:05.997Z</time>
</trkpt>
<trkpt lat="31.9441820" lon="34.9676140">
<ele>162.275528</ele>
<time>2017-04-18T18:11:08.002Z</time>
</trkpt>
<trkpt lat="31.9442540" lon="34.9674580">
<ele>161.361130</ele>
<time>2017-04-18T18:11:09.997Z</time>
</trkpt>
<trkpt lat="31.9443300" lon="34.9672950">
<ele>160.690567</ele>
<time>2017-04-18T18:11:12.002Z</time>
</trkpt>
<trkpt lat="31.9443980" lon="34.9671220">
<ele>160.020004</ele>
<time>2017-04-18T18:11:13.998Z</time>
</trkpt>
<trkpt lat="31.9444560" lon="34.9669460">
<ele>159.440872</ele>
<time>2017-04-18T18:11:16.002Z</time>
</trkpt>
<trkpt lat="31.9445110" lon="34.9667690">
<ele>158.770325</ele>
<time>2017-04-18T18:11:17.998Z</time>
</trkpt>
<trkpt lat="31.9445620" lon="34.9665900">
<ele>158.313126</ele>
<time>2017-04-18T18:11:20.003Z</time>
</trkpt>
<trkpt lat="31.9446160" lon="34.9664140">
<ele>157.551132</ele>
<time>2017-04-18T18:11:21.998Z</time>
</trkpt>
<trkpt lat="31.9446770" lon="34.9662400">
<ele>156.789124</ele>
<time>2017-04-18T18:11:24.003Z</time>
</trkpt>
<trkpt lat="31.9447450" lon="34.9660650">
<ele>156.453842</ele>
<time>2017-04-18T18:11:25.999Z</time>
</trkpt>
<trkpt lat="31.9448220" lon="34.9658970">
<ele>155.234634</ele>
<time>2017-04-18T18:11:28.003Z</time>
</trkpt>
<trkpt lat="31.9449000" lon="34.9657280">
<ele>154.472641</ele>
<time>2017-04-18T18:11:29.999Z</time>
</trkpt>
<trkpt lat="31.9449790" lon="34.9655540">
<ele>154.137360</ele>
<time>2017-04-18T18:11:32.004Z</time>
</trkpt>
<trkpt lat="31.9450500" lon="34.9653920">
<ele>153.466797</ele>
<time>2017-04-18T18:11:33.999Z</time>
</trkpt>
<trkpt lat="31.9451150" lon="34.9652710">
<ele>153.680161</ele>
<time>2017-04-18T18:11:36.004Z</time>
</trkpt>
<trkpt lat="31.9452070" lon="34.9652020">
<ele>153.466797</ele>
<time>2017-04-18T18:11:39.002Z</time>
</trkpt>
<trkpt lat="31.9452990" lon="34.9652480">
<ele>154.259277</ele>
<time>2017-04-18T18:11:43.002Z</time>
</trkpt>
<trkpt lat="31.9453840" lon="34.9653070">
<ele>154.686005</ele>
<time>2017-04-18T18:11:47.003Z</time>
</trkpt>
<trkpt lat="31.9454660" lon="34.9653630">
<ele>155.326080</ele>
<time>2017-04-18T18:11:51.003Z</time>
</trkpt>
<trkpt lat="31.9455450" lon="34.9654210">
<ele>156.636734</ele>
<time>2017-04-18T18:11:55.003Z</time>
</trkpt>
<trkpt lat="31.9456300" lon="34.9654680">
<ele>156.789124</ele>
<time>2017-04-18T18:11:59.004Z</time>
</trkpt>
<trkpt lat="31.9457250" lon="34.9654990">
<ele>157.551132</ele>
<time>2017-04-18T18:12:03.004Z</time>
</trkpt>
<trkpt lat="31.9458170" lon="34.9654990">
<ele>157.368240</ele>
<time>2017-04-18T18:12:07.004Z</time>
</trkpt>
<trkpt lat="31.9459240" lon="34.9654760">
<ele>158.252167</ele>
<time>2017-04-18T18:12:11.998Z</time>
</trkpt>
<trkpt lat="31.9460190" lon="34.9654250">
<ele>158.526474</ele>
<time>2017-04-18T18:12:17.001Z</time>
</trkpt>
<trkpt lat="31.9460940" lon="34.9653330">
<ele>158.831268</ele>
<time>2017-04-18T18:12:22.003Z</time>
</trkpt>
<trkpt lat="31.9461040" lon="34.9652150">
<ele>159.684723</ele>
<time>2017-04-18T18:12:26.004Z</time>
</trkpt>
<trkpt lat="31.9460950" lon="34.9650940">
<ele>159.867599</ele>
<time>2017-04-18T18:12:30.004Z</time>
</trkpt>
<trkpt lat="31.9460910" lon="34.9649850">
<ele>160.751526</ele>
<time>2017-04-18T18:12:34.004Z</time>
</trkpt>
<trkpt lat="31.9460910" lon="34.9648550">
<ele>161.208725</ele>
<time>2017-04-18T18:12:38.998Z</time>
</trkpt>
<trkpt lat="31.9460890" lon="34.9647440">
<ele>161.604965</ele>
<time>2017-04-18T18:12:42.998Z</time>
</trkpt>
<trkpt lat="31.9460930" lon="34.9646290">
<ele>162.153595</ele>
<time>2017-04-18T18:12:46.999Z</time>
</trkpt>
<trkpt lat="31.9460990" lon="34.9645080">
<ele>163.220398</ele>
<time>2017-04-18T18:12:52.001Z</time>
</trkpt>
<trkpt lat="31.9461040" lon="34.9643700">
<ele>163.830002</ele>
<time>2017-04-18T18:12:57.004Z</time>
</trkpt>
<trkpt lat="31.9461080" lon="34.9642500">
<ele>164.409134</ele>
<time>2017-04-18T18:13:01.004Z</time>
</trkpt>
<trkpt lat="31.9461120" lon="34.9641280">
<ele>164.896805</ele>
<time>2017-04-18T18:13:04.996Z</time>
</trkpt>
<trkpt lat="31.9461160" lon="34.9640100">
<ele>165.354004</ele>
<time>2017-04-18T18:13:08.996Z</time>
</trkpt>
<trkpt lat="31.9461200" lon="34.9638990">
<ele>166.359833</ele>
<time>2017-04-18T18:13:12.996Z</time>
</trkpt>
<trkpt lat="31.9461200" lon="34.9637900">
<ele>166.664642</ele>
<time>2017-04-18T18:13:16.997Z</time>
</trkpt>
<trkpt lat="31.9461150" lon="34.9636830">
<ele>167.304733</ele>
<time>2017-04-18T18:13:20.997Z</time>
</trkpt>
<trkpt lat="31.9461200" lon="34.9635680">
<ele>167.548569</ele>
<time>2017-04-18T18:13:26.000Z</time>
</trkpt>
<trkpt lat="31.9461290" lon="34.9634510">
<ele>168.401993</ele>
<time>2017-04-18T18:13:31.002Z</time>
</trkpt>
<trkpt lat="31.9461310" lon="34.9633390">
<ele>168.889679</ele>
<time>2017-04-18T18:13:35.996Z</time>
</trkpt>
<trkpt lat="31.9461440" lon="34.9632140">
<ele>169.438324</ele>
<time>2017-04-18T18:13:40.999Z</time>
</trkpt>
<trkpt lat="31.9461480" lon="34.9630920">
<ele>170.169830</ele>
<time>2017-04-18T18:13:46.001Z</time>
</trkpt>
<trkpt lat="31.9461550" lon="34.9629590">
<ele>170.657532</ele>
<time>2017-04-18T18:13:51.004Z</time>
</trkpt>
<trkpt lat="31.9461420" lon="34.9628470">
<ele>171.389038</ele>
<time>2017-04-18T18:13:55.004Z</time>
</trkpt>
<trkpt lat="31.9461300" lon="34.9627200">
<ele>171.053757</ele>
<time>2017-04-18T18:13:58.996Z</time>
</trkpt>
<trkpt lat="31.9461220" lon="34.9626000">
<ele>171.724335</ele>
<time>2017-04-18T18:14:02.996Z</time>
</trkpt>
<trkpt lat="31.9461310" lon="34.9624760">
<ele>171.632874</ele>
<time>2017-04-18T18:14:06.996Z</time>
</trkpt>
<trkpt lat="31.9461860" lon="34.9623640">
<ele>171.541443</ele>
<time>2017-04-18T18:14:10.997Z</time>
</trkpt>
<trkpt lat="31.9462970" lon="34.9623230">
<ele>171.968170</ele>
<time>2017-04-18T18:14:14.997Z</time>
</trkpt>
<trkpt lat="31.9464100" lon="34.9623190">
<ele>173.095932</ele>
<time>2017-04-18T18:14:18.997Z</time>
</trkpt>
<trkpt lat="31.9465180" lon="34.9623130">
<ele>173.065430</ele>
<time>2017-04-18T18:14:22.998Z</time>
</trkpt>
<trkpt lat="31.9466250" lon="34.9623000">
<ele>173.248322</ele>
<time>2017-04-18T18:14:26.998Z</time>
</trkpt>
<trkpt lat="31.9467400" lon="34.9622580">
<ele>173.614075</ele>
<time>2017-04-18T18:14:30.998Z</time>
</trkpt>
<trkpt lat="31.9468630" lon="34.9622610">
<ele>173.857925</ele>
<time>2017-04-18T18:14:34.999Z</time>
</trkpt>
<trkpt lat="31.9469750" lon="34.9622460">
<ele>173.095932</ele>
<time>2017-04-18T18:14:38.999Z</time>
</trkpt>
<trkpt lat="31.9469970" lon="34.9621220">
<ele>172.852066</ele>
<time>2017-04-18T18:14:42.999Z</time>
</trkpt>
<trkpt lat="31.9469840" lon="34.9620090">
<ele>172.821594</ele>
<time>2017-04-18T18:14:45.997Z</time>
</trkpt>
<trkpt lat="31.9469800" lon="34.9618730">
<ele>172.303436</ele>
<time>2017-04-18T18:14:49.004Z</time>
</trkpt>
<trkpt lat="31.9469910" lon="34.9617610">
<ele>171.907196</ele>
<time>2017-04-18T18:14:51.000Z</time>
</trkpt>
<trkpt lat="31.9470250" lon="34.9616420">
<ele>171.663361</ele>
<time>2017-04-18T18:14:52.996Z</time>
</trkpt>
<trkpt lat="31.9470730" lon="34.9615240">
<ele>170.566071</ele>
<time>2017-04-18T18:14:55.000Z</time>
</trkpt>
<trkpt lat="31.9471120" lon="34.9614230">
<ele>170.200333</ele>
<time>2017-04-18T18:14:56.996Z</time>
</trkpt>
<trkpt lat="31.9471340" lon="34.9613060">
<ele>168.584869</ele>
<time>2017-04-18T18:14:59.001Z</time>
</trkpt>
<trkpt lat="31.9471500" lon="34.9611450">
<ele>167.487595</ele>
<time>2017-04-18T18:15:01.999Z</time>
</trkpt>
<trkpt lat="31.9471880" lon="34.9610410">
<ele>166.603668</ele>
<time>2017-04-18T18:15:04.003Z</time>
</trkpt>
<trkpt lat="31.9472440" lon="34.9609340">
<ele>165.445435</ele>
<time>2017-04-18T18:15:05.999Z</time>
</trkpt>
<trkpt lat="31.9473180" lon="34.9608470">
<ele>164.256729</ele>
<time>2017-04-18T18:15:08.004Z</time>
</trkpt>
<trkpt lat="31.9473860" lon="34.9607740">
<ele>163.403275</ele>
<time>2017-04-18T18:15:09.999Z</time>
</trkpt>
<trkpt lat="31.9474450" lon="34.9606880">
<ele>161.391602</ele>
<time>2017-04-18T18:15:12.004Z</time>
</trkpt>
<trkpt lat="31.9474840" lon="34.9605860">
<ele>160.020004</ele>
<time>2017-04-18T18:15:14.000Z</time>
</trkpt>
<trkpt lat="31.9474980" lon="34.9604790">
<ele>158.374069</ele>
<time>2017-04-18T18:15:16.004Z</time>
</trkpt>
<trkpt lat="31.9475400" lon="34.9603420">
<ele>155.935684</ele>
<time>2017-04-18T18:15:19.002Z</time>
</trkpt>
<trkpt lat="31.9475880" lon="34.9602180">
<ele>154.777435</ele>
<time>2017-04-18T18:15:20.998Z</time>
</trkpt>
<trkpt lat="31.9476410" lon="34.9601190">
<ele>153.040085</ele>
<time>2017-04-18T18:15:23.003Z</time>
</trkpt>
<trkpt lat="31.9477340" lon="34.9600830">
<ele>152.887680</ele>
<time>2017-04-18T18:15:27.003Z</time>
</trkpt>
<trkpt lat="31.9478210" lon="34.9601260">
<ele>152.948639</ele>
<time>2017-04-18T18:15:30.001Z</time>
</trkpt>
<trkpt lat="31.9479140" lon="34.9601970">
<ele>153.283920</ele>
<time>2017-04-18T18:15:32.999Z</time>
</trkpt>
<trkpt lat="31.9480200" lon="34.9602650">
<ele>153.984970</ele>
<time>2017-04-18T18:15:35.997Z</time>
</trkpt>
<trkpt lat="31.9481180" lon="34.9603170">
<ele>154.289764</ele>
<time>2017-04-18T18:15:39.004Z</time>
</trkpt>
<trkpt lat="31.9482070" lon="34.9604000">
<ele>154.716476</ele>
<time>2017-04-18T18:15:43.004Z</time>
</trkpt>
<trkpt lat="31.9482710" lon="34.9604920">
<ele>155.508957</ele>
<time>2017-04-18T18:15:46.996Z</time>
</trkpt>
<trkpt lat="31.9483690" lon="34.9605440">
<ele>155.905197</ele>
<time>2017-04-18T18:15:50.996Z</time>
</trkpt>
<trkpt lat="31.9484600" lon="34.9605850">
<ele>155.874725</ele>
<time>2017-04-18T18:15:54.003Z</time>
</trkpt>
<trkpt lat="31.9485460" lon="34.9606240">
<ele>155.844238</ele>
<time>2017-04-18T18:15:57.001Z</time>
</trkpt>
<trkpt lat="31.9486350" lon="34.9606610">
<ele>156.636734</ele>
<time>2017-04-18T18:15:59.999Z</time>
</trkpt>
<trkpt lat="31.9487190" lon="34.9607000">
<ele>156.636734</ele>
<time>2017-04-18T18:16:02.997Z</time>
</trkpt>
<trkpt lat="31.9488300" lon="34.9607530">
<ele>156.636734</ele>
<time>2017-04-18T18:16:06.997Z</time>
</trkpt>
<trkpt lat="31.9489470" lon="34.9607850">
<ele>157.733994</ele>
<time>2017-04-18T18:16:10.998Z</time>
</trkpt>
<trkpt lat="31.9490700" lon="34.9607780">
<ele>157.459671</ele>
<time>2017-04-18T18:16:14.998Z</time>
</trkpt>
<trkpt lat="31.9491580" lon="34.9607360">
<ele>157.825439</ele>
<time>2017-04-18T18:16:17.996Z</time>
</trkpt>
<trkpt lat="31.9492350" lon="34.9606480">
<ele>157.794968</ele>
<time>2017-04-18T18:16:21.003Z</time>
</trkpt>
<trkpt lat="31.9493080" lon="34.9605360">
<ele>157.002472</ele>
<time>2017-04-18T18:16:24.001Z</time>
</trkpt>
<trkpt lat="31.9493830" lon="34.9604170">
<ele>157.093933</ele>
<time>2017-04-18T18:16:26.999Z</time>
</trkpt>
<trkpt lat="31.9494590" lon="34.9602970">
<ele>157.215836</ele>
<time>2017-04-18T18:16:29.997Z</time>
</trkpt>
<trkpt lat="31.9495320" lon="34.9601710">
<ele>157.215836</ele>
<time>2017-04-18T18:16:33.004Z</time>
</trkpt>
<trkpt lat="31.9496000" lon="34.9600400">
<ele>157.398727</ele>
<time>2017-04-18T18:16:36.002Z</time>
</trkpt>
<trkpt lat="31.9496670" lon="34.9599110">
<ele>157.246323</ele>
<time>2017-04-18T18:16:39.000Z</time>
</trkpt>
<trkpt lat="31.9497330" lon="34.9597970">
<ele>157.916870</ele>
<time>2017-04-18T18:16:41.998Z</time>
</trkpt>
<trkpt lat="31.9497970" lon="34.9596920">
<ele>158.130234</ele>
<time>2017-04-18T18:16:44.996Z</time>
</trkpt>
<trkpt lat="31.9498550" lon="34.9595950">
<ele>158.099762</ele>
<time>2017-04-18T18:16:48.003Z</time>
</trkpt>
<trkpt lat="31.9499020" lon="34.9595010">
<ele>158.617920</ele>
<time>2017-04-18T18:16:51.001Z</time>
</trkpt>
<trkpt lat="31.9499530" lon="34.9594030">
<ele>159.014160</ele>
<time>2017-04-18T18:16:53.999Z</time>
</trkpt>
<trkpt lat="31.9499990" lon="34.9593020">
<ele>159.471359</ele>
<time>2017-04-18T18:16:56.997Z</time>
</trkpt>
<trkpt lat="31.9500450" lon="34.9592010">
<ele>159.867599</ele>
<time>2017-04-18T18:17:00.004Z</time>
</trkpt>
<trkpt lat="31.9500950" lon="34.9590770">
<ele>160.111435</ele>
<time>2017-04-18T18:17:04.004Z</time>
</trkpt>
<trkpt lat="31.9501440" lon="34.9589650">
<ele>160.903931</ele>
<time>2017-04-18T18:17:07.996Z</time>
</trkpt>
<trkpt lat="31.9501990" lon="34.9588610">
<ele>161.513535</ele>
<time>2017-04-18T18:17:12.998Z</time>
</trkpt>
<trkpt lat="31.9502400" lon="34.9587470">
<ele>161.300171</ele>
<time>2017-04-18T18:17:18.001Z</time>
</trkpt>
<trkpt lat="31.9502720" lon="34.9586510">
<ele>162.153595</ele>
<time>2017-04-18T18:17:22.001Z</time>
</trkpt>
<trkpt lat="31.9503070" lon="34.9585320">
<ele>162.366959</ele>
<time>2017-04-18T18:17:27.004Z</time>
</trkpt>
<trkpt lat="31.9503480" lon="34.9584180">
<ele>163.159439</ele>
<time>2017-04-18T18:17:31.998Z</time>
</trkpt>
<trkpt lat="31.9503830" lon="34.9583020">
<ele>163.951935</ele>
<time>2017-04-18T18:17:37.000Z</time>
</trkpt>
<trkpt lat="31.9504150" lon="34.9581870">
<ele>164.287201</ele>
<time>2017-04-18T18:17:42.003Z</time>
</trkpt>
<trkpt lat="31.9504340" lon="34.9580570">
<ele>164.591995</ele>
<time>2017-04-18T18:17:46.997Z</time>
</trkpt>
<trkpt lat="31.9504610" lon="34.9579360">
<ele>165.140640</ele>
<time>2017-04-18T18:17:50.997Z</time>
</trkpt>
<trkpt lat="31.9504830" lon="34.9578070">
<ele>165.140640</ele>
<time>2017-04-18T18:17:54.997Z</time>
</trkpt>
<trkpt lat="31.9505060" lon="34.9576800">
<ele>165.506393</ele>
<time>2017-04-18T18:17:58.998Z</time>
</trkpt>
<trkpt lat="31.9505480" lon="34.9575470">
<ele>165.506393</ele>
<time>2017-04-18T18:18:02.998Z</time>
</trkpt>
<trkpt lat="31.9505750" lon="34.9574400">
<ele>165.445435</ele>
<time>2017-04-18T18:18:05.996Z</time>
</trkpt>
<trkpt lat="31.9506000" lon="34.9573300">
<ele>165.658798</ele>
<time>2017-04-18T18:18:09.003Z</time>
</trkpt>
<trkpt lat="31.9506250" lon="34.9572110">
<ele>165.293030</ele>
<time>2017-04-18T18:18:12.001Z</time>
</trkpt>
<trkpt lat="31.9506450" lon="34.9570930">
<ele>165.414963</ele>
<time>2017-04-18T18:18:14.999Z</time>
</trkpt>
<trkpt lat="31.9506780" lon="34.9569710">
<ele>165.354004</ele>
<time>2017-04-18T18:18:17.997Z</time>
</trkpt>
<trkpt lat="31.9507090" lon="34.9568420">
<ele>165.110168</ele>
<time>2017-04-18T18:18:21.004Z</time>
</trkpt>
<trkpt lat="31.9507350" lon="34.9567120">
<ele>164.774872</ele>
<time>2017-04-18T18:18:24.002Z</time>
</trkpt>
<trkpt lat="31.9507530" lon="34.9565880">
<ele>164.348160</ele>
<time>2017-04-18T18:18:27.000Z</time>
</trkpt>
<trkpt lat="31.9506890" lon="34.9565550">
<ele>164.774872</ele>
<time>2017-04-18T18:18:32.996Z</time>
</trkpt>
<trkpt lat="31.9506880" lon="34.9565200">
<ele>164.287201</ele>
<time>2017-04-18T18:19:33.001Z</time>
</trkpt>
<trkpt lat="31.9507180" lon="34.9563960">
<ele>164.622467</ele>
<time>2017-04-18T18:19:37.001Z</time>
</trkpt>
<trkpt lat="31.9507450" lon="34.9562680">
<ele>163.738571</ele>
<time>2017-04-18T18:19:41.002Z</time>
</trkpt>
<trkpt lat="31.9507880" lon="34.9561690">
<ele>163.616638</ele>
<time>2017-04-18T18:19:45.002Z</time>
</trkpt>
<trkpt lat="31.9508110" lon="34.9561190">
<ele>164.165268</ele>
<time>2017-04-18T18:25:33.004Z</time>
</trkpt>
</trkseg>
</trk>
</gpx>
